Provisional Data: Chiques Creek near Route 283


Please select a monitoring station.
Please select start date.
Please select start date.

Toggle Unit: C/F Toggle Unit: C/F
Sample Time Temperature (C) Temperature (F) Specific Conductivity (mS/cm) pH   Turbidity (NTU+) DO (mg/L)
5/17/2022 12:00:00 AM 17.36 63.248 0.421 7.86 13.19 9.15
5/17/2022 12:15:00 AM 17.33 63.194 0.469 7.86 12.25 9.14
5/17/2022 12:30:00 AM 17.3 63.14 0.356 7.86 13.64 9.14
5/17/2022 12:45:00 AM 17.26 63.068 0.471 7.87 13.36 9.14
5/17/2022 1:00:00 AM 17.24 63.032 0.472 7.82 11.88 9.13
5/17/2022 1:15:00 AM 17.21 62.978 0.472 7.84 12.42 9.12
5/17/2022 1:30:00 AM 17.18 62.924 0.473 7.84 11.64 9.12
5/17/2022 1:45:00 AM 17.16 62.888 0.427 7.84 11.75 9.12
5/17/2022 2:00:00 AM 17.14 62.852 0.473 7.83 13.64 9.12
5/17/2022 2:15:00 AM 17.12 62.816 0.473 7.84 12.61 9.11
5/17/2022 2:30:00 AM 17.09 62.762 0.473 7.84 15.83 9.1
5/17/2022 2:45:00 AM 17.07 62.726 0.426 7.84 14.63 9.1
5/17/2022 3:00:00 AM 17.05 62.69 0.473 7.86 13.44 9.09
5/17/2022 3:15:00 AM 17.01 62.618 0.425 7.84 14.4 9.09
5/17/2022 3:30:00 AM 16.98 62.564 0.36 7.83 13.52 9.09
5/17/2022 3:45:00 AM 16.95 62.51 0.384 7.79 13.06 9.08
5/17/2022 4:00:00 AM 16.91 62.438 0.42 7.83 16.34 9.08
5/17/2022 4:15:00 AM 16.88 62.384 0.378 7.81 14 9.07
5/17/2022 4:30:00 AM 16.84 62.312 0.391 7.82 15.69 9.08
5/17/2022 4:45:00 AM 16.8 62.24 0.356 7.82 12.52 9.07
5/17/2022 5:00:00 AM 16.77 62.186 0.362 7.81 14.09 9.07
5/17/2022 5:15:00 AM 16.73 62.114 0.358 7.81 13.51 9.07
5/17/2022 5:30:00 AM 16.7 62.06 0.361 7.81 13.74 9.06
5/17/2022 5:45:00 AM 16.67 62.006 0.362 7.79 14.62 9.06
5/17/2022 6:00:00 AM 16.64 61.952 0.362 7.79 12.72 9.05
5/17/2022 6:15:00 AM 16.61 61.898 0.36 7.79 12.71 9.06
5/17/2022 6:30:00 AM 16.58 61.844 0.36 7.79 13.77 9.05
5/17/2022 6:45:00 AM 16.55 61.79 0.36 7.78 12.95 9.06
5/17/2022 7:00:00 AM 16.51 61.718 0.361 7.78 13.69 9.06
5/17/2022 7:15:00 AM 16.47 61.646 0.36 7.79 11.89 9.07
5/17/2022 7:30:00 AM 16.44 61.592 0.362 7.79 11.96 9.08
5/17/2022 7:45:00 AM 16.4 61.52 0.36 7.78 13.17 9.1
5/17/2022 8:00:00 AM 16.36 61.448 0.362 7.79 13.35 9.12
5/17/2022 8:15:00 AM 16.32 61.376 0.363 7.79 12.71 9.14
5/17/2022 8:30:00 AM 16.29 61.322 0.366 7.8 13.07 9.17
5/17/2022 8:45:00 AM 16.27 61.286 0.367 7.81 12.19 9.2
5/17/2022 9:00:00 AM 16.25 61.25 0.367 7.82 12.08 9.23
5/17/2022 9:15:00 AM 16.23 61.214 0.367 7.81 13.05 9.26
5/17/2022 9:30:00 AM 16.24 61.232 0.365 7.83 11.74 9.28
5/17/2022 9:45:00 AM 16.24 61.232 0.363 7.82 12.34 9.31
5/17/2022 10:00:00 AM 16.24 61.232 0.361 7.84 12.67 9.34
5/17/2022 10:15:00 AM 16.25 61.25 0.364 7.83 12.3 9.36
5/17/2022 10:30:00 AM 16.28 61.304 0.472 7.84 12.95 9.37
5/17/2022 10:45:00 AM 16.3 61.34 0.475 7.84 11.84 9.4
5/17/2022 11:00:00 AM 16.33 61.394 0.477 7.86 11.41 9.43
5/17/2022 11:15:00 AM 16.37 61.466 0.479 7.86 11.19 9.44
5/17/2022 11:30:00 AM 16.41 61.538 0.408 7.87 10.28 9.46
5/17/2022 11:45:00 AM 16.45 61.61 0.433 7.88 10.54 9.48
5/17/2022 12:00:00 PM 16.52 61.736 0.434 7.88 10.69 9.48
5/17/2022 12:15:00 PM 16.58 61.844 0.483 7.9 9.87 9.5
5/17/2022 12:30:00 PM 16.62 61.916 0.437 7.91 9.68 9.47
5/17/2022 12:45:00 PM 16.71 62.078 0.381 7.91 9.46 9.49
5/17/2022 1:00:00 PM 16.75 62.15 0.44 7.92 8.87 9.49
5/17/2022 1:15:00 PM 16.84 62.312 0.442 7.92 9.6 9.52
5/17/2022 1:30:00 PM 16.94 62.492 0.429 7.93 9.66 9.54
5/17/2022 1:45:00 PM 16.95 62.51 0.445 7.94 9.92 9.49
5/17/2022 2:00:00 PM 17.05 62.69 0.431 7.95 8.97 9.51
5/17/2022 2:15:00 PM 17.13 62.834 0.447 7.95 8.24 9.56
5/17/2022 2:30:00 PM 17.21 62.978 0.425 7.96 8.87 9.55
5/17/2022 2:45:00 PM 17.3 63.14 0.449 7.97 9 9.58
5/17/2022 3:00:00 PM 17.38 63.284 0.426 7.99 8.5 9.62
5/17/2022 3:15:00 PM 17.46 63.428 0.435 8.01 8.07 9.62
5/17/2022 3:30:00 PM 17.55 63.59 0.432 7.99 7.65 9.62
5/17/2022 3:45:00 PM 17.65 63.77 0.437 8.01 8.18 9.62
5/17/2022 4:00:00 PM 17.74 63.932 0.434 8.01 7.97 9.62
5/17/2022 4:15:00 PM 17.8 64.04 0.439 8.01 7.42 9.57
5/17/2022 4:30:00 PM 17.87 64.166 0.435 8.02 7.52 9.58
5/17/2022 4:45:00 PM 17.92 64.256 0.44 8.02 7.04 9.56
5/17/2022 5:00:00 PM 17.96 64.328 0.436 8.03 6.39 9.57
5/17/2022 5:15:00 PM 17.97 64.346 0.44 8.03 7.78 9.56
5/17/2022 5:30:00 PM 17.96 64.328 0.435 8.04 6.8 9.55
5/17/2022 5:45:00 PM 17.93 64.274 0.44 8.03 7.56 9.53
5/17/2022 6:00:00 PM 17.9 64.22 0.435 8.04 8.11 9.53
5/17/2022 6:15:00 PM 17.86 64.148 0.453 8.04 7.09 9.53
5/17/2022 6:30:00 PM 17.81 64.058 0.44 8.04 6.34 9.51
5/17/2022 6:45:00 PM 17.76 63.968 0.398 8.04 6.07 9.5
5/17/2022 7:00:00 PM 17.72 63.896 0.436 8.03 6.16 9.5
5/17/2022 7:15:00 PM 17.69 63.842 0.441 8.03 10.67 9.49
5/17/2022 7:30:00 PM 17.67 63.806 0.436 8.03 6.12 9.48
5/17/2022 7:45:00 PM 17.64 63.752 0.441 8.03 7.69 9.46
5/17/2022 8:00:00 PM 17.62 63.716 0.441 8.02 7.34 9.45
5/17/2022 8:15:00 PM 17.6 63.68 0.441 8.02 6.25 9.45
5/17/2022 8:30:00 PM 17.57 63.626 0.436 8.02 7.31 9.44
5/17/2022 8:45:00 PM 17.55 63.59 0.441 8.01 8.36 9.43
5/17/2022 9:00:00 PM 17.52 63.536 0.436 8.01 6.58 9.4
5/17/2022 9:15:00 PM 17.49 63.482 0.441 8.01 7.31 9.41
5/17/2022 9:30:00 PM 17.46 63.428 0.437 8.01 7.22 9.4
5/17/2022 9:45:00 PM 17.42 63.356 0.441 7.99 6.12 9.4
5/17/2022 10:00:00 PM 17.37 63.266 0.432 8 6.41 9.39
5/17/2022 10:15:00 PM 17.32 63.176 0.457 7.98 6.25 9.38
5/17/2022 10:30:00 PM 17.27 63.086 0.437 7.99 6.52 9.38
5/17/2022 10:45:00 PM 17.22 62.996 0.442 7.98 7.48 9.37
5/17/2022 11:00:00 PM 17.17 62.906 0.442 7.99 6.57 9.36
5/17/2022 11:15:00 PM 17.12 62.816 0.457 7.98 6.58 9.36
5/17/2022 11:30:00 PM 17.06 62.708 0.457 7.98 6.6 9.35
5/17/2022 11:45:00 PM 17 62.6 0.456 7.96 6.79 9.34
5/18/2022 12:00:00 AM 16.95 62.51 0.442 7.97 7 9.34
5/18/2022 12:15:00 AM 16.9 62.42 0.456 7.95 7.3 9.33
5/18/2022 12:30:00 AM 16.84 62.312 0.442 7.95 6.29 9.33
5/18/2022 12:45:00 AM 16.78 62.204 0.456 7.92 8.21 9.32
5/18/2022 1:00:00 AM 16.72 62.096 0.428 7.93 7.92 9.31
5/18/2022 1:15:00 AM 16.65 61.97 0.458 7.92 7.75 9.31
5/18/2022 1:30:00 AM 16.59 61.862 0.459 7.94 6.78 9.31
5/18/2022 1:45:00 AM 16.52 61.736 0.445 7.93 9.12 9.32
5/18/2022 2:00:00 AM 16.46 61.628 0.445 7.91 7.64 9.32
5/18/2022 2:15:00 AM 16.38 61.484 0.446 7.91 7.93 9.32
5/18/2022 2:30:00 AM 16.32 61.376 0.436 7.92 7.3 9.32
5/18/2022 2:45:00 AM 16.25 61.25 0.46 7.92 7.07 9.32
5/18/2022 3:00:00 AM 16.19 61.142 0.461 7.91 8.35 9.33
5/18/2022 3:15:00 AM 16.13 61.034 0.446 7.92 7.54 9.34
5/18/2022 3:30:00 AM 16.07 60.926 0.416 7.91 7.25 9.35
5/18/2022 3:45:00 AM 16 60.8 0.437 7.91 6.39 9.35
5/18/2022 4:00:00 AM 15.95 60.71 0.461 7.89 6.69 9.35
5/18/2022 4:15:00 AM 15.89 60.602 0.447 7.91 6.96 9.36
5/18/2022 4:30:00 AM 15.83 60.494 0.463 7.89 7.68 9.37
5/18/2022 4:45:00 AM 15.77 60.386 0.444 7.89 7.42 9.38
5/18/2022 5:00:00 AM 15.72 60.296 0.45 7.92 8.93 9.39
5/18/2022 5:15:00 AM 15.67 60.206 0.446 7.89 6.04 9.39
5/18/2022 5:30:00 AM 15.62 60.116 0.452 7.89 8.41 9.4
5/18/2022 5:45:00 AM 15.57 60.026 0.454 7.9 10.5 9.4
5/18/2022 6:00:00 AM 15.53 59.954 0.47 7.89 10.13 9.41
5/18/2022 6:15:00 AM 15.49 59.882 0.456 7.88 7.79 9.42
5/18/2022 6:30:00 AM 15.44 59.792 0.457 7.88 7.75 9.44
5/18/2022 6:45:00 AM 15.41 59.738 0.522 7.89 7.61 9.46
5/18/2022 7:00:00 AM 15.38 59.684 0.473 7.9 7.71 9.46
5/18/2022 7:15:00 AM 15.34 59.612 0.523 7.9 7.93 9.47
5/18/2022 7:30:00 AM 15.31 59.558 0.45 7.9 10.07 9.47
5/18/2022 7:45:00 AM 15.27 59.486 0.475 7.91 8.78 9.49
5/18/2022 8:00:00 AM 15.25 59.45 0.459 7.91 8.01 9.52
5/18/2022 8:15:00 AM 15.23 59.414 0.46 7.9 8.67 9.53
5/18/2022 8:30:00 AM 15.22 59.396 0.46 7.91 7.58 9.55
5/18/2022 8:45:00 AM 15.21 59.378 0.434 7.91 9.18 9.57
5/18/2022 9:00:00 AM 15.21 59.378 0.475 7.89 7.63 9.6
5/18/2022 9:15:00 AM 15.23 59.414 0.476 7.92 7.8 9.62
5/18/2022 9:30:00 AM 15.25 59.45 0.477 7.92 7.48 9.64
5/18/2022 9:45:00 AM 15.27 59.486 0.462 7.91 8.04 9.66
5/18/2022 10:00:00 AM 15.3 59.54 0.463 7.92 7.72 9.68
5/18/2022 10:15:00 AM 15.32 59.576 0.464 7.92 8.96 9.69
5/18/2022 10:30:00 AM 15.37 59.666 0.466 7.93 6.99 9.71
5/18/2022 10:45:00 AM 15.4 59.72 0.481 7.93 6.73 9.72
5/18/2022 11:00:00 AM 15.45 59.81 0.534 7.94 6.88 9.73
5/18/2022 11:15:00 AM 15.49 59.882 0.468 7.94 6.97 9.75
5/18/2022 11:30:00 AM 15.53 59.954 0.468 7.95 6.57 9.77
5/18/2022 11:45:00 AM 15.59 60.062 0.535 7.96 7.05 9.78
5/18/2022 12:00:00 PM 15.65 60.17 0.468 7.97 6.19 9.8
5/18/2022 12:15:00 PM 15.69 60.242 0.468 7.96 6.47 9.8
5/18/2022 12:30:00 PM 15.76 60.368 0.467 7.97 7.04 9.81
5/18/2022 12:45:00 PM 15.87 60.566 0.468 7.97 7.08 9.83
5/18/2022 1:00:00 PM 15.94 60.692 0.468 7.98 6.14 9.84
5/18/2022 1:15:00 PM 16.02 60.836 0.483 7.98 6.67 9.85
5/18/2022 1:30:00 PM 16.1 60.98 0.467 7.99 6.85 9.86
5/18/2022 1:45:00 PM 16.2 61.16 0.459 8 6.1 9.86
5/18/2022 2:00:00 PM 16.29 61.322 0.468 8 6.6 9.87
5/18/2022 2:15:00 PM 16.41 61.538 0.482 8.02 6.34 9.88
5/18/2022 2:30:00 PM 16.49 61.682 0.463 8.03 6.34 9.89
5/18/2022 2:45:00 PM 16.6 61.88 0.462 8.03 6.08 9.89
5/18/2022 3:00:00 PM 16.7 62.06 0.466 8.05 7.2 9.89
5/18/2022 3:15:00 PM 16.72 62.096 0.465 8.05 8.57 9.85
5/18/2022 3:30:00 PM 16.79 62.222 0.454 8.06 5.66 9.87
5/18/2022 3:45:00 PM 16.92 62.456 0.459 8.07 6.13 9.92
5/18/2022 4:00:00 PM 17 62.6 0.463 8.07 9.03 9.92
5/18/2022 4:15:00 PM 17.02 62.636 0.458 8.09 4.63 9.92
5/18/2022 4:30:00 PM 17.08 62.744 0.458 8.09 5.18 9.94
5/18/2022 4:45:00 PM 17.05 62.69 0.462 8.09 5.94 9.88
5/18/2022 5:00:00 PM 17.06 62.708 0.445 8.1 5.66 9.84
5/18/2022 5:15:00 PM 17.07 62.726 0.461 8.09 8.11 9.85
5/18/2022 5:30:00 PM 17.07 62.726 0.461 8.09 6.59 9.83
5/18/2022 5:45:00 PM 17.06 62.708 0.451 8.1 5.73 9.83
5/18/2022 6:00:00 PM 17.06 62.708 0.456 8.1 5.9 9.84
5/18/2022 6:15:00 PM 17.05 62.69 0.456 8.1 6.05 9.83
5/18/2022 6:30:00 PM 17.05 62.69 0.461 8.09 6.27 9.79
5/18/2022 6:45:00 PM 17.05 62.69 0.456 8.09 5.6 9.77
5/18/2022 7:00:00 PM 17.07 62.726 0.461 8.09 5.91 9.79
5/18/2022 7:15:00 PM 17.05 62.69 0.462 8.1 4.78 9.77
5/18/2022 7:30:00 PM 17.05 62.69 0.457 8.09 5.75 9.74
5/18/2022 7:45:00 PM 17.04 62.672 0.458 8.09 5.54 9.71
5/18/2022 8:00:00 PM 17.03 62.654 0.457 8.07 6.13 9.67
5/18/2022 8:15:00 PM 17.03 62.654 0.462 8.08 6.19 9.66
5/18/2022 8:30:00 PM 17.01 62.618 0.457 8.08 5.91 9.64
5/18/2022 8:45:00 PM 16.99 62.582 0.462 8.08 6.92 9.63
5/18/2022 9:00:00 PM 16.97 62.546 0.455 8.05 7.09 9.6
5/18/2022 9:15:00 PM 16.94 62.492 0.461 8.06 5.29 9.6
5/18/2022 9:30:00 PM 16.91 62.438 0.456 8.05 4.3 9.57
5/18/2022 9:45:00 PM 16.89 62.402 0.461 8.03 5.22 9.55
5/18/2022 10:00:00 PM 16.87 62.366 0.46 8.03 9.37 9.54
5/18/2022 10:15:00 PM 16.84 62.312 0.396 8.05 5.82 9.52
5/18/2022 10:30:00 PM 16.81 62.258 0.454 8.02 4.97 9.48
5/18/2022 10:45:00 PM 16.78 62.204 0.459 8.01 6 9.48
5/18/2022 11:00:00 PM 16.74 62.132 0.45 8.01 5.18 9.46
5/18/2022 11:15:00 PM 16.71 62.078 0.458 8 6.25 9.44
5/18/2022 11:30:00 PM 16.67 62.006 0.458 7.99 6.78 9.44
5/18/2022 11:45:00 PM 16.63 61.934 0.473 7.99 7.73 9.42
5/19/2022 12:00:00 AM 16.59 61.862 0.449 7.98 8.49 9.41
5/19/2022 12:15:00 AM 16.56 61.808 0.458 7.98 7.33 9.39
5/19/2022 12:30:00 AM 16.51 61.718 0.453 7.97 9.11 9.39
5/19/2022 12:45:00 AM 16.47 61.646 0.458 7.96 7.18 9.38
5/19/2022 1:00:00 AM 16.42 61.556 0.452 7.96 3.3 9.36
5/19/2022 1:15:00 AM 16.38 61.484 0.472 7.96 7.44 9.36
5/19/2022 1:30:00 AM 16.33 61.394 0.456 7.95 7.15 9.35
5/19/2022 1:45:00 AM 16.28 61.304 0.456 7.95 6.95 9.35
5/19/2022 2:00:00 AM 16.24 61.232 0.456 7.95 5.3 9.34
5/19/2022 2:15:00 AM 16.2 61.16 0.471 7.94 5.7 9.34
5/19/2022 2:30:00 AM 16.15 61.07 0.445 7.95 6.42 9.34
5/19/2022 2:45:00 AM 16.11 60.998 0.469 7.93 7.36 9.33
5/19/2022 3:00:00 AM 16.07 60.926 0.454 7.94 4.84 9.33
5/19/2022 3:15:00 AM 16.03 60.854 0.469 7.94 6.9 9.32
5/19/2022 3:30:00 AM 16 60.8 0.453 7.93 6.03 9.32
5/19/2022 3:45:00 AM 15.96 60.728 0.43 7.91 13.37 9.32
5/19/2022 4:00:00 AM 15.92 60.656 0.453 7.92 6.9 9.33
5/19/2022 4:15:00 AM 15.89 60.602 0.453 7.91 6.61 9.33
5/19/2022 4:30:00 AM 15.86 60.548 0.453 7.9 8.24 9.32
5/19/2022 4:45:00 AM 15.83 60.494 0.517 7.9 7.04 9.31
5/19/2022 5:00:00 AM 15.8 60.44 0.468 7.9 7.47 9.31
5/19/2022 5:15:00 AM 15.77 60.386 0.468 7.89 7.5 9.31
5/19/2022 5:30:00 AM 15.75 60.35 0.444 7.91 6.99 9.31
5/19/2022 5:45:00 AM 15.72 60.296 0.455 7.89 7.17 9.31
5/19/2022 6:00:00 AM 15.7 60.26 0.439 7.88 7.58 9.31
5/19/2022 6:15:00 AM 15.68 60.224 0.456 7.89 6.24 9.33
5/19/2022 6:30:00 AM 15.66 60.188 0.456 7.86 6.49 9.33
5/19/2022 6:45:00 AM 15.63 60.134 0.456 7.87 8.57 9.34
5/19/2022 7:00:00 AM 15.61 60.098 0.458 7.87 7.1 9.35
5/19/2022 7:15:00 AM 15.59 60.062 0.458 7.87 7.52 9.36
5/19/2022 7:30:00 AM 15.58 60.044 0.457 7.87 8.01 9.37
5/19/2022 7:45:00 AM 15.58 60.044 0.456 7.87 7.59 9.39
5/19/2022 8:00:00 AM 15.58 60.044 0.469 7.87 9.55 9.39
5/19/2022 8:15:00 AM 15.58 60.044 0.452 7.86 8.26 9.41
5/19/2022 8:30:00 AM 15.59 60.062 0.466 7.84 8.98 9.42
5/19/2022 8:45:00 AM 15.59 60.062 0.463 7.87 7.86 9.44
5/19/2022 9:00:00 AM 15.59 60.062 0.437 7.85 7.5 9.45
5/19/2022 9:15:00 AM 15.59 60.062 0.446 7.88 7.64 9.48
5/19/2022 9:30:00 AM 15.59 60.062 0.507 7.87 8.8 9.49
5/19/2022 9:45:00 AM 15.59 60.062 0.433 7.88 8.31 9.51
5/19/2022 10:00:00 AM 15.59 60.062 0.456 7.86 9.96 9.52
5/19/2022 10:15:00 AM 15.59 60.062 0.502 7.88 8.63 9.54
5/19/2022 10:30:00 AM 15.6 60.08 0.452 7.88 9.85 9.55
5/19/2022 10:45:00 AM 15.61 60.098 0.45 7.86 8.92 9.58
5/19/2022 11:00:00 AM 15.64 60.152 0.447 7.89 9.3 9.62
5/19/2022 11:15:00 AM 15.66 60.188 0.446 7.89 10.68 9.64
5/19/2022 11:30:00 AM 15.69 60.242 0.444 7.89 10.31 9.64
5/19/2022 11:45:00 AM 15.74 60.332 0.406 7.88 10.23 9.64
5/19/2022 12:00:00 PM 15.83 60.494 0.486 7.89 10.85 9.64
5/19/2022 12:15:00 PM 15.9 60.62 0.48 7.87 11.22 9.62
5/19/2022 12:30:00 PM 15.97 60.746 0.364 7.88 14.51 9.59
5/19/2022 12:45:00 PM 16.04 60.872 0.362 7.84 12.69 9.58
5/19/2022 1:00:00 PM 16.14 61.052 0.366 7.85 13.45 9.56
5/19/2022 1:15:00 PM 16.18 61.124 0.366 7.84 13 9.55
5/19/2022 1:30:00 PM 16.27 61.286 0.362 7.85 12.83 9.55
5/19/2022 1:45:00 PM 16.36 61.448 0.361 7.85 13.6 9.54
5/19/2022 2:00:00 PM 16.49 61.682 0.355 7.85 14.18 9.54
5/19/2022 2:15:00 PM 16.6 61.88 0.35 7.88 13.31 9.54
5/19/2022 2:30:00 PM 16.69 62.042 0.348 7.87 14.1 9.54
5/19/2022 2:45:00 PM 16.76 62.168 0.342 7.86 13.96 9.54
5/19/2022 3:00:00 PM 16.75 62.15 0.344 7.87 14.4 9.51
5/19/2022 3:15:00 PM 16.81 62.258 0.342 7.89 14.42 9.54
5/19/2022 3:30:00 PM 16.86 62.348 0.345 7.87 14.63 9.54
5/19/2022 3:45:00 PM 16.86 62.348 0.343 7.86 15.36 9.51
5/19/2022 4:00:00 PM 16.91 62.438 0.344 7.87 15.35 9.52
5/19/2022 4:15:00 PM 16.95 62.51 0.34 7.88 15.57 9.52
5/19/2022 4:30:00 PM 16.98 62.564 0.342 7.89 16.96 9.51
5/19/2022 4:45:00 PM 17.02 62.636 0.339 7.88 15.7 9.5
5/19/2022 5:00:00 PM 17.05 62.69 0.338 7.89 15.85 9.48
5/19/2022 5:15:00 PM 17.07 62.726 0.334 7.88 16.13 9.47
5/19/2022 5:30:00 PM 17.07 62.726 0.336 7.87 16.5 9.46
5/19/2022 5:45:00 PM 17.07 62.726 0.335 7.87 15.78 9.45
5/19/2022 6:00:00 PM 17.06 62.708 0.336 7.88 15.61 9.44
5/19/2022 6:15:00 PM 17.05 62.69 0.335 7.87 16.11 9.42
5/19/2022 6:30:00 PM 17.05 62.69 0.337 7.87 15.88 9.41
5/19/2022 6:45:00 PM 17.04 62.672 0.336 7.86 16.22 9.38
5/19/2022 7:00:00 PM 17.04 62.672 0.337 7.86 15.91 9.36
5/19/2022 7:15:00 PM 17.02 62.636 0.337 7.85 15.95 9.35
5/19/2022 7:30:00 PM 17.01 62.618 0.339 7.85 16.3 9.33
5/19/2022 7:45:00 PM 16.98 62.564 0.338 7.85 16.09 9.32
5/19/2022 8:00:00 PM 16.96 62.528 0.339 7.84 16.17 9.3
5/19/2022 8:15:00 PM 16.94 62.492 0.331 7.83 16.35 9.29
5/19/2022 8:30:00 PM 16.92 62.456 0.342 7.82 16.95 9.28
5/19/2022 8:45:00 PM 16.91 62.438 0.341 7.83 16.87 9.28
5/19/2022 9:00:00 PM 16.9 62.42 0.345 7.82 16.57 9.27
5/19/2022 9:15:00 PM 16.9 62.42 0.346 7.81 15.94 9.25
5/19/2022 9:30:00 PM 16.89 62.402 0.35 7.82 15.66 9.26
5/19/2022 9:45:00 PM 16.88 62.384 0.351 7.82 15.47 9.25
5/19/2022 10:00:00 PM 16.88 62.384 0.355 7.82 15.68 9.24
5/19/2022 10:15:00 PM 16.87 62.366 0.357 7.81 14.76 9.24
5/19/2022 10:30:00 PM 16.86 62.348 0.362 7.83 15.75 9.23
5/19/2022 10:45:00 PM 16.84 62.312 0.357 7.82 14.99 9.23
5/19/2022 11:00:00 PM 16.82 62.276 0.362 7.81 14.56 9.21
5/19/2022 11:15:00 PM 16.8 62.24 0.349 7.82 14.76 9.21
5/19/2022 11:30:00 PM 16.77 62.186 0.376 7.81 14.73 9.2
5/19/2022 11:45:00 PM 16.75 62.15 0.361 7.8 14.55 9.2
5/20/2022 12:00:00 AM 16.72 62.096 0.363 7.8 14.65 9.2
5/20/2022 12:15:00 AM 16.69 62.042 0.363 7.78 14.28 9.2
5/20/2022 12:30:00 AM 16.67 62.006 0.363 7.8 13.68 9.2
5/20/2022 12:45:00 AM 16.64 61.952 0.363 7.79 13.66 9.2
5/20/2022 1:00:00 AM 16.62 61.916 0.364 7.8 13.84 9.2
5/20/2022 1:15:00 AM 16.61 61.898 0.359 7.81 13.69 9.2
5/20/2022 1:30:00 AM 16.59 61.862 0.361 7.79 13 9.19
5/20/2022 1:45:00 AM 16.57 61.826 0.361 7.78 13.26 9.2
5/20/2022 2:00:00 AM 16.54 61.772 0.362 7.79 13.55 9.19
5/20/2022 2:15:00 AM 16.52 61.736 0.362 7.78 13.44 9.2
5/20/2022 2:30:00 AM 16.5 61.7 0.363 7.79 12.71 9.19
5/20/2022 2:45:00 AM 16.47 61.646 0.363 7.81 12.63 9.2
5/20/2022 3:00:00 AM 16.45 61.61 0.363 7.79 12.27 9.21
5/20/2022 3:15:00 AM 16.42 61.556 0.365 7.81 12.72 9.21
5/20/2022 3:30:00 AM 16.4 61.52 0.365 7.79 12.84 9.21
5/20/2022 3:45:00 AM 16.37 61.466 0.364 7.78 12.34 9.22
5/20/2022 4:00:00 AM 16.35 61.43 0.367 7.79 12.22 9.23
5/20/2022 4:15:00 AM 16.32 61.376 0.366 7.78 11.56 9.23
5/20/2022 4:30:00 AM 16.3 61.34 0.365 7.79 12.3 9.24
5/20/2022 4:45:00 AM 16.28 61.304 0.365 7.82 12.44 9.24
5/20/2022 5:00:00 AM 16.25 61.25 0.364 7.8 11.97 9.25
5/20/2022 5:15:00 AM 16.23 61.214 0.363 7.8 11.35 9.25
5/20/2022 5:30:00 AM 16.21 61.178 0.384 7.8 11.95 9.25
5/20/2022 5:45:00 AM 16.19 61.142 0.366 7.79 12.06 9.26
5/20/2022 6:00:00 AM 16.16 61.088 0.386 7.81 11.58 9.27
5/20/2022 6:15:00 AM 16.14 61.052 0.368 7.81 10.58 9.27
5/20/2022 6:30:00 AM 16.13 61.034 0.367 7.81 11.85 9.28
5/20/2022 6:45:00 AM 16.11 60.998 0.367 7.8 11.4 9.3
5/20/2022 7:00:00 AM 16.09 60.962 0.369 7.8 10.98 9.31
5/20/2022 7:15:00 AM 16.07 60.926 0.369 7.82 11.25 9.31
5/20/2022 7:30:00 AM 16.06 60.908 0.368 7.81 10.84 9.33
5/20/2022 7:45:00 AM 16.04 60.872 0.368 7.82 10.88 9.32
5/20/2022 8:00:00 AM 16.02 60.836 0.367 7.82 10.62 9.33
5/20/2022 8:15:00 AM 16 60.8 0.368 7.81 10.8 9.34
5/20/2022 8:30:00 AM 15.99 60.782 0.367 7.82 10.45 9.35
5/20/2022 8:45:00 AM 15.98 60.764 0.365 7.8 9.93 9.38
5/20/2022 9:00:00 AM 15.98 60.764 0.366 7.82 10.24 9.4
5/20/2022 9:15:00 AM 15.96 60.728 0.367 7.82 9.68 9.38
5/20/2022 9:30:00 AM 15.94 60.692 0.369 7.83 9.66 9.38
5/20/2022 9:45:00 AM 15.94 60.692 0.37 7.83 9.95 9.42
5/20/2022 10:00:00 AM 15.98 60.764 0.365 7.82 9.61 9.47
5/20/2022 10:15:00 AM 15.97 60.746 0.366 7.84 9.49 9.44
5/20/2022 10:30:00 AM 15.98 60.764 0.367 7.83 9.67 9.44
5/20/2022 10:45:00 AM 15.96 60.728 0.37 7.84 9.02 9.41
5/20/2022 11:00:00 AM 15.98 60.764 0.361 7.85 9.27 9.46
5/20/2022 11:15:00 AM 16.09 60.962 0.364 7.85 8.66 9.53
5/20/2022 11:30:00 AM 16.07 60.926 0.362 7.87 9.05 9.5
5/20/2022 11:45:00 AM 16.17 61.106 0.363 7.87 8.48 9.54
5/20/2022 12:00:00 PM 16.16 61.088 0.362 7.87 8.46 9.49
5/20/2022 12:15:00 PM 16.14 61.052 0.362 7.86 8.42 9.42
5/20/2022 12:30:00 PM 16.25 61.25 0.367 7.89 8.17 9.56
5/20/2022 12:45:00 PM 16.28 61.304 0.424 7.88 7.56 9.5
5/20/2022 1:00:00 PM 16.31 61.358 0.471 7.88 7.9 9.48
5/20/2022 1:15:00 PM 16.35 61.43 0.466 7.88 7.92 9.44
5/20/2022 1:30:00 PM 16.35 61.43 0.469 7.91 9.5 9.5
5/20/2022 1:45:00 PM 16.37 61.466 0.424 7.88 7.64 9.49
5/20/2022 2:00:00 PM 16.39 61.502 0.358 7.89 8.33 9.54
5/20/2022 2:15:00 PM 16.54 61.772 0.425 7.91 7.44 9.62
5/20/2022 2:30:00 PM 16.56 61.808 0.47 7.91 8.51 9.55
5/20/2022 2:45:00 PM 16.56 61.808 0.467 7.9 7.82 9.5
5/20/2022 3:00:00 PM 16.6 61.88 0.362 7.89 7.79 9.5
5/20/2022 3:15:00 PM 16.64 61.952 0.394 7.92 7 9.52
5/20/2022 3:30:00 PM 16.66 61.988 0.468 7.92 7.61 9.52
5/20/2022 3:45:00 PM 16.7 62.06 0.423 7.93 7.19 9.58
5/20/2022 4:00:00 PM 16.75 62.15 0.468 7.92 7.9 9.58
5/20/2022 4:15:00 PM 16.78 62.204 0.423 7.93 7.63 9.56
5/20/2022 4:30:00 PM 16.82 62.276 0.471 7.94 7.9 9.55
5/20/2022 4:45:00 PM 16.86 62.348 0.425 7.93 7.98 9.53
5/20/2022 5:00:00 PM 16.9 62.42 0.425 7.92 9.17 9.52
5/20/2022 5:15:00 PM 16.92 62.456 0.425 7.92 9.27 9.5
5/20/2022 5:30:00 PM 16.93 62.474 0.425 7.9 8.95 9.5
5/20/2022 5:45:00 PM 16.95 62.51 0.381 7.9 9.53 9.49
5/20/2022 6:00:00 PM 16.97 62.546 0.425 7.89 9.73 9.48
5/20/2022 6:15:00 PM 16.99 62.582 0.471 7.9 10.27 9.47
5/20/2022 6:30:00 PM 17 62.6 0.471 7.88 10.44 9.46
5/20/2022 6:45:00 PM 17.01 62.618 0.357 7.9 11.67 9.44
5/20/2022 7:00:00 PM 17.01 62.618 0.421 7.88 12.4 9.44
5/20/2022 7:15:00 PM 17.01 62.618 0.353 7.87 12.65 9.43
5/20/2022 7:30:00 PM 17.01 62.618 0.459 7.87 12.58 9.43
5/20/2022 7:45:00 PM 16.99 62.582 0.459 7.86 12.09 9.43
5/20/2022 8:00:00 PM 16.96 62.528 0.461 7.87 12.36 9.42
5/20/2022 8:15:00 PM 16.94 62.492 0.361 7.88 12.71 9.41
5/20/2022 8:30:00 PM 16.92 62.456 0.46 7.87 13.72 9.4
5/20/2022 8:45:00 PM 16.9 62.42 0.359 7.87 14.15 9.39
5/20/2022 9:00:00 PM 16.88 62.384 0.354 7.86 14.89 9.39
5/20/2022 9:15:00 PM 16.86 62.348 0.361 7.85 13.57 9.38
5/20/2022 9:30:00 PM 16.85 62.33 0.456 7.86 15.16 9.37
5/20/2022 9:45:00 PM 16.84 62.312 0.362 7.85 15.5 9.36
5/20/2022 10:00:00 PM 16.83 62.294 0.456 7.83 16.25 9.35
5/20/2022 10:15:00 PM 16.84 62.312 0.357 7.84 17.86 9.34
5/20/2022 10:30:00 PM 16.85 62.33 0.456 7.83 18.21 9.32
5/20/2022 10:45:00 PM 16.86 62.348 0.358 7.85 19.8 9.29
5/20/2022 11:00:00 PM 16.89 62.402 0.456 7.81 21.15 9.26
5/20/2022 11:15:00 PM 16.92 62.456 0.355 7.81 22.41 9.23
5/20/2022 11:30:00 PM 16.97 62.546 0.454 7.82 24.38 9.2
5/20/2022 11:45:00 PM 17.01 62.618 0.355 7.79 24.67 9.18
5/21/2022 12:00:00 AM 17.06 62.708 0.36 7.78 24.22 9.15
5/21/2022 12:15:00 AM 17.12 62.816 0.357 7.77 24.2 9.13
5/21/2022 12:30:00 AM 17.17 62.906 0.358 7.77 23.02 9.12
5/21/2022 12:45:00 AM 17.24 63.032 0.356 7.76 23.24 9.1
5/21/2022 1:00:00 AM 17.31 63.158 0.354 7.78 21.63 9.08
5/21/2022 1:15:00 AM 17.37 63.266 0.351 7.78 21.05 9.06
5/21/2022 1:30:00 AM 17.43 63.374 0.347 7.75 19.84 9.05
5/21/2022 1:45:00 AM 17.47 63.446 0.334 7.76 19.42 9.03
5/21/2022 2:00:00 AM 17.5 63.5 0.342 7.74 19.77 9.02
5/21/2022 2:15:00 AM 17.51 63.518 0.338 7.76 18.91 9.02
5/21/2022 2:30:00 AM 17.52 63.536 0.338 7.75 18.8 9.01
5/21/2022 2:45:00 AM 17.52 63.536 0.338 7.73 18.27 9.03
5/21/2022 3:00:00 AM 17.51 63.518 0.341 7.74 18.04 9.03
5/21/2022 3:15:00 AM 17.49 63.482 0.344 7.77 17.9 9.05
5/21/2022 3:30:00 AM 17.46 63.428 0.349 7.73 16.29 9.06
5/21/2022 3:45:00 AM 17.43 63.374 0.352 7.75 17.75 9.08
5/21/2022 4:00:00 AM 17.39 63.302 0.356 7.76 17.43 9.09
5/21/2022 4:15:00 AM 17.35 63.23 0.357 7.76 17.04 9.11
5/21/2022 4:30:00 AM 17.3 63.14 0.358 7.76 16.02 9.12
5/21/2022 4:45:00 AM 17.26 63.068 0.357 7.79 13.44 9.13
5/21/2022 5:00:00 AM 17.21 62.978 0.359 7.78 15.14 9.15
5/21/2022 5:15:00 AM 17.17 62.906 0.358 7.77 15.09 9.16
5/21/2022 5:30:00 AM 17.13 62.834 0.355 7.75 14.72 9.17
5/21/2022 5:45:00 AM 17.09 62.762 0.356 7.79 13.94 9.18
5/21/2022 6:00:00 AM 17.05 62.69 0.36 7.77 14.15 9.2
5/21/2022 6:15:00 AM 17 62.6 0.357 7.78 13.7 9.21
5/21/2022 6:30:00 AM 16.96 62.528 0.357 7.76 13.71 9.22
5/21/2022 6:45:00 AM 16.92 62.456 0.357 7.78 14.29 9.24
5/21/2022 7:00:00 AM 16.88 62.384 0.36 7.77 13.52 9.26
5/21/2022 7:15:00 AM 16.85 62.33 0.359 7.77 13.25 9.27
5/21/2022 7:30:00 AM 16.82 62.276 0.36 7.77 13.63 9.29
5/21/2022 7:45:00 AM 16.79 62.222 0.363 7.78 13.45 9.3
5/21/2022 8:00:00 AM 16.77 62.186 0.362 7.78 13.92 9.31
5/21/2022 8:15:00 AM 16.75 62.15 0.362 7.78 13.76 9.33
5/21/2022 8:30:00 AM 16.73 62.114 0.361 7.78 13.86 9.34
5/21/2022 8:45:00 AM 16.73 62.114 0.343 7.8 14.04 9.34
5/21/2022 9:00:00 AM 16.73 62.114 0.363 7.79 13.98 9.35
5/21/2022 9:15:00 AM 16.74 62.132 0.342 7.81 14.61 9.35
5/21/2022 9:30:00 AM 16.77 62.186 0.359 7.8 14.94 9.36
5/21/2022 9:45:00 AM 16.79 62.222 0.362 7.8 14.6 9.37
5/21/2022 10:00:00 AM 16.82 62.276 0.381 7.79 14.85 9.37
5/21/2022 10:15:00 AM 16.86 62.348 0.36 7.8 15.01 9.38
5/21/2022 10:30:00 AM 16.91 62.438 0.452 7.81 14.84 9.39
5/21/2022 10:45:00 AM 16.98 62.564 0.356 7.8 15.25 9.39
5/21/2022 11:00:00 AM 17.04 62.672 0.457 7.81 15.5 9.38
5/21/2022 11:15:00 AM 17.11 62.798 0.36 7.84 15.75 9.38
5/21/2022 11:30:00 AM 17.2 62.96 0.413 7.82 15.39 9.39
5/21/2022 11:45:00 AM 17.28 63.104 0.46 7.83 15.95 9.39
5/21/2022 12:00:00 PM 17.36 63.248 0.393 7.84 15.64 9.38
5/21/2022 12:15:00 PM 17.46 63.428 0.462 7.85 16.01 9.38
5/21/2022 12:30:00 PM 17.56 63.608 0.418 7.85 15.82 9.37
5/21/2022 12:45:00 PM 17.67 63.806 0.464 7.85 15.75 9.37
5/21/2022 1:00:00 PM 17.79 64.022 0.405 7.83 16.12 9.36
5/21/2022 1:15:00 PM 17.91 64.238 0.35 7.88 15.9 9.35
5/21/2022 1:30:00 PM 18.04 64.472 0.407 7.86 16.07 9.35
5/21/2022 1:45:00 PM 18.17 64.706 0.421 7.88 15.98 9.35
5/21/2022 2:00:00 PM 18.29 64.922 0.408 7.87 15.12 9.34
5/21/2022 2:15:00 PM 18.44 65.192 0.421 7.88 15.62 9.33
5/21/2022 2:30:00 PM 18.57 65.426 0.408 7.86 14.85 9.31
5/21/2022 2:45:00 PM 18.7 65.66 0.368 7.9 14.74 9.31
5/21/2022 3:00:00 PM 18.81 65.858 0.403 7.91 14.39 9.29
5/21/2022 3:15:00 PM 18.92 66.056 0.407 7.91 13.19 9.29
5/21/2022 3:30:00 PM 19.02 66.236 0.408 7.91 13.15 9.28
5/21/2022 3:45:00 PM 19.1 66.38 0.409 7.91 13.24 9.27
5/21/2022 4:00:00 PM 19.19 66.542 0.405 7.92 13.03 9.26
5/21/2022 4:15:00 PM 19.24 66.632 0.425 7.92 12.25 9.24
5/21/2022 4:30:00 PM 19.32 66.776 0.407 7.92 12.62 9.24
5/21/2022 4:45:00 PM 19.38 66.884 0.413 7.93 12.81 9.23
5/21/2022 5:00:00 PM 19.44 66.992 0.408 7.92 12.02 9.21
5/21/2022 5:15:00 PM 19.47 67.046 0.415 7.94 10.66 9.2
5/21/2022 5:30:00 PM 19.5 67.1 0.412 7.93 10.25 9.19
5/21/2022 5:45:00 PM 19.53 67.154 0.417 7.93 11.65 9.18
5/21/2022 6:00:00 PM 19.53 67.154 0.413 7.93 11.11 9.16
5/21/2022 6:15:00 PM 19.53 67.154 0.417 7.93 10.69 9.15
5/21/2022 6:30:00 PM 19.52 67.136 0.413 7.94 11.34 9.14
5/21/2022 6:45:00 PM 19.52 67.136 0.417 7.93 10.68 9.12
5/21/2022 7:00:00 PM 19.51 67.118 0.417 7.93 9.68 9.1
5/21/2022 7:15:00 PM 19.51 67.118 0.417 7.92 9.81 9.09
5/21/2022 7:30:00 PM 19.51 67.118 0.412 7.93 9.99 9.07
5/21/2022 7:45:00 PM 19.52 67.136 0.416 7.92 9.21 9.05
5/21/2022 8:00:00 PM 19.53 67.154 0.41 7.9 9.71 9.04
5/21/2022 8:15:00 PM 19.53 67.154 0.417 7.92 9.48 9.02
5/21/2022 8:30:00 PM 19.54 67.172 0.412 7.91 7.7 9
5/21/2022 8:45:00 PM 19.54 67.172 0.416 7.92 12.23 9
5/21/2022 9:00:00 PM 19.55 67.19 0.41 7.89 7.54 8.98
5/21/2022 9:15:00 PM 19.55 67.19 0.411 7.9 8.44 8.97
5/21/2022 9:30:00 PM 19.55 67.19 0.411 7.89 8.74 8.96
5/21/2022 9:45:00 PM 19.55 67.19 0.415 7.88 8.81 8.95
5/21/2022 10:00:00 PM 19.55 67.19 0.41 7.88 8.31 8.93
5/21/2022 10:15:00 PM 19.54 67.172 0.415 7.88 7.92 8.92
5/21/2022 10:30:00 PM 19.53 67.154 0.411 7.88 8.08 8.9
5/21/2022 10:45:00 PM 19.52 67.136 0.416 7.88 8.55 8.89
5/21/2022 11:00:00 PM 19.51 67.118 0.412 7.86 8.13 8.88
5/21/2022 11:15:00 PM 19.5 67.1 0.412 7.87 7.32 8.87
5/21/2022 11:30:00 PM 19.48 67.064 0.411 7.87 7.93 8.85
5/21/2022 11:45:00 PM 19.48 67.064 0.418 7.86 7.69 8.85
5/22/2022 12:00:00 AM 19.46 67.028 0.413 7.85 8.05 8.83
5/22/2022 12:15:00 AM 19.45 67.01 0.418 7.85 7.28 8.82
5/22/2022 12:30:00 AM 19.44 66.992 0.412 7.85 7.54 8.8
5/22/2022 12:45:00 AM 19.43 66.974 0.418 7.85 7.3 8.8
5/22/2022 1:00:00 AM 19.41 66.938 0.413 7.85 8.04 8.78
5/22/2022 1:15:00 AM 19.39 66.902 0.418 7.84 7.07 8.77
5/22/2022 1:30:00 AM 19.38 66.884 0.41 7.83 7.77 8.77
5/22/2022 1:45:00 AM 19.36 66.848 0.415 7.84 7.66 8.76
5/22/2022 2:00:00 AM 19.34 66.812 0.416 7.82 7.68 8.76
5/22/2022 2:15:00 AM 19.32 66.776 0.422 7.84 7.11 8.76
5/22/2022 2:30:00 AM 19.3 66.74 0.418 7.82 7.62 8.74
5/22/2022 2:45:00 AM 19.28 66.704 0.424 7.83 7.03 8.74
5/22/2022 3:00:00 AM 19.26 66.668 0.421 7.84 7.55 8.74
5/22/2022 3:15:00 AM 19.24 66.632 0.421 7.83 7.54 8.73
5/22/2022 3:30:00 AM 19.22 66.596 0.417 7.84 7.61 8.73
5/22/2022 3:45:00 AM 19.2 66.56 0.355 7.82 7.17 8.72
5/22/2022 4:00:00 AM 19.18 66.524 0.422 7.82 8.83 8.72
5/22/2022 4:15:00 AM 19.17 66.506 0.429 7.83 7.75 8.71
5/22/2022 4:30:00 AM 19.15 66.47 0.42 7.82 8.72 8.71
5/22/2022 4:45:00 AM 19.14 66.452 0.43 7.82 7.78 8.72
5/22/2022 5:00:00 AM 19.13 66.434 0.424 7.84 8.07 8.71
5/22/2022 5:15:00 AM 19.11 66.398 0.427 7.82 7.1 8.72
5/22/2022 5:30:00 AM 19.1 66.38 0.428 7.82 7.75 8.72
5/22/2022 5:45:00 AM 19.09 66.362 0.43 7.82 7.74 8.72
5/22/2022 6:00:00 AM 19.08 66.344 0.429 7.83 7.78 8.71
5/22/2022 6:15:00 AM 19.07 66.326 0.432 7.81 7.06 8.72
5/22/2022 6:30:00 AM 19.06 66.308 0.431 7.81 7.59 8.72
5/22/2022 6:45:00 AM 19.06 66.308 0.433 7.82 6.92 8.73
5/22/2022 7:00:00 AM 19.05 66.29 0.433 7.83 7.26 8.73
5/22/2022 7:15:00 AM 19.04 66.272 0.434 7.82 6.65 8.75
5/22/2022 7:30:00 AM 19.03 66.254 0.434 7.82 8.18 8.75
5/22/2022 7:45:00 AM 19.02 66.236 0.435 7.83 6.73 8.76
5/22/2022 8:00:00 AM 19.01 66.218 0.434 7.82 6.74 8.76
5/22/2022 8:15:00 AM 19.01 66.218 0.436 7.84 6.69 8.78
5/22/2022 8:30:00 AM 19.02 66.236 0.435 7.84 6.68 8.79
5/22/2022 8:45:00 AM 19.03 66.254 0.437 7.85 7.06 8.82
5/22/2022 9:00:00 AM 19.06 66.308 0.437 7.85 7.17 8.85
5/22/2022 9:15:00 AM 19.04 66.272 0.376 7.85 6.45 8.81
5/22/2022 9:30:00 AM 19.07 66.326 0.438 7.85 7.32 8.88
5/22/2022 9:45:00 AM 19.06 66.308 0.44 7.86 6.48 8.87
5/22/2022 10:00:00 AM 19.05 66.29 0.438 7.85 6.84 8.85
5/22/2022 10:15:00 AM 19.09 66.362 0.44 7.86 6.35 8.92
5/22/2022 10:30:00 AM 19.15 66.47 0.439 7.85 6.82 8.93
5/22/2022 10:45:00 AM 19.2 66.56 0.44 7.87 6.51 8.95
5/22/2022 11:00:00 AM 19.26 66.668 0.439 7.88 6.87 8.96
5/22/2022 11:15:00 AM 19.31 66.758 0.44 7.87 6 8.98
5/22/2022 11:30:00 AM 19.37 66.866 0.439 7.87 6.25 8.98
5/22/2022 11:45:00 AM 19.43 66.974 0.442 7.89 6.07 9
5/22/2022 12:00:00 PM 19.49 67.082 0.441 7.89 6.67 9
5/22/2022 12:15:00 PM 19.53 67.154 0.443 7.89 6.52 9.02
5/22/2022 12:30:00 PM 19.62 67.316 0.442 7.9 6.45 9.03
5/22/2022 12:45:00 PM 19.69 67.442 0.445 7.9 6.52 9.04
5/22/2022 1:00:00 PM 19.77 67.586 0.444 7.91 6.5 9.04
5/22/2022 1:15:00 PM 19.86 67.748 0.446 7.91 6.53 9.05
5/22/2022 1:30:00 PM 19.96 67.92799 0.444 7.92 6.6 9.05
5/22/2022 1:45:00 PM 20.07 68.126 0.446 7.93 6.29 9.06
5/22/2022 2:00:00 PM 20.16 68.288 0.446 7.93 6.31 9.06
5/22/2022 2:15:00 PM 20.28 68.504 0.442 7.94 8.93 9.07
5/22/2022 2:30:00 PM 20.38 68.684 0.447 7.92 4.2 9.07
5/22/2022 2:45:00 PM 20.48 68.864 0.448 7.95 71.48 9.07
5/22/2022 3:00:00 PM 20.54 68.972 0.449 7.95 6.17 9.05
5/22/2022 3:15:00 PM 20.68 69.224 0.449 7.96 5.71 9.08
5/22/2022 3:30:00 PM 20.78 69.404 0.449 7.97 5.27 9.08
5/22/2022 3:45:00 PM 20.83 69.494 0.345 7.99 5.85 9.06
5/22/2022 4:00:00 PM 20.87 69.566 0.444 7.99 6.41 9.02
5/22/2022 4:15:00 PM 20.87 69.566 0.449 7.98 5.71 8.94
5/22/2022 4:30:00 PM 20.9 69.62 0.448 7.99 5.19 8.97
5/22/2022 4:45:00 PM 20.95 69.71 0.448 7.99 5.39 9.05
5/22/2022 5:00:00 PM 21 69.8 0.447 8 4.72 9.07
5/22/2022 5:15:00 PM 21 69.8 0.449 8 5.34 9.04
5/22/2022 5:30:00 PM 21 69.8 0.447 8 4.91 9.02
5/22/2022 5:45:00 PM 21.01 69.818 0.447 8 5.03 9.01
5/22/2022 6:00:00 PM 21.03 69.854 0.447 8 5.06 8.97
5/22/2022 6:15:00 PM 21.02 69.836 0.448 7.98 6.89 8.92
5/22/2022 6:30:00 PM 21.01 69.818 0.448 8 4.45 8.92
5/22/2022 6:45:00 PM 21 69.8 0.449 7.98 5.13 8.93
5/22/2022 7:00:00 PM 20.97 69.746 0.448 8 6.06 8.9
5/22/2022 7:15:00 PM 20.96 69.728 0.449 7.99 5.68 8.88
5/22/2022 7:30:00 PM 20.93 69.674 0.449 7.99 5.55 8.87
5/22/2022 7:45:00 PM 20.92 69.656 0.45 7.99 5.48 8.85
5/22/2022 8:00:00 PM 20.9 69.62 0.45 7.98 5.41 8.83
5/22/2022 8:15:00 PM 20.88 69.584 0.341 7.99 6.38 8.8
5/22/2022 8:30:00 PM 20.86 69.548 0.445 7.97 53.51 8.81
5/22/2022 8:45:00 PM 20.81 69.458 0.441 7.98 6.74 8.81
5/22/2022 9:00:00 PM 20.79 69.422 0.436 7.96 10.88 8.79
5/22/2022 9:15:00 PM 20.74 69.332 0.445 7.95 7.14 8.8
5/22/2022 9:30:00 PM 20.68 69.224 0.445 7.95 6.13 8.8
5/22/2022 9:45:00 PM 20.64 69.152 0.444 7.95 6.49 8.79
5/22/2022 10:00:00 PM 20.62 69.116 0.436 7.94 7.88 8.79
5/22/2022 10:15:00 PM 20.58 69.044 0.442 7.92 7.91 8.78
5/22/2022 10:30:00 PM 20.54 68.972 0.439 7.92 10.91 8.77
5/22/2022 10:45:00 PM 20.47 68.846 0.441 7.92 11.41 8.75
5/22/2022 11:00:00 PM 20.41 68.738 0.439 7.89 11.12 8.74
5/22/2022 11:15:00 PM 20.35 68.63 0.438 7.89 11.29 8.75
5/22/2022 11:30:00 PM 20.27 68.486 0.432 7.86 10.76 8.75
5/22/2022 11:45:00 PM 20.16 68.288 0.429 7.87 12.07 8.77
5/23/2022 12:00:00 AM 20.02 68.036 0.416 7.84 16.77 8.77
5/23/2022 12:15:00 AM 20.01 68.018 0.397 7.82 23.04 8.74
5/23/2022 12:30:00 AM 20.08 68.144 0.401 7.81 23.62 8.72
5/23/2022 12:45:00 AM 20.08 68.144 0.396 7.79 21.79 8.73
5/23/2022 1:00:00 AM 20.05 68.09 0.392 7.77 41.63 8.73
5/23/2022 1:15:00 AM 19.99 67.982 0.392 7.73 107.7 8.71
5/23/2022 1:30:00 AM 19.96 67.92799 0.418 7.72 136.1 8.69
5/23/2022 1:45:00 AM 19.99 67.982 0.333 7.71 142.36 8.69
5/23/2022 2:00:00 AM 20.08 68.144 0.36 7.72 122.42 8.68
5/23/2022 2:15:00 AM 20.21 68.378 0.434 7.73 120.61 8.65
5/23/2022 2:30:00 AM 20.33 68.594 0.395 7.72 99 8.61
5/23/2022 2:45:00 AM 20.42 68.756 0.392 7.73 99.02 8.56
5/23/2022 3:00:00 AM 20.45 68.81 0.385 7.71 99.24 8.52
5/23/2022 3:15:00 AM 20.42 68.756 0.331 7.69 110.79 8.51
5/23/2022 3:30:00 AM 20.37 68.666 0.33 7.67 105.76 8.52
5/23/2022 3:45:00 AM 20.34 68.612 0.308 7.66 107.95 8.54
5/23/2022 4:00:00 AM 20.33 68.594 0.287 7.65 104.23 8.54
5/23/2022 4:15:00 AM 20.33 68.594 0.269 7.64 104.49 8.55
5/23/2022 4:30:00 AM 20.3 68.54 0.26 7.63 110.51 8.55
5/23/2022 4:45:00 AM 20.22 68.396 0.212 7.63 120.14 8.56
5/23/2022 5:00:00 AM 20.11 68.198 0.257 7.62 120.38 8.58
5/23/2022 5:15:00 AM 19.99 67.982 0.257 7.61 132.83 8.6
5/23/2022 5:30:00 AM 19.88 67.784 0.259 7.6 137.39 8.63
5/23/2022 5:45:00 AM 19.77 67.586 0.261 7.59 131.71 8.65
5/23/2022 6:00:00 AM 19.67 67.406 0.264 7.61 147.83 8.68
5/23/2022 6:15:00 AM 19.57 67.226 0.265 7.61 120.84 8.7
5/23/2022 6:30:00 AM 19.47 67.046 0.267 7.62 121.06 8.73
5/23/2022 6:45:00 AM 19.37 66.866 0.267 7.61 129.13 8.74
5/23/2022 7:00:00 AM 19.27 66.686 0.269 7.58 129.07 8.76
5/23/2022 7:15:00 AM 19.18 66.524 0.269 7.59 143.42 8.77
5/23/2022 7:30:00 AM 19.1 66.38 0.27 7.61 129.07 8.78
5/23/2022 7:45:00 AM 19.02 66.236 0.271 7.62 129.58 8.8
5/23/2022 8:00:00 AM 18.95 66.11 0.248 7.62 138.56 8.81
5/23/2022 8:15:00 AM 18.89 66.002 0.272 7.63 121.45 8.83
5/23/2022 8:30:00 AM 18.85 65.93 0.271 7.65 103.01 8.84
5/23/2022 8:45:00 AM 18.8 65.84 0.273 7.64 96.39 8.86
5/23/2022 9:00:00 AM 18.75 65.75 0.274 7.63 99.7 8.88
5/23/2022 9:15:00 AM 18.71 65.67799 0.278 7.65 88.1 8.89
5/23/2022 9:30:00 AM 18.69 65.642 0.28 7.65 79.63 8.91
5/23/2022 9:45:00 AM 18.65 65.57 0.285 7.66 74.23 8.93
5/23/2022 10:00:00 AM 18.62 65.516 0.287 7.66 66.76 8.95
5/23/2022 10:15:00 AM 18.6 65.48 0.293 7.68 72.58 8.95
5/23/2022 10:30:00 AM 18.58 65.444 0.295 7.68 68.32 8.96
5/23/2022 10:45:00 AM 18.57 65.426 0.299 7.69 59.05 8.97
5/23/2022 11:00:00 AM 18.57 65.426 0.301 7.68 69.2 8.98
5/23/2022 11:15:00 AM 18.57 65.426 0.305 7.68 62.67 8.98
5/23/2022 11:30:00 AM 18.58 65.444 0.307 7.69 54.79 8.99
5/23/2022 11:45:00 AM 18.6 65.48 0.311 7.7 48.99 8.99
5/23/2022 12:00:00 PM 18.63 65.534 0.312 7.7 52.93 9
5/23/2022 12:15:00 PM 18.66 65.588 0.319 7.72 53.15 9
5/23/2022 12:30:00 PM 18.68 65.624 0.321 7.71 46.78 9
5/23/2022 12:45:00 PM 18.72 65.696 0.325 7.73 43.83 9.02
5/23/2022 1:00:00 PM 18.76 65.768 0.292 7.73 44.91 9.02
5/23/2022 1:15:00 PM 18.8 65.84 0.331 7.71 43.31 9.03
5/23/2022 1:30:00 PM 18.86 65.948 0.332 7.66 43.66 9.03
5/23/2022 1:45:00 PM 18.89 66.002 0.336 7.76 36.53 9.03
5/23/2022 2:00:00 PM 18.91 66.038 0.337 7.75 37.23 9.03
5/23/2022 2:15:00 PM 18.96 66.128 0.342 7.77 34.56 9.05
5/23/2022 2:30:00 PM 18.99 66.182 0.342 7.76 36.88 9.05
5/23/2022 2:45:00 PM 18.99 66.182 0.344 7.76 31.94 9.05
5/23/2022 3:00:00 PM 19 66.2 0.345 7.75 35.65 9.05
5/23/2022 3:15:00 PM 19.02 66.236 0.344 7.76 34.49 9.06
5/23/2022 3:30:00 PM 19.04 66.272 0.345 7.78 30.32 9.06
5/23/2022 3:45:00 PM 19.02 66.236 0.345 7.79 35.03 9.05
5/23/2022 4:00:00 PM 19 66.2 0.341 7.8 40.28 9.06
5/23/2022 4:15:00 PM 18.97 66.146 0.344 7.81 32.68 9.06
5/23/2022 4:30:00 PM 18.94 66.092 0.345 7.8 33.42 9.06
5/23/2022 4:45:00 PM 18.89 66.002 0.429 7.81 28.09 9.07
5/23/2022 5:00:00 PM 18.85 65.93 0.342 7.81 31.19 9.07
5/23/2022 5:15:00 PM 18.81 65.858 0.435 7.8 31.58 9.07
5/23/2022 5:30:00 PM 18.77 65.786 0.3 7.81 29.55 9.07
5/23/2022 5:45:00 PM 18.74 65.732 0.439 7.81 29.54 9.08
5/23/2022 6:00:00 PM 18.71 65.67799 0.44 7.82 27.04 9.08
5/23/2022 6:15:00 PM 18.68 65.624 0.398 7.81 27.5 9.08
5/23/2022 6:30:00 PM 18.66 65.588 0.443 7.82 25.76 9.08
5/23/2022 6:45:00 PM 18.62 65.516 0.444 7.83 25.91 9.09
5/23/2022 7:00:00 PM 18.6 65.48 0.445 7.82 24.81 9.09
5/23/2022 7:15:00 PM 18.57 65.426 0.402 7.84 24.14 9.08
5/23/2022 7:30:00 PM 18.54 65.372 0.447 7.83 24.33 9.08
5/23/2022 7:45:00 PM 18.51 65.318 0.404 7.83 23.49 9.09
5/23/2022 8:00:00 PM 18.48 65.264 0.449 7.83 23.1 9.08
5/23/2022 8:15:00 PM 18.45 65.21 0.406 7.84 21.63 9.08
5/23/2022 8:30:00 PM 18.42 65.156 0.347 7.83 27.17 9.08
5/23/2022 8:45:00 PM 18.38 65.084 0.41 7.82 21.88 9.09
5/23/2022 9:00:00 PM 18.34 65.012 0.456 7.85 20.2 9.09
5/23/2022 9:15:00 PM 18.3 64.94 0.399 7.81 20.79 9.09
5/23/2022 9:30:00 PM 18.26 64.868 0.46 7.83 19.29 9.1
5/23/2022 9:45:00 PM 18.23 64.814 0.402 7.84 20.2 9.1
5/23/2022 10:00:00 PM 18.18 64.724 0.417 7.84 19.1 9.11
5/23/2022 10:15:00 PM 18.14 64.652 0.405 7.83 17.71 9.12
5/23/2022 10:30:00 PM 18.1 64.58 0.42 7.83 18.34 9.11
5/23/2022 10:45:00 PM 18.06 64.508 0.408 7.8 17.82 9.12
5/23/2022 11:00:00 PM 18.02 64.436 0.467 7.82 17.58 9.13
5/23/2022 11:15:00 PM 17.98 64.364 0.4 7.81 17.67 9.13
5/23/2022 11:30:00 PM 17.95 64.31 0.425 7.83 17.66 9.14
5/23/2022 11:45:00 PM 17.91 64.238 0.413 7.83 16.74 9.14
5/24/2022 12:00:00 AM 17.88 64.184 0.427 7.83 16.25 9.14
5/24/2022 12:15:00 AM 17.85 64.13 0.417 7.83 16.49 9.15
5/24/2022 12:30:00 AM 17.82 64.076 0.433 7.83 15.27 9.15
5/24/2022 12:45:00 AM 17.78 64.004 0.42 7.82 15.31 9.15
5/24/2022 1:00:00 AM 17.76 63.968 0.436 7.83 15.36 9.15
5/24/2022 1:15:00 AM 17.73 63.914 0.423 7.82 15.26 9.15
5/24/2022 1:30:00 AM 17.7 63.86 0.438 7.83 14.06 9.16
5/24/2022 1:45:00 AM 17.68 63.824 0.426 7.82 14.19 9.16
5/24/2022 2:00:00 AM 17.65 63.77 0.367 7.83 13.56 9.16
5/24/2022 2:15:00 AM 17.63 63.734 0.422 7.83 13.32 9.17
5/24/2022 2:30:00 AM 17.61 63.698 0.442 7.83 13.24 9.17
5/24/2022 2:45:00 AM 17.58 63.644 0.424 7.82 13.17 9.17
5/24/2022 3:00:00 AM 17.56 63.608 0.429 7.83 13.08 9.17
5/24/2022 3:15:00 AM 17.54 63.572 0.425 7.84 12.71 9.18
5/24/2022 3:30:00 AM 17.51 63.518 0.446 7.83 12.69 9.18
5/24/2022 3:45:00 AM 17.48 63.464 0.427 7.81 12.48 9.19
5/24/2022 4:00:00 AM 17.46 63.428 0.432 7.84 13.34 9.19
5/24/2022 4:15:00 AM 17.43 63.374 0.429 7.82 11.91 9.2
5/24/2022 4:30:00 AM 17.4 63.32 0.434 7.85 12.38 9.2
5/24/2022 4:45:00 AM 17.37 63.266 0.434 7.83 11.88 9.21
5/24/2022 5:00:00 AM 17.34 63.212 0.434 7.84 11.63 9.21
5/24/2022 5:15:00 AM 17.31 63.158 0.435 7.83 12.28 9.22
5/24/2022 5:30:00 AM 17.27 63.086 0.448 7.83 12.67 9.22
5/24/2022 5:45:00 AM 17.23 63.014 0.434 7.8 12.15 9.24
5/24/2022 6:00:00 AM 17.2 62.96 0.45 7.84 12.44 9.24
5/24/2022 6:15:00 AM 17.16 62.888 0.436 7.84 12.88 9.25
5/24/2022 6:30:00 AM 17.12 62.816 0.499 7.84 12.76 9.26
5/24/2022 6:45:00 AM 17.08 62.744 0.451 7.85 12.07 9.28
5/24/2022 7:00:00 AM 17.04 62.672 0.452 7.84 12.15 9.29
5/24/2022 7:15:00 AM 17.01 62.618 0.452 7.85 12 9.31
5/24/2022 7:30:00 AM 16.97 62.546 0.453 7.84 12.19 9.32
5/24/2022 7:45:00 AM 16.93 62.474 0.438 7.85 12.02 9.34
5/24/2022 8:00:00 AM 16.9 62.42 0.453 7.84 12.25 9.35
5/24/2022 8:15:00 AM 16.87 62.366 0.433 7.83 11.42 9.36
5/24/2022 8:30:00 AM 16.83 62.294 0.453 7.86 11.8 9.37
5/24/2022 8:45:00 AM 16.79 62.222 0.439 7.85 11.6 9.37
5/24/2022 9:00:00 AM 16.76 62.168 0.439 7.85 11.16 9.39
5/24/2022 9:15:00 AM 16.73 62.114 0.44 7.86 11.3 9.41
5/24/2022 9:30:00 AM 16.7 62.06 0.455 7.86 10.9 9.44
5/24/2022 9:45:00 AM 16.69 62.042 0.458 7.86 10.64 9.46
5/24/2022 10:00:00 AM 16.68 62.024 0.394 7.89 11.9 9.48
5/24/2022 10:15:00 AM 16.7 62.06 0.44 7.87 11.78 9.53
5/24/2022 10:30:00 AM 16.67 62.006 0.445 7.87 12.03 9.5
5/24/2022 10:45:00 AM 16.67 62.006 0.461 7.88 9.54 9.52
5/24/2022 11:00:00 AM 16.68 62.024 0.509 7.88 12.4 9.53
5/24/2022 11:15:00 AM 16.68 62.024 0.447 7.89 9.82 9.55
5/24/2022 11:30:00 AM 16.65 61.97 0.462 7.87 10.5 9.53
5/24/2022 11:45:00 AM 16.64 61.952 0.442 7.87 11.33 9.54
5/24/2022 12:00:00 PM 16.61 61.898 0.447 7.88 9.45 9.53
5/24/2022 12:15:00 PM 16.59 61.862 0.442 7.89 11.64 9.54
5/24/2022 12:30:00 PM 16.58 61.844 0.447 7.91 11.34 9.57
5/24/2022 12:45:00 PM 16.58 61.844 0.446 7.9 11.03 9.59
5/24/2022 1:00:00 PM 16.55 61.79 0.446 7.9 9.28 9.59
5/24/2022 1:15:00 PM 16.54 61.772 0.446 7.9 10.65 9.6
5/24/2022 1:30:00 PM 16.53 61.754 0.446 7.9 10.58 9.6
5/24/2022 1:45:00 PM 16.52 61.736 0.46 7.91 10.32 9.62
5/24/2022 2:00:00 PM 16.52 61.736 0.435 7.92 10.87 9.64
5/24/2022 2:15:00 PM 16.52 61.736 0.445 7.92 10.59 9.67
5/24/2022 2:30:00 PM 16.51 61.718 0.461 7.89 10.1 9.66
5/24/2022 2:45:00 PM 16.51 61.718 0.446 7.92 10.68 9.67
5/24/2022 3:00:00 PM 16.51 61.718 0.435 7.94 10.2 9.68
5/24/2022 3:15:00 PM 16.49 61.682 0.428 7.92 10.34 9.66
5/24/2022 3:30:00 PM 16.47 61.646 0.462 7.94 10.76 9.68
5/24/2022 3:45:00 PM 16.45 61.61 0.448 7.93 10.59 9.66
5/24/2022 4:00:00 PM 16.44 61.592 0.449 7.94 10.82 9.68
5/24/2022 4:15:00 PM 16.46 61.628 0.449 7.93 10.31 9.73
5/24/2022 4:30:00 PM 16.45 61.61 0.449 7.94 10.32 9.71
5/24/2022 4:45:00 PM 16.45 61.61 0.449 7.93 10.03 9.72
5/24/2022 5:00:00 PM 16.49 61.682 0.464 7.93 10.03 9.73
5/24/2022 5:15:00 PM 16.47 61.646 0.449 7.93 9.82 9.67
5/24/2022 5:30:00 PM 16.47 61.646 0.449 7.93 9.66 9.67
5/24/2022 5:45:00 PM 16.47 61.646 0.463 7.88 9.45 9.67
5/24/2022 6:00:00 PM 16.47 61.646 0.448 7.94 9.13 9.67
5/24/2022 6:15:00 PM 16.44 61.592 0.447 7.93 9.71 9.67
5/24/2022 6:30:00 PM 16.42 61.556 0.443 7.94 9.07 9.68
5/24/2022 6:45:00 PM 16.4 61.52 0.448 7.94 9.59 9.68
5/24/2022 7:00:00 PM 16.39 61.502 0.448 7.94 9.08 9.68
5/24/2022 7:15:00 PM 16.38 61.484 0.447 7.94 9.44 9.68
5/24/2022 7:30:00 PM 16.36 61.448 0.447 7.94 9.75 9.67
5/24/2022 7:45:00 PM 16.34 61.412 0.446 7.93 9.32 9.68
5/24/2022 8:00:00 PM 16.32 61.376 0.446 7.94 9.27 9.67
5/24/2022 8:15:00 PM 16.3 61.34 0.445 7.93 8.98 9.67
5/24/2022 8:30:00 PM 16.28 61.304 0.445 7.94 9.45 9.67
5/24/2022 8:45:00 PM 16.26 61.268 0.46 7.94 8.98 9.67
5/24/2022 9:00:00 PM 16.24 61.232 0.427 7.93 8.91 9.67
5/24/2022 9:15:00 PM 16.22 61.196 0.445 7.93 9.12 9.68
5/24/2022 9:30:00 PM 16.2 61.16 0.461 7.93 9.46 9.68
5/24/2022 9:45:00 PM 16.18 61.124 0.46 7.93 9.58 9.67
5/24/2022 10:00:00 PM 16.16 61.088 0.445 7.93 8.94 9.68
5/24/2022 10:15:00 PM 16.14 61.052 0.445 7.92 9.03 9.67
5/24/2022 10:30:00 PM 16.12 61.016 0.435 7.95 8.79 9.67
5/24/2022 10:45:00 PM 16.11 60.998 0.433 7.93 8.84 9.66
5/24/2022 11:00:00 PM 16.09 60.962 0.507 7.92 8.96 9.67
5/24/2022 11:15:00 PM 16.08 60.944 0.46 7.89 9.3 9.67
5/24/2022 11:30:00 PM 16.06 60.908 0.446 7.92 9.39 9.66
5/24/2022 11:45:00 PM 16.05 60.89 0.461 7.91 9.13 9.66
5/25/2022 12:00:00 AM 16.03 60.854 0.462 7.9 9.05 9.66
5/25/2022 12:15:00 AM 16.01 60.818 0.448 7.92 8.96 9.65
5/25/2022 12:30:00 AM 16 60.8 0.415 7.9 9.06 9.64
5/25/2022 12:45:00 AM 15.98 60.764 0.448 7.91 9.75 9.64
5/25/2022 1:00:00 AM 15.97 60.746 0.464 7.9 9.49 9.64
5/25/2022 1:15:00 AM 15.95 60.71 0.449 7.91 9.3 9.64
5/25/2022 1:30:00 AM 15.93 60.674 0.464 7.9 9.03 9.64
5/25/2022 1:45:00 AM 15.91 60.638 0.513 7.89 9.91 9.64
5/25/2022 2:00:00 AM 15.89 60.602 0.45 7.91 9.56 9.63
5/25/2022 2:15:00 AM 15.86 60.548 0.466 7.9 9.42 9.63
5/25/2022 2:30:00 AM 15.84 60.512 0.447 7.9 10.04 9.64
5/25/2022 2:45:00 AM 15.81 60.458 0.517 7.89 9.93 9.63
5/25/2022 3:00:00 AM 15.78 60.404 0.449 7.9 9 9.64
5/25/2022 3:15:00 AM 15.75 60.35 0.432 7.86 9.25 9.64
5/25/2022 3:30:00 AM 15.71 60.278 0.455 7.9 9.73 9.64
5/25/2022 3:45:00 AM 15.68 60.224 0.408 7.92 9.45 9.65
5/25/2022 4:00:00 AM 15.65 60.17 0.458 7.89 9.44 9.66
5/25/2022 4:15:00 AM 15.62 60.116 0.474 7.89 9.37 9.66
5/25/2022 4:30:00 AM 15.59 60.062 0.459 7.89 9.52 9.66
5/25/2022 4:45:00 AM 15.56 60.008 0.475 7.9 9.67 9.66
5/25/2022 5:00:00 AM 15.53 59.954 0.454 7.89 9.61 9.67
5/25/2022 5:15:00 AM 15.5 59.9 0.46 7.89 9.75 9.68
5/25/2022 5:30:00 AM 15.47 59.846 0.449 7.89 7.58 9.68
5/25/2022 5:45:00 AM 15.44 59.792 0.476 7.84 9.46 9.68
5/25/2022 6:00:00 AM 15.41 59.738 0.461 7.89 10.01 9.69
5/25/2022 6:15:00 AM 15.39 59.702 0.476 7.9 10.53 9.7
5/25/2022 6:30:00 AM 15.36 59.648 0.456 7.9 9.75 9.71
5/25/2022 6:45:00 AM 15.34 59.612 0.475 7.9 10.49 9.73
5/25/2022 7:00:00 AM 15.32 59.576 0.461 7.9 9.82 9.74
5/25/2022 7:15:00 AM 15.29 59.522 0.46 7.9 10.01 9.75
5/25/2022 7:30:00 AM 15.27 59.486 0.476 7.9 10.25 9.77
5/25/2022 7:45:00 AM 15.25 59.45 0.46 7.9 9.9 9.77
5/25/2022 8:00:00 AM 15.22 59.396 0.476 7.89 9.86 9.77
5/25/2022 8:15:00 AM 15.2 59.36 0.461 7.91 10.68 9.8
5/25/2022 8:30:00 AM 15.19 59.342 0.477 7.9 10.22 9.82
5/25/2022 8:45:00 AM 15.19 59.342 0.462 7.92 10.15 9.84
5/25/2022 9:00:00 AM 15.2 59.36 0.462 7.91 10.49 9.86
5/25/2022 9:15:00 AM 15.2 59.36 0.463 7.9 9.66 9.87
5/25/2022 9:30:00 AM 15.21 59.378 0.479 7.94 10.97 9.88
5/25/2022 9:45:00 AM 15.24 59.432 0.478 7.92 10.19 9.9
5/25/2022 10:00:00 AM 15.26 59.468 0.478 7.91 10.11 9.92
5/25/2022 10:15:00 AM 15.29 59.522 0.479 7.93 10.08 9.93
5/25/2022 10:30:00 AM 15.3 59.54 0.463 7.93 9.99 9.93
5/25/2022 10:45:00 AM 15.31 59.558 0.463 7.92 9.99 9.93
5/25/2022 11:00:00 AM 15.54 59.972 0.016 7.92 3.71 10.07
5/25/2022 11:15:00 AM -99999.99 -179968 -99999.99 -99999.99 -99999.99 -99999.99
5/25/2022 11:30:00 AM -99999.99 -179968 -99999.99 -99999.99 -99999.99 -99999.99
5/25/2022 11:45:00 AM -99999.99 -179968 -99999.99 -99999.99 -99999.99 -99999.99
5/25/2022 12:00:00 PM -99999.99 -179968 -99999.99 -99999.99 -99999.99 -99999.99
5/25/2022 12:15:00 PM -99999.99 -179968 -99999.99 -99999.99 -99999.99 -99999.99
5/25/2022 12:30:00 PM -99999.99 -179968 -99999.99 -99999.99 -99999.99 -99999.99
5/25/2022 12:45:00 PM -99999.99 -179968 -99999.99 -99999.99 -99999.99 -99999.99
5/25/2022 1:00:00 PM -99999.99 -179968 -99999.99 -99999.99 -99999.99 -99999.99
5/25/2022 1:15:00 PM -99999.99 -179968 -99999.99 -99999.99 -99999.99 -99999.99
5/25/2022 1:30:00 PM 15.92 60.656 0.451 7.72 9.94 10.05
5/25/2022 1:45:00 PM 15.97 60.746 0.327 7.74 7.22 10.06
5/25/2022 2:00:00 PM 16.03 60.854 0.454 7.77 6.88 10.05
5/25/2022 2:15:00 PM 16.07 60.926 0.454 7.77 7.03 10.05
5/25/2022 2:30:00 PM 16.13 61.034 0.375 7.78 6.67 10.05
5/25/2022 2:45:00 PM 16.21 61.178 0.455 7.79 8.19 10.07
5/25/2022 3:00:00 PM 16.32 61.376 0.455 7.8 7.34 10.09
5/25/2022 3:15:00 PM 16.4 61.52 0.454 7.8 6.85 10.07
5/25/2022 3:30:00 PM 16.45 61.61 0.391 7.81 6.66 10.07
5/25/2022 3:45:00 PM 16.54 61.772 0.454 7.81 6.78 10.07
5/25/2022 4:00:00 PM 16.58 61.844 0.453 7.82 6.77 10.07
5/25/2022 4:15:00 PM 16.67 62.006 0.454 7.82 7.81 10.08
5/25/2022 4:30:00 PM 16.71 62.078 0.455 7.83 6.33 10.06
5/25/2022 4:45:00 PM 16.71 62.078 0.454 7.83 7.69 10.01
5/25/2022 5:00:00 PM 16.79 62.222 0.454 7.84 7.41 10.06
5/25/2022 5:15:00 PM 16.8 62.24 0.455 7.83 7.79 10.04
5/25/2022 5:30:00 PM 16.79 62.222 0.376 7.84 6.47 10.02
5/25/2022 5:45:00 PM 16.79 62.222 0.454 7.84 7.78 10.01
5/25/2022 6:00:00 PM 16.78 62.204 0.453 7.83 6.31 10.01
5/25/2022 6:15:00 PM 16.77 62.186 0.454 7.83 7.79 9.99
5/25/2022 6:30:00 PM 16.76 62.168 0.453 7.83 7.15 9.97
5/25/2022 6:45:00 PM 16.75 62.15 0.319 7.83 7.36 9.97
5/25/2022 7:00:00 PM 16.75 62.15 0.452 7.82 6.6 9.95
5/25/2022 7:15:00 PM 16.75 62.15 0.452 7.82 7.82 9.93
5/25/2022 7:30:00 PM 16.75 62.15 0.452 7.82 6.87 9.91
5/25/2022 7:45:00 PM 16.74 62.132 0.451 7.81 7.78 9.88
5/25/2022 8:00:00 PM 16.74 62.132 0.451 7.81 7 9.86
5/25/2022 8:15:00 PM 16.74 62.132 0.451 7.8 7.62 9.84
5/25/2022 8:30:00 PM 16.74 62.132 0.45 7.81 6.51 9.83
5/25/2022 8:45:00 PM 16.73 62.114 0.451 7.8 7.85 9.81
5/25/2022 9:00:00 PM 16.73 62.114 0.45 7.8 6.79 9.8
5/25/2022 9:15:00 PM 16.72 62.096 0.45 7.79 6.99 9.79
5/25/2022 9:30:00 PM 16.71 62.078 0.45 7.79 6.91 9.77
5/25/2022 9:45:00 PM 16.7 62.06 0.452 7.78 6.63 9.76
5/25/2022 10:00:00 PM 16.69 62.042 0.45 7.78 7.98 9.75
5/25/2022 10:15:00 PM 16.67 62.006 0.45 7.78 6.88 9.73
5/25/2022 10:30:00 PM 16.65 61.97 0.343 7.78 6.69 9.72
5/25/2022 10:45:00 PM 16.63 61.934 0.45 7.77 6.92 9.71
5/25/2022 11:00:00 PM 16.61 61.898 0.33 7.76 7.68 9.7
5/25/2022 11:15:00 PM 16.59 61.862 0.331 7.76 6.76 9.69
5/25/2022 11:30:00 PM 16.57 61.826 0.449 7.76 7.77 9.67
5/25/2022 11:45:00 PM 16.55 61.79 0.449 7.76 8.05 9.66
5/26/2022 12:00:00 AM 16.53 61.754 0.45 7.75 7.93 9.65
5/26/2022 12:15:00 AM 16.5 61.7 0.45 7.74 6.74 9.64
5/26/2022 12:30:00 AM 16.49 61.682 0.45 7.74 7.98 9.63
5/26/2022 12:45:00 AM 16.46 61.628 0.449 7.74 7.08 9.62
5/26/2022 1:00:00 AM 16.44 61.592 0.339 7.73 8.06 9.61
5/26/2022 1:15:00 AM 16.41 61.538 0.45 7.74 8.01 9.6
5/26/2022 1:30:00 AM 16.39 61.502 0.45 7.73 7.07 9.59
5/26/2022 1:45:00 AM 16.37 61.466 0.451 7.72 7.8 9.58
5/26/2022 2:00:00 AM 16.34 61.412 0.45 7.71 7.09 9.58
5/26/2022 2:15:00 AM 16.32 61.376 0.452 7.72 8.22 9.57
5/26/2022 2:30:00 AM 16.29 61.322 0.452 7.72 6.98 9.56
5/26/2022 2:45:00 AM 16.27 61.286 0.452 7.72 6.96 9.56
5/26/2022 3:00:00 AM 16.25 61.25 0.453 7.72 8.16 9.55
5/26/2022 3:15:00 AM 16.22 61.196 0.454 7.71 6.95 9.56
5/26/2022 3:30:00 AM 16.2 61.16 0.455 7.71 8.24 9.55
5/26/2022 3:45:00 AM 16.17 61.106 0.455 7.71 7.25 9.55
5/26/2022 4:00:00 AM 16.15 61.07 0.455 7.71 7.3 9.55
5/26/2022 4:15:00 AM 16.12 61.016 0.455 7.7 7.55 9.54
5/26/2022 4:30:00 AM 16.11 60.998 0.458 7.71 7.59 9.54
5/26/2022 4:45:00 AM 16.09 60.962 0.457 7.71 7.66 9.54
5/26/2022 5:00:00 AM 16.06 60.908 0.366 7.7 7.5 9.54
5/26/2022 5:15:00 AM 16.04 60.872 0.461 7.7 8.42 9.54
5/26/2022 5:30:00 AM 16.02 60.836 0.459 7.7 7.79 9.53
5/26/2022 5:45:00 AM 16 60.8 0.459 7.7 8.68 9.55
5/26/2022 6:00:00 AM 15.98 60.764 0.459 7.69 8 9.55
5/26/2022 6:15:00 AM 15.96 60.728 0.459 7.7 8.01 9.56
5/26/2022 6:30:00 AM 15.95 60.71 0.389 7.7 8.01 9.56
5/26/2022 6:45:00 AM 15.93 60.674 0.46 7.7 9.4 9.57
5/26/2022 7:00:00 AM 15.92 60.656 0.389 7.71 8.6 9.58
5/26/2022 7:15:00 AM 15.91 60.638 0.462 7.7 7.99 9.59
5/26/2022 7:30:00 AM 15.9 60.62 0.463 7.69 7.94 9.6
5/26/2022 7:45:00 AM 15.89 60.602 0.466 7.7 10.73 9.61
5/26/2022 8:00:00 AM 15.88 60.584 0.465 7.71 8.71 9.61
5/26/2022 8:15:00 AM 15.88 60.584 0.464 7.71 8.71 9.64
5/26/2022 8:30:00 AM 15.88 60.584 0.388 7.71 7.62 9.64
5/26/2022 8:45:00 AM 15.87 60.566 0.399 7.71 8.58 9.66
5/26/2022 9:00:00 AM 15.87 60.566 0.467 7.71 8.84 9.67
5/26/2022 9:15:00 AM 15.88 60.584 0.467 7.71 7.67 9.68
5/26/2022 9:30:00 AM 15.88 60.584 0.468 7.72 7.48 9.7
5/26/2022 9:45:00 AM 15.89 60.602 0.469 7.72 8.28 9.69
5/26/2022 10:00:00 AM 15.88 60.584 0.469 7.72 7.23 9.67
5/26/2022 10:15:00 AM 15.89 60.602 0.47 7.72 7.05 9.72
5/26/2022 10:30:00 AM 15.89 60.602 0.387 7.73 7.01 9.72
5/26/2022 10:45:00 AM 15.92 60.656 0.469 7.73 7.26 9.76
5/26/2022 11:00:00 AM 15.93 60.674 0.469 7.74 6.91 9.77
5/26/2022 11:15:00 AM 15.94 60.692 0.468 7.74 8.08 9.77
5/26/2022 11:30:00 AM 15.98 60.764 0.469 7.75 8.05 9.8
5/26/2022 11:45:00 AM 15.98 60.764 0.468 7.74 6.98 9.77
5/26/2022 12:00:00 PM 15.97 60.746 0.467 7.75 8.14 9.77
5/26/2022 12:15:00 PM 15.99 60.782 0.466 7.75 8.18 9.79
5/26/2022 12:30:00 PM 16.02 60.836 0.369 7.74 6.8 9.83
5/26/2022 12:45:00 PM 16.06 60.908 0.467 7.76 7.52 9.85
5/26/2022 1:00:00 PM 16.09 60.962 0.386 7.77 7.3 9.86
5/26/2022 1:15:00 PM 16.13 61.034 0.381 7.78 7.66 9.88
5/26/2022 1:30:00 PM 16.12 61.016 0.467 7.77 7.52 9.84
5/26/2022 1:45:00 PM 16.15 61.07 0.468 7.77 7.39 9.86
5/26/2022 2:00:00 PM 16.2 61.16 0.468 7.78 7.47 9.88
5/26/2022 2:15:00 PM 16.22 61.196 0.468 7.79 7.19 9.88
5/26/2022 2:30:00 PM 16.25 61.25 0.468 7.79 6.97 9.91
5/26/2022 2:45:00 PM 16.27 61.286 0.468 7.8 7.01 9.91
5/26/2022 3:00:00 PM 16.34 61.412 0.469 7.8 6.85 9.94
5/26/2022 3:15:00 PM 16.42 61.556 0.469 7.8 7.35 9.95
5/26/2022 3:30:00 PM 16.42 61.556 0.469 7.81 7.02 9.94
5/26/2022 3:45:00 PM 16.45 61.61 0.469 7.81 7.24 9.95
5/26/2022 4:00:00 PM 16.49 61.682 0.468 7.82 7.38 9.94
5/26/2022 4:15:00 PM 16.54 61.772 0.469 7.82 7.24 9.94
5/26/2022 4:30:00 PM 16.56 61.808 0.468 7.81 6.96 9.91
5/26/2022 4:45:00 PM 16.57 61.826 0.468 7.82 7.17 9.89
5/26/2022 5:00:00 PM 16.63 61.934 0.466 7.83 7.08 9.93
5/26/2022 5:15:00 PM 16.64 61.952 0.467 7.82 6.86 9.88
5/26/2022 5:30:00 PM 16.63 61.934 0.465 7.82 6.75 9.86
5/26/2022 5:45:00 PM 16.63 61.934 0.371 7.83 6.99 9.86
5/26/2022 6:00:00 PM 16.63 61.934 0.466 7.82 6.77 9.85
5/26/2022 6:15:00 PM 16.64 61.952 0.466 7.83 6.56 9.85
5/26/2022 6:30:00 PM 16.67 62.006 0.465 7.83 6.69 9.86
5/26/2022 6:45:00 PM 16.69 62.042 0.466 7.83 5.83 9.85
5/26/2022 7:00:00 PM 16.7 62.06 0.466 7.83 9.18 9.84
5/26/2022 7:15:00 PM 16.71 62.078 0.465 7.83 6.91 9.81
5/26/2022 7:30:00 PM 16.71 62.078 0.466 7.83 7.05 9.8
5/26/2022 7:45:00 PM 16.72 62.096 0.363 7.83 7.82 9.78
5/26/2022 8:00:00 PM 16.72 62.096 0.465 7.83 6.9 9.76
5/26/2022 8:15:00 PM 16.72 62.096 0.466 7.82 7.85 9.74
5/26/2022 8:30:00 PM 16.72 62.096 0.466 7.81 8.61 9.73
5/26/2022 8:45:00 PM 16.72 62.096 0.465 7.82 7.23 9.72
5/26/2022 9:00:00 PM 16.71 62.078 0.467 7.82 7.69 9.69
5/26/2022 9:15:00 PM 16.71 62.078 0.465 7.81 7.61 9.68
5/26/2022 9:30:00 PM 16.71 62.078 0.412 7.82 7.32 9.67
5/26/2022 9:45:00 PM 16.71 62.078 0.465 7.8 7.22 9.66
5/26/2022 10:00:00 PM 16.7 62.06 0.465 7.79 8.05 9.64
5/26/2022 10:15:00 PM 16.7 62.06 0.374 7.79 8.27 9.63
5/26/2022 10:30:00 PM 16.7 62.06 0.463 7.79 8.07 9.61
5/26/2022 10:45:00 PM 16.7 62.06 0.462 7.79 7.44 9.6
5/26/2022 11:00:00 PM 16.7 62.06 0.368 7.78 7.29 9.58
5/26/2022 11:15:00 PM 16.69 62.042 0.461 7.78 8.13 9.57
5/26/2022 11:30:00 PM 16.69 62.042 0.46 7.78 7.08 9.55
5/26/2022 11:45:00 PM 16.69 62.042 0.461 7.77 8.03 9.54
5/27/2022 12:00:00 AM 16.69 62.042 0.46 7.77 7.49 9.52
5/27/2022 12:15:00 AM 16.68 62.024 0.46 7.77 8.02 9.5
5/27/2022 12:30:00 AM 16.67 62.006 0.46 7.76 7 9.49
5/27/2022 12:45:00 AM 16.66 61.988 0.46 7.76 8.12 9.47
5/27/2022 1:00:00 AM 16.65 61.97 0.459 7.75 8.09 9.46
5/27/2022 1:15:00 AM 16.63 61.934 0.459 7.75 8.05 9.45
5/27/2022 1:30:00 AM 16.61 61.898 0.46 7.74 8.37 9.44
5/27/2022 1:45:00 AM 16.6 61.88 0.459 7.73 8.07 9.43
5/27/2022 2:00:00 AM 16.58 61.844 0.378 7.73 7.96 9.43
5/27/2022 2:15:00 AM 16.56 61.808 0.46 7.72 8.25 9.42
5/27/2022 2:30:00 AM 16.55 61.79 0.461 7.72 8.44 9.41
5/27/2022 2:45:00 AM 16.53 61.754 0.46 7.72 8.3 9.41
5/27/2022 3:00:00 AM 16.52 61.736 0.461 7.71 8.4 9.39
5/27/2022 3:15:00 AM 16.5 61.7 0.461 7.71 8.41 9.39
5/27/2022 3:30:00 AM 16.49 61.682 0.461 7.71 8.53 9.39
5/27/2022 3:45:00 AM 16.47 61.646 0.461 7.71 8.5 9.38
5/27/2022 4:00:00 AM 16.46 61.628 0.46 7.71 8.94 9.38
5/27/2022 4:15:00 AM 16.45 61.61 0.373 7.71 8.46 9.37
5/27/2022 4:30:00 AM 16.43 61.574 0.461 7.71 7.81 9.36
5/27/2022 4:45:00 AM 16.42 61.556 0.461 7.7 8.39 9.36
5/27/2022 5:00:00 AM 16.41 61.538 0.462 7.7 8.09 9.35
5/27/2022 5:15:00 AM 16.41 61.538 0.463 7.7 8.98 9.35
5/27/2022 5:30:00 AM 16.4 61.52 0.464 7.7 8.09 9.35
5/27/2022 5:45:00 AM 16.39 61.502 0.309 7.69 8.74 9.36
5/27/2022 6:00:00 AM 16.38 61.484 0.465 7.69 9.23 9.35
5/27/2022 6:15:00 AM 16.37 61.466 0.467 7.69 8.69 9.34
5/27/2022 6:30:00 AM 16.37 61.466 0.467 7.69 9.06 9.35
5/27/2022 6:45:00 AM 16.36 61.448 0.468 7.69 8.45 9.34
5/27/2022 7:00:00 AM 16.36 61.448 0.468 7.69 8.55 9.35
5/27/2022 7:15:00 AM 16.36 61.448 0.469 7.7 8.58 9.36
5/27/2022 7:30:00 AM 16.36 61.448 0.469 7.7 8.33 9.36
5/27/2022 7:45:00 AM 16.37 61.466 0.469 7.7 8.79 9.37
5/27/2022 8:00:00 AM 16.38 61.484 0.469 7.7 9.01 9.39
5/27/2022 8:15:00 AM 16.38 61.484 0.469 7.7 8.1 9.37
5/27/2022 8:30:00 AM 16.39 61.502 0.469 7.7 8.35 9.38
5/27/2022 8:45:00 AM 16.4 61.52 0.469 7.71 7.69 9.4
5/27/2022 9:00:00 AM 16.41 61.538 0.469 7.7 8.36 9.38
5/27/2022 9:15:00 AM 16.42 61.556 0.468 7.7 8.77 9.41
5/27/2022 9:30:00 AM 16.44 61.592 0.47 7.71 8.21 9.41
5/27/2022 9:45:00 AM 16.44 61.592 0.468 7.71 8.39 9.38
5/27/2022 10:00:00 AM 16.45 61.61 0.468 7.71 9.03 9.42
5/27/2022 10:15:00 AM 16.47 61.646 0.468 7.71 7.82 9.4
5/27/2022 10:30:00 AM 16.5 61.7 0.406 7.71 8.61 9.45
5/27/2022 10:45:00 AM 16.51 61.718 0.468 7.71 8.64 9.42
5/27/2022 11:00:00 AM 16.52 61.736 0.47 7.72 7.75 9.4
5/27/2022 11:15:00 AM 16.53 61.754 0.471 7.72 8.13 9.42
5/27/2022 11:30:00 AM 16.56 61.808 0.471 7.71 7.64 9.43
5/27/2022 11:45:00 AM 16.56 61.808 0.469 7.71 8.34 9.4
5/27/2022 12:00:00 PM 16.57 61.826 0.47 7.72 7.23 9.41
5/27/2022 12:15:00 PM 16.59 61.862 0.42 7.73 7.61 9.43
5/27/2022 12:30:00 PM 16.61 61.898 0.412 7.73 7.54 9.45
5/27/2022 12:45:00 PM 16.65 61.97 0.414 7.74 8.2 9.5
5/27/2022 1:00:00 PM 16.68 62.024 0.47 7.74 8.37 9.47
5/27/2022 1:15:00 PM 16.72 62.096 0.47 7.74 7.94 9.49
5/27/2022 1:30:00 PM 16.72 62.096 0.47 7.73 7.92 9.44
5/27/2022 1:45:00 PM 16.76 62.168 0.466 7.74 8.16 9.4
5/27/2022 2:00:00 PM 16.73 62.114 0.396 7.74 8.15 9.41
5/27/2022 2:15:00 PM 16.75 62.15 0.468 7.74 7.73 9.42
5/27/2022 2:30:00 PM 16.77 62.186 0.467 7.75 7.73 9.46
5/27/2022 2:45:00 PM 16.77 62.186 0.467 7.75 8.03 9.49
5/27/2022 3:00:00 PM 16.78 62.204 0.467 7.75 8.37 9.52
5/27/2022 3:15:00 PM 16.79 62.222 0.469 7.76 7.83 9.52
5/27/2022 3:30:00 PM 16.83 62.294 0.469 7.77 7.88 9.56
5/27/2022 3:45:00 PM 16.87 62.366 0.468 7.77 8.43 9.56
5/27/2022 4:00:00 PM 16.91 62.438 0.468 7.78 7.76 9.56
5/27/2022 4:15:00 PM 16.94 62.492 0.468 7.78 6.77 9.54
5/27/2022 4:30:00 PM 16.98 62.564 0.469 7.78 7.01 9.54
5/27/2022 4:45:00 PM 17.02 62.636 0.468 7.78 6.32 9.52
5/27/2022 5:00:00 PM 17.05 62.69 0.468 7.78 6.86 9.5
5/27/2022 5:15:00 PM 17.07 62.726 0.466 7.78 6.87 9.51
5/27/2022 5:30:00 PM 17.08 62.744 0.466 7.77 6.86 9.48
5/27/2022 5:45:00 PM 17.1 62.78 0.465 7.78 6.81 9.49
5/27/2022 6:00:00 PM 17.13 62.834 0.464 7.78 7.15 9.5
5/27/2022 6:15:00 PM 17.13 62.834 0.464 7.78 6.71 9.46
5/27/2022 6:30:00 PM 17.13 62.834 0.464 7.78 7.1 9.44
5/27/2022 6:45:00 PM 17.13 62.834 0.464 7.78 6.84 9.43
5/27/2022 7:00:00 PM 17.12 62.816 0.465 7.77 7.22 9.43
5/27/2022 7:15:00 PM 17.11 62.798 0.468 7.78 7.18 9.43
5/27/2022 7:30:00 PM 17.09 62.762 0.467 7.77 6.91 9.42
5/27/2022 7:45:00 PM 17.08 62.744 0.467 7.77 6.58 9.43
5/27/2022 8:00:00 PM 17.08 62.744 0.466 7.77 6.85 9.43
5/27/2022 8:15:00 PM 17.08 62.744 0.464 7.77 7.05 9.43
5/27/2022 8:30:00 PM 17.09 62.762 0.463 7.76 6.35 9.42
5/27/2022 8:45:00 PM 17.11 62.798 0.46 7.77 7.27 9.41
5/27/2022 9:00:00 PM 17.11 62.798 0.46 7.76 6.44 9.4
5/27/2022 9:15:00 PM 17.12 62.816 0.458 7.77 6.33 9.39
5/27/2022 9:30:00 PM 17.12 62.816 0.458 7.76 6.89 9.38
5/27/2022 9:45:00 PM 17.11 62.798 0.456 7.75 7.33 9.38
5/27/2022 10:00:00 PM 17.11 62.798 0.456 7.76 6.67 9.36
5/27/2022 10:15:00 PM 17.09 62.762 0.455 7.75 7.49 9.36
5/27/2022 10:30:00 PM 17.08 62.744 0.454 7.75 7.26 9.35
5/27/2022 10:45:00 PM 17.06 62.708 0.453 7.75 7.83 9.33
5/27/2022 11:00:00 PM 17.04 62.672 0.453 7.74 7.94 9.33
5/27/2022 11:15:00 PM 17.03 62.654 0.453 7.73 7.48 9.33
5/27/2022 11:30:00 PM 17.02 62.636 0.415 7.74 7.86 9.32
5/27/2022 11:45:00 PM 17 62.6 0.335 7.74 7.87 9.31
5/28/2022 12:00:00 AM 16.99 62.582 0.452 7.73 7.96 9.3
5/28/2022 12:15:00 AM 16.98 62.564 0.451 7.73 7.41 9.3
5/28/2022 12:30:00 AM 16.96 62.528 0.45 7.73 7.14 9.29
5/28/2022 12:45:00 AM 16.95 62.51 0.45 7.73 8.24 9.28
5/28/2022 1:00:00 AM 16.94 62.492 0.45 7.72 7.32 9.27
5/28/2022 1:15:00 AM 16.92 62.456 0.45 7.72 7.39 9.27
5/28/2022 1:30:00 AM 16.91 62.438 0.45 7.71 7.41 9.26
5/28/2022 1:45:00 AM 16.89 62.402 0.45 7.7 7.13 9.26
5/28/2022 2:00:00 AM 16.87 62.366 0.45 7.71 7.58 9.25
5/28/2022 2:15:00 AM 16.86 62.348 0.45 7.69 7.32 9.25
5/28/2022 2:30:00 AM 16.85 62.33 0.45 7.7 7.42 9.25
5/28/2022 2:45:00 AM 16.84 62.312 0.452 7.69 7.63 9.24
5/28/2022 3:00:00 AM 16.83 62.294 0.45 7.69 8.04 9.24
5/28/2022 3:15:00 AM 16.82 62.276 0.45 7.69 7.7 9.23
5/28/2022 3:30:00 AM 16.82 62.276 0.451 7.68 7.61 9.22
5/28/2022 3:45:00 AM 16.81 62.258 0.452 7.68 7.71 9.22
5/28/2022 4:00:00 AM 16.81 62.258 0.454 7.67 7.76 9.22
5/28/2022 4:15:00 AM 16.8 62.24 0.453 7.68 7.75 9.21
5/28/2022 4:30:00 AM 16.8 62.24 0.454 7.68 7.83 9.21
5/28/2022 4:45:00 AM 16.79 62.222 0.454 7.68 7.69 9.21
5/28/2022 5:00:00 AM 16.78 62.204 0.455 7.67 8.21 9.21
5/28/2022 5:15:00 AM 16.78 62.204 0.377 7.67 423.21 9.2
5/28/2022 5:30:00 AM 16.77 62.186 0.456 7.67 8.32 9.2
5/28/2022 5:45:00 AM 16.77 62.186 0.457 7.66 8.78 9.2
5/28/2022 6:00:00 AM 16.77 62.186 0.455 7.66 7.72 9.2
5/28/2022 6:15:00 AM 16.78 62.204 0.453 7.66 8.49 9.19
5/28/2022 6:30:00 AM 16.78 62.204 0.352 7.66 8.74 9.18
5/28/2022 6:45:00 AM 16.79 62.222 0.45 7.65 8.53 9.18
5/28/2022 7:00:00 AM 16.8 62.24 0.448 7.65 8.56 9.18
5/28/2022 7:15:00 AM 16.8 62.24 0.447 7.65 9.19 9.18
5/28/2022 7:30:00 AM 16.82 62.276 0.445 7.65 9.04 9.19
5/28/2022 7:45:00 AM 16.82 62.276 0.444 7.65 8.98 9.19
5/28/2022 8:00:00 AM 16.84 62.312 0.344 7.66 8.93 9.23
5/28/2022 8:15:00 AM 16.83 62.294 0.444 7.66 8.93 9.22
5/28/2022 8:30:00 AM 16.84 62.312 0.444 7.66 8.74 9.24
5/28/2022 8:45:00 AM 16.86 62.348 0.444 7.66 8.74 9.27
5/28/2022 9:00:00 AM 16.85 62.33 0.444 7.66 9.09 9.25
5/28/2022 9:15:00 AM 16.86 62.348 0.445 7.67 7.82 9.29
5/28/2022 9:30:00 AM 16.88 62.384 0.445 7.68 8.51 9.32
5/28/2022 9:45:00 AM 16.9 62.42 0.445 7.68 7.48 9.32
5/28/2022 10:00:00 AM 16.94 62.492 0.446 7.69 7.38 9.34
5/28/2022 10:15:00 AM 16.98 62.564 0.446 7.69 8.45 9.35
5/28/2022 10:30:00 AM 17.05 62.69 0.447 7.7 8.71 9.39
5/28/2022 10:45:00 AM 17.03 62.654 0.447 7.7 8.3 9.35
5/28/2022 11:00:00 AM 17.06 62.708 0.448 7.7 8.58 9.4
5/28/2022 11:15:00 AM 17.12 62.816 0.448 7.71 8.78 9.39
5/28/2022 11:30:00 AM 17.12 62.816 0.367 7.72 7.93 9.39
5/28/2022 11:45:00 AM 17.13 62.834 0.368 7.72 8.26 9.39
5/28/2022 12:00:00 PM 17.11 62.798 0.378 7.72 7.93 9.36
5/28/2022 12:15:00 PM 17.18 62.924 0.445 7.73 7.28 9.43
5/28/2022 12:30:00 PM 17.3 63.14 0.445 7.74 6.79 9.47
5/28/2022 12:45:00 PM 17.37 63.266 0.443 7.74 8.07 9.47
5/28/2022 1:00:00 PM 17.32 63.176 0.443 7.74 7.59 9.41
5/28/2022 1:15:00 PM 17.35 63.23 0.442 7.74 7.89 9.4
5/28/2022 1:30:00 PM 17.39 63.302 0.442 7.75 6.76 9.46
5/28/2022 1:45:00 PM 17.53 63.554 0.441 7.75 8.27 9.51
5/28/2022 2:00:00 PM 17.59 63.662 0.442 7.77 8.11 9.49
5/28/2022 2:15:00 PM 17.69 63.842 0.44 7.76 7.71 9.52
5/28/2022 2:30:00 PM 17.78 64.004 0.439 7.78 7.62 9.52
5/28/2022 2:45:00 PM 17.89 64.202 0.438 7.78 6.56 9.51
5/28/2022 3:00:00 PM 17.88 64.184 0.437 7.77 7.22 9.45
5/28/2022 3:15:00 PM 18.01 64.418 0.435 7.78 7.41 9.49
5/28/2022 3:30:00 PM 18.08 64.544 0.436 7.78 7.07 9.44
5/28/2022 3:45:00 PM 18.11 64.598 0.392 7.78 6.23 9.43
5/28/2022 4:00:00 PM 18.12 64.616 0.435 7.79 6.98 9.46
5/28/2022 4:15:00 PM 18.19 64.742 0.434 7.8 6.07 9.51
5/28/2022 4:30:00 PM 18.22 64.796 0.435 7.8 6.16 9.5
5/28/2022 4:45:00 PM 18.25 64.85 0.434 7.8 6.82 9.48
5/28/2022 5:00:00 PM 18.24 64.832 0.435 7.79 6.82 9.45
5/28/2022 5:15:00 PM 18.27 64.886 0.435 7.8 6.76 9.45
5/28/2022 5:30:00 PM 18.31 64.958 0.434 7.8 6.66 9.45
5/28/2022 5:45:00 PM 18.31 64.958 0.435 7.8 6.31 9.43
5/28/2022 6:00:00 PM 18.3 64.94 0.434 7.8 5.31 9.43
5/28/2022 6:15:00 PM 18.3 64.94 0.435 7.81 6.53 9.41
5/28/2022 6:30:00 PM 18.29 64.922 0.434 7.8 5.39 9.39
5/28/2022 6:45:00 PM 18.27 64.886 0.436 7.81 6.56 9.38
5/28/2022 7:00:00 PM 18.24 64.832 0.437 7.79 6.05 9.37
5/28/2022 7:15:00 PM 18.2 64.76 0.437 7.79 6.35 9.35
5/28/2022 7:30:00 PM 18.17 64.706 0.438 7.79 6.13 9.34
5/28/2022 7:45:00 PM 18.14 64.652 0.35 7.79 5.86 9.34
5/28/2022 8:00:00 PM 18.11 64.598 0.441 7.79 6.07 9.33
5/28/2022 8:15:00 PM 18.08 64.544 0.442 7.79 6.49 9.31
5/28/2022 8:30:00 PM 18.06 64.508 0.442 7.78 6.55 9.3
5/28/2022 8:45:00 PM 18.04 64.472 0.443 7.78 6.38 9.29
5/28/2022 9:00:00 PM 18.04 64.472 0.444 7.77 6.66 9.28
5/28/2022 9:15:00 PM 18.03 64.454 0.444 7.78 7.24 9.27
5/28/2022 9:30:00 PM 18.03 64.454 0.444 7.77 6.96 9.25
5/28/2022 9:45:00 PM 18.02 64.436 0.445 7.76 7 9.24
5/28/2022 10:00:00 PM 18 64.4 0.445 7.75 7.15 9.23
5/28/2022 10:15:00 PM 17.99 64.382 0.446 7.75 7.13 9.21
5/28/2022 10:30:00 PM 17.97 64.346 0.447 7.75 7.3 9.2
5/28/2022 10:45:00 PM 17.95 64.31 0.447 7.75 6.15 9.19
5/28/2022 11:00:00 PM 17.93 64.274 0.448 7.74 7.26 9.17
5/28/2022 11:15:00 PM 17.91 64.238 0.451 7.74 6.79 9.16
5/28/2022 11:30:00 PM 17.89 64.202 0.449 7.73 7 9.15
5/28/2022 11:45:00 PM 17.86 64.148 0.45 7.72 6.85 9.14
5/29/2022 12:00:00 AM 17.84 64.112 0.45 7.7 7.15 9.13
5/29/2022 12:15:00 AM 17.82 64.076 0.45 7.7 6.76 9.12
5/29/2022 12:30:00 AM 17.8 64.04 0.45 7.72 6.27 9.11
5/29/2022 12:45:00 AM 17.78 64.004 0.45 7.71 7.35 9.1
5/29/2022 1:00:00 AM 17.76 63.968 0.451 7.7 7.31 9.1
5/29/2022 1:15:00 AM 17.74 63.932 0.452 7.71 6.26 9.09
5/29/2022 1:30:00 AM 17.72 63.896 0.452 7.7 7.54 9.08
5/29/2022 1:45:00 AM 17.7 63.86 0.455 7.69 7.59 9.07
5/29/2022 2:00:00 AM 17.68 63.824 0.454 7.69 7.38 9.07
5/29/2022 2:15:00 AM 17.66 63.788 0.454 7.68 7.17 9.07
5/29/2022 2:30:00 AM 17.63 63.734 0.455 7.69 6.47 9.06
5/29/2022 2:45:00 AM 17.61 63.698 0.455 7.68 7.64 9.06
5/29/2022 3:00:00 AM 17.59 63.662 0.455 7.68 6.71 9.06
5/29/2022 3:15:00 AM 17.57 63.626 0.455 7.68 7.44 9.05
5/29/2022 3:30:00 AM 17.54 63.572 0.455 7.68 6.96 9.06
5/29/2022 3:45:00 AM 17.52 63.536 0.456 7.68 7.27 9.06
5/29/2022 4:00:00 AM 17.5 63.5 0.456 7.68 7.56 9.06
5/29/2022 4:15:00 AM 17.48 63.464 0.457 7.67 7.94 9.06
5/29/2022 4:30:00 AM 17.46 63.428 0.457 7.67 7.59 9.06
5/29/2022 4:45:00 AM 17.44 63.392 0.458 7.67 7.59 9.06
5/29/2022 5:00:00 AM 17.42 63.356 0.459 7.67 8.24 9.06
5/29/2022 5:15:00 AM 17.4 63.32 0.466 7.67 7.82 9.07
5/29/2022 5:30:00 AM 17.37 63.266 0.46 7.67 7.37 9.07
5/29/2022 5:45:00 AM 17.36 63.248 0.461 7.67 7.82 9.07
5/29/2022 6:00:00 AM 17.34 63.212 0.461 7.67 7.69 9.07
5/29/2022 6:15:00 AM 17.33 63.194 0.462 7.67 7.67 9.08
5/29/2022 6:30:00 AM 17.31 63.158 0.463 7.67 8.12 9.09
5/29/2022 6:45:00 AM 17.28 63.104 0.406 7.68 6.93 9.11
5/29/2022 7:00:00 AM 17.27 63.086 0.463 7.68 6.78 9.12
5/29/2022 7:15:00 AM 17.26 63.068 0.341 7.67 7.86 9.14
5/29/2022 7:30:00 AM 17.25 63.05 0.465 7.68 6.92 9.16
5/29/2022 7:45:00 AM 17.24 63.032 0.465 7.69 8.67 9.16
5/29/2022 8:00:00 AM 17.23 63.014 0.467 7.68 8.49 9.16
5/29/2022 8:15:00 AM 17.22 62.996 0.467 7.69 7.05 9.18
5/29/2022 8:30:00 AM 17.23 63.014 0.469 7.69 8.15 9.2
5/29/2022 8:45:00 AM 17.25 63.05 0.469 7.69 8.11 9.22
5/29/2022 9:00:00 AM 17.27 63.086 0.469 7.7 8.02 9.24
5/29/2022 9:15:00 AM 17.29 63.122 0.469 7.7 6.94 9.26
5/29/2022 9:30:00 AM 17.33 63.194 0.469 7.71 7.43 9.28
5/29/2022 9:45:00 AM 17.35 63.23 0.471 7.71 7.86 9.29
5/29/2022 10:00:00 AM 17.39 63.302 0.469 7.71 7.84 9.31
5/29/2022 10:15:00 AM 17.44 63.392 0.469 7.7 7.13 9.33
5/29/2022 10:30:00 AM 17.47 63.446 0.468 7.71 7.08 9.34
5/29/2022 10:45:00 AM 17.52 63.536 0.468 7.72 7.2 9.37
5/29/2022 11:00:00 AM 17.58 63.644 0.468 7.73 7.05 9.38
5/29/2022 11:15:00 AM 17.65 63.77 0.469 7.73 6.62 9.4
5/29/2022 11:30:00 AM 17.7 63.86 0.384 7.73 6.65 9.4
5/29/2022 11:45:00 AM 17.68 63.824 0.47 7.73 6.68 9.32
5/29/2022 12:00:00 PM 17.79 64.022 0.468 7.74 6.47 9.43
5/29/2022 12:15:00 PM 17.86 64.148 0.468 7.74 6.49 9.43
5/29/2022 12:30:00 PM 17.92 64.256 0.468 7.74 6.55 9.44
5/29/2022 12:45:00 PM 18 64.4 0.362 7.75 6.45 9.43
5/29/2022 1:00:00 PM 18.07 64.526 0.467 7.75 6.52 9.45
5/29/2022 1:15:00 PM 18.15 64.67 0.467 7.77 6.28 9.45
5/29/2022 1:30:00 PM 18.23 64.814 0.467 7.77 6.12 9.47
5/29/2022 1:45:00 PM 18.26 64.868 0.468 7.76 6.15 9.39
5/29/2022 2:00:00 PM 18.3 64.94 0.467 7.78 5.24 9.4
5/29/2022 2:15:00 PM 18.43 65.174 0.468 7.78 6.21 9.47
5/29/2022 2:30:00 PM 18.57 65.426 0.467 7.79 6.18 9.48
5/29/2022 2:45:00 PM 18.63 65.534 0.468 7.78 6.28 9.48
5/29/2022 3:00:00 PM 18.73 65.714 0.467 7.8 6.21 9.49
5/29/2022 3:15:00 PM 18.77 65.786 0.353 7.81 6.12 9.48
5/29/2022 3:30:00 PM 18.82 65.876 0.467 7.81 5.75 9.46
5/29/2022 3:45:00 PM 18.95 66.11 0.468 7.82 5.63 9.5
5/29/2022 4:00:00 PM 19.03 66.254 0.466 7.83 5.6 9.49
5/29/2022 4:15:00 PM 19.06 66.308 0.466 7.83 5.87 9.47
5/29/2022 4:30:00 PM 19.14 66.452 0.466 7.84 5.21 9.48
5/29/2022 4:45:00 PM 19.2 66.56 0.466 7.84 5.63 9.49
5/29/2022 5:00:00 PM 19.24 66.632 0.466 7.85 5.51 9.47
5/29/2022 5:15:00 PM 19.27 66.686 0.466 7.85 5.27 9.46
5/29/2022 5:30:00 PM 19.3 66.74 0.466 7.86 5.82 9.45
5/29/2022 5:45:00 PM 19.31 66.758 0.466 7.85 5.5 9.44
5/29/2022 6:00:00 PM 19.3 66.74 0.466 7.86 5.58 9.42
5/29/2022 6:15:00 PM 19.27 66.686 0.466 7.85 5.89 9.39
5/29/2022 6:30:00 PM 19.24 66.632 0.466 7.85 5.84 9.38
5/29/2022 6:45:00 PM 19.21 66.578 0.466 7.85 6.02 9.36
5/29/2022 7:00:00 PM 19.18 66.524 0.349 7.85 5.93 9.36
5/29/2022 7:15:00 PM 19.15 66.47 0.398 7.84 5.3 9.34
5/29/2022 7:30:00 PM 19.13 66.434 0.466 7.85 5.7 9.33
5/29/2022 7:45:00 PM 19.1 66.38 0.467 7.83 5.79 9.31
5/29/2022 8:00:00 PM 19.08 66.344 0.467 7.83 4.94 9.29
5/29/2022 8:15:00 PM 19.06 66.308 0.408 7.83 6.51 9.27
5/29/2022 8:30:00 PM 19.04 66.272 0.467 7.82 6.18 9.25
5/29/2022 8:45:00 PM 19.03 66.254 0.468 7.82 5.61 9.24
5/29/2022 9:00:00 PM 19.01 66.218 0.468 7.81 7.23 9.22
5/29/2022 9:15:00 PM 19 66.2 0.468 7.81 6.44 9.21
5/29/2022 9:30:00 PM 18.98 66.164 0.468 7.8 5.88 9.19
5/29/2022 9:45:00 PM 18.97 66.146 0.468 7.79 5.58 9.17
5/29/2022 10:00:00 PM 18.95 66.11 0.467 7.79 5.67 9.16
5/29/2022 10:15:00 PM 18.94 66.092 0.4 7.8 6.38 9.15
5/29/2022 10:30:00 PM 18.92 66.056 0.399 7.8 5.42 9.14
5/29/2022 10:45:00 PM 18.9 66.02 0.467 7.78 5.15 9.12
5/29/2022 11:00:00 PM 18.89 66.002 0.468 7.78 6.2 9.1
5/29/2022 11:15:00 PM 18.87 65.966 0.468 7.78 5.65 9.1
5/29/2022 11:30:00 PM 18.85 65.93 0.468 7.76 5.41 9.08
5/29/2022 11:45:00 PM 18.82 65.876 0.468 7.76 5.63 9.06
5/30/2022 12:00:00 AM 18.8 65.84 0.469 7.76 5.49 9.06
5/30/2022 12:15:00 AM 18.77 65.786 0.409 7.75 6.04 9.05
5/30/2022 12:30:00 AM 18.74 65.732 0.47 7.74 6.17 9.03
5/30/2022 12:45:00 AM 18.71 65.67799 0.469 7.74 6.05 9.03
5/30/2022 1:00:00 AM 18.68 65.624 0.385 7.74 6.52 9.02
5/30/2022 1:15:00 AM 18.65 65.57 0.469 7.73 6.7 9.01
5/30/2022 1:30:00 AM 18.62 65.516 0.47 7.73 6.57 9
5/30/2022 1:45:00 AM 18.58 65.444 0.47 7.73 6.16 8.99
5/30/2022 2:00:00 AM 18.54 65.372 0.469 7.73 6.55 8.99
5/30/2022 2:15:00 AM 18.5 65.3 0.469 7.72 6.27 8.98
5/30/2022 2:30:00 AM 18.46 65.228 0.471 7.71 6.16 8.98
5/30/2022 2:45:00 AM 18.42 65.156 0.402 7.71 6.69 8.97
5/30/2022 3:00:00 AM 18.38 65.084 0.471 7.69 6.25 8.97
5/30/2022 3:15:00 AM 18.34 65.012 0.47 7.69 6.31 8.97
5/30/2022 3:30:00 AM 18.3 64.94 0.469 7.69 6.11 8.97
5/30/2022 3:45:00 AM 18.26 64.868 0.469 7.69 6.06 8.97
5/30/2022 4:00:00 AM 18.22 64.796 0.421 7.69 5.68 8.97
5/30/2022 4:15:00 AM 18.18 64.724 0.401 7.69 6.08 8.97
5/30/2022 4:30:00 AM 18.15 64.67 0.469 7.69 6.3 8.97
5/30/2022 4:45:00 AM 18.11 64.598 0.47 7.69 6.65 8.97
5/30/2022 5:00:00 AM 18.08 64.544 0.47 7.69 6.6 8.97
5/30/2022 5:15:00 AM 18.04 64.472 0.471 7.68 6.59 8.96
5/30/2022 5:30:00 AM 18.01 64.418 0.471 7.67 6.62 8.97
5/30/2022 5:45:00 AM 17.98 64.364 0.472 7.67 6.88 8.97
5/30/2022 6:00:00 AM 17.95 64.31 0.471 7.68 6.28 8.99
5/30/2022 6:15:00 AM 17.92 64.256 0.471 7.67 6.84 8.99
5/30/2022 6:30:00 AM 17.89 64.202 0.472 7.68 6.56 9
5/30/2022 6:45:00 AM 17.87 64.166 0.473 7.67 6.65 9.01
5/30/2022 7:00:00 AM 17.85 64.13 0.473 7.67 6.88 9.01
5/30/2022 7:15:00 AM 17.82 64.076 0.473 7.68 7.15 9.03
5/30/2022 7:30:00 AM 17.81 64.058 0.473 7.68 7.14 9.03
5/30/2022 7:45:00 AM 17.8 64.04 0.473 7.68 6.99 9.04
5/30/2022 8:00:00 AM 17.79 64.022 0.474 7.67 7.07 9.05
5/30/2022 8:15:00 AM 17.78 64.004 0.473 7.69 6.76 9.07
5/30/2022 8:30:00 AM 17.78 64.004 0.473 7.69 7 9.09
5/30/2022 8:45:00 AM 17.8 64.04 0.474 7.69 6.86 9.11
5/30/2022 9:00:00 AM 17.82 64.076 0.473 7.7 6.74 9.14
5/30/2022 9:15:00 AM 17.86 64.148 0.473 7.69 7.14 9.15
5/30/2022 9:30:00 AM 17.89 64.202 0.473 7.71 6.53 9.17
5/30/2022 9:45:00 AM 17.93 64.274 0.474 7.7 6.47 9.19
5/30/2022 10:00:00 AM 17.96 64.328 0.473 7.71 6.38 9.22
5/30/2022 10:15:00 AM 18.02 64.436 0.474 7.71 6.43 9.23
5/30/2022 10:30:00 AM 18.06 64.508 0.474 7.71 6.53 9.24
5/30/2022 10:45:00 AM 18.12 64.616 0.475 7.71 6.24 9.25
5/30/2022 11:00:00 AM 18.17 64.706 0.475 7.72 6.62 9.27
5/30/2022 11:15:00 AM 18.23 64.814 0.373 7.72 6.26 9.28
5/30/2022 11:30:00 AM 18.3 64.94 0.476 7.72 6.11 9.3
5/30/2022 11:45:00 AM 18.39 65.102 0.477 7.73 6.11 9.31
5/30/2022 12:00:00 PM 18.44 65.192 0.478 7.72 6.05 9.32
5/30/2022 12:15:00 PM 18.52 65.336 0.368 7.74 5.91 9.32
5/30/2022 12:30:00 PM 18.56 65.408 0.478 7.74 6.19 9.33
5/30/2022 12:45:00 PM 18.67 65.606 0.479 7.74 6.05 9.33
5/30/2022 1:00:00 PM 18.79 65.82201 0.48 7.75 6.57 9.33
5/30/2022 1:15:00 PM 18.83 65.894 0.48 7.75 5.8 9.34
5/30/2022 1:30:00 PM 18.98 66.164 0.48 7.75 6.26 9.34
5/30/2022 1:45:00 PM 19.1 66.38 0.48 7.77 5.72 9.33
5/30/2022 2:00:00 PM 19.19 66.542 0.48 7.77 5.79 9.33
5/30/2022 2:15:00 PM 19.32 66.776 0.48 7.78 5.84 9.33
5/30/2022 2:30:00 PM 19.43 66.974 0.48 7.79 5.72 9.34
5/30/2022 2:45:00 PM 19.56 67.208 0.392 7.78 5.91 9.33
5/30/2022 3:00:00 PM 19.64 67.352 0.479 7.79 5.48 9.32
5/30/2022 3:15:00 PM 19.78 67.604 0.479 7.8 5.44 9.32
5/30/2022 3:30:00 PM 19.89 67.802 0.479 7.8 5.38 9.31
5/30/2022 3:45:00 PM 19.97 67.946 0.478 7.81 5.61 9.32
5/30/2022 4:00:00 PM 20.06 68.108 0.478 7.82 5.16 9.32
5/30/2022 4:15:00 PM 20.13 68.234 0.478 7.82 5.93 9.31
5/30/2022 4:30:00 PM 20.17 68.306 0.478 7.84 5.12 9.32
5/30/2022 4:45:00 PM 20.27 68.486 0.478 7.84 5.26 9.32
5/30/2022 5:00:00 PM 20.32 68.576 0.402 7.85 4.96 9.31
5/30/2022 5:15:00 PM 20.35 68.63 0.479 7.85 4.93 9.3
5/30/2022 5:30:00 PM 20.39 68.702 0.479 7.85 5.11 9.29
5/30/2022 5:45:00 PM 20.43 68.774 0.479 7.85 10.93 9.28
5/30/2022 6:00:00 PM 20.45 68.81 0.478 7.86 4.81 9.27
5/30/2022 6:15:00 PM 20.46 68.828 0.478 7.86 4.94 9.25
5/30/2022 6:30:00 PM 20.45 68.81 0.478 7.86 4.65 9.22
5/30/2022 6:45:00 PM 20.44 68.792 0.345 7.86 4.6 9.2
5/30/2022 7:00:00 PM 20.41 68.738 0.477 7.85 4.45 9.18
5/30/2022 7:15:00 PM 20.38 68.684 0.478 7.84 4.81 9.17
5/30/2022 7:30:00 PM 20.36 68.648 0.477 7.84 4.87 9.15
5/30/2022 7:45:00 PM 20.33 68.594 0.477 7.85 4.46 9.13
5/30/2022 8:00:00 PM 20.31 68.558 0.477 7.84 4.85 9.11
5/30/2022 8:15:00 PM 20.29 68.522 0.477 7.82 4.68 9.08
5/30/2022 8:30:00 PM 20.27 68.486 0.476 7.82 4.88 9.06
5/30/2022 8:45:00 PM 20.25 68.45 0.476 7.81 5.04 9.03
5/30/2022 9:00:00 PM 20.24 68.432 0.477 7.79 5.32 9.01
5/30/2022 9:15:00 PM 20.22 68.396 0.477 7.8 5.71 9
5/30/2022 9:30:00 PM 20.21 68.378 0.477 7.8 5.36 8.98
5/30/2022 9:45:00 PM 20.2 68.36 0.477 7.79 5.34 8.97
5/30/2022 10:00:00 PM 20.19 68.342 0.384 7.79 5.44 8.95
5/30/2022 10:15:00 PM 20.18 68.324 0.477 7.77 5.33 8.94
5/30/2022 10:30:00 PM 20.16 68.288 0.415 7.78 5.27 8.92
5/30/2022 10:45:00 PM 20.16 68.288 0.478 7.78 5.47 8.9
5/30/2022 11:00:00 PM 20.14 68.252 0.479 7.76 5.33 8.89
5/30/2022 11:15:00 PM 20.13 68.234 0.477 7.77 5.14 8.87
5/30/2022 11:30:00 PM 20.12 68.216 0.478 7.76 5.46 8.85
5/30/2022 11:45:00 PM 20.11 68.198 0.478 7.75 5.81 8.84
5/31/2022 12:00:00 AM 20.09 68.162 0.478 7.75 5.47 8.82
5/31/2022 12:15:00 AM 20.07 68.126 0.478 7.75 5.72 8.8
5/31/2022 12:30:00 AM 20.05 68.09 0.478 7.74 5.72 8.79
5/31/2022 12:45:00 AM 20.02 68.036 0.388 7.74 5.5 8.78
5/31/2022 1:00:00 AM 20 68 0.479 7.73 5.49 8.76
5/31/2022 1:15:00 AM 19.97 67.946 0.479 7.73 5.51 8.75
5/31/2022 1:30:00 AM 19.94 67.892 0.48 7.73 5.93 8.74
5/31/2022 1:45:00 AM 19.9 67.82 0.479 7.72 5.59 8.74
5/31/2022 2:00:00 AM 19.87 67.766 0.48 7.71 6.27 8.73
5/31/2022 2:15:00 AM 19.83 67.694 0.48 7.71 5.69 8.71
5/31/2022 2:30:00 AM 19.79 67.622 0.481 7.7 5.92 8.71
5/31/2022 2:45:00 AM 19.74 67.532 0.48 7.7 5.77 8.71
5/31/2022 3:00:00 AM 19.7 67.46 0.48 7.7 6.02 8.69
5/31/2022 3:15:00 AM 19.66 67.388 0.48 7.7 5.9 8.7
5/31/2022 3:30:00 AM 19.61 67.298 0.481 7.68 5.96 8.69
5/31/2022 3:45:00 AM 19.57 67.226 0.481 7.69 5.8 8.69
5/31/2022 4:00:00 AM 19.52 67.136 0.481 7.69 5.92 8.68
5/31/2022 4:15:00 AM 19.48 67.064 0.481 7.69 5.7 8.68
5/31/2022 4:30:00 AM 19.44 66.992 0.482 7.69 6.38 8.69
5/31/2022 4:45:00 AM 19.4 66.92 0.482 7.68 6.1 8.68
5/31/2022 5:00:00 AM 19.36 66.848 0.482 7.68 5.78 8.69
5/31/2022 5:15:00 AM 19.32 66.776 0.482 7.68 5.78 8.68
5/31/2022 5:30:00 AM 19.28 66.704 0.482 7.67 5.83 8.69
5/31/2022 5:45:00 AM 19.25 66.65 0.482 7.68 6.32 8.68
5/31/2022 6:00:00 AM 19.21 66.578 0.482 7.66 6.15 8.69
5/31/2022 6:15:00 AM 19.18 66.524 0.45 7.68 6.44 8.7
5/31/2022 6:30:00 AM 19.15 66.47 0.483 7.67 6.69 8.7
5/31/2022 6:45:00 AM 19.12 66.416 0.481 7.67 6.4 8.72
5/31/2022 7:00:00 AM 19.1 66.38 0.481 7.67 6.41 8.72
5/31/2022 7:15:00 AM 19.08 66.344 0.481 7.67 6.48 8.73
5/31/2022 7:30:00 AM 19.06 66.308 0.482 7.67 6.74 8.73
5/31/2022 7:45:00 AM 19.05 66.29 0.482 7.67 6.57 8.74
5/31/2022 8:00:00 AM 19.04 66.272 0.381 7.67 6.66 8.76
5/31/2022 8:15:00 AM 19.04 66.272 0.482 7.68 6.66 8.78
5/31/2022 8:30:00 AM 19.05 66.29 0.482 7.68 6.65 8.79
5/31/2022 8:45:00 AM 19.07 66.326 0.482 7.69 6.56 8.82
5/31/2022 9:00:00 AM 19.11 66.398 0.482 7.69 6.37 8.84
5/31/2022 9:15:00 AM 19.14 66.452 0.483 7.69 6.35 8.86
5/31/2022 9:30:00 AM 19.19 66.542 0.483 7.69 5.82 8.89
5/31/2022 9:45:00 AM 19.23 66.614 0.482 7.71 6.08 8.91
5/31/2022 10:00:00 AM 19.28 66.704 0.483 7.7 6.18 8.93
5/31/2022 10:15:00 AM 19.34 66.812 0.485 7.7 6.28 8.94
5/31/2022 10:30:00 AM 19.38 66.884 0.484 7.7 6.22 8.95
5/31/2022 10:45:00 AM 19.46 67.028 0.485 7.7 6.07 8.97
5/31/2022 11:00:00 AM 19.53 67.154 0.485 7.71 6.12 8.99
5/31/2022 11:15:00 AM 19.6 67.28 0.486 7.72 5.97 9.01
5/31/2022 11:30:00 AM 19.69 67.442 0.486 7.72 5.75 9.01
5/31/2022 11:45:00 AM 19.79 67.622 0.486 7.73 5.72 9.02
5/31/2022 12:00:00 PM 19.86 67.748 0.487 7.73 6.11 9.03
5/31/2022 12:15:00 PM 19.91 67.838 0.487 7.73 6.32 9.04
5/31/2022 12:30:00 PM 20.01 68.018 0.487 7.71 5.93 9.04
5/31/2022 12:45:00 PM 20.08 68.144 0.488 7.74 5.51 9.05
5/31/2022 1:00:00 PM 20.15 68.27 0.436 7.75 5.57 9.05
5/31/2022 1:15:00 PM 20.24 68.432 0.489 7.75 5.61 9.05
5/31/2022 1:30:00 PM 20.37 68.666 0.489 7.77 6.08 9.05
5/31/2022 1:45:00 PM 20.49 68.882 0.49 7.76 5.02 9.05
5/31/2022 2:00:00 PM 20.63 69.134 0.489 7.77 5.41 9.04
5/31/2022 2:15:00 PM 20.75 69.35 0.491 7.78 4.95 9.05
5/31/2022 2:30:00 PM 20.82 69.476 0.49 7.8 5.37 9.05
5/31/2022 2:45:00 PM 20.92 69.656 0.491 7.79 4.65 9.05
5/31/2022 3:00:00 PM 20.96 69.728 0.439 7.79 4.6 9.01
5/31/2022 3:15:00 PM 21.09 69.962 0.491 7.8 4.58 9.04
5/31/2022 3:30:00 PM 21.18 70.124 0.491 7.8 4.73 9.02
5/31/2022 3:45:00 PM 21.3 70.34 0.289 7.81 4.31 9.05
5/31/2022 4:00:00 PM 21.36 70.448 0.492 7.82 4.78 9.05
5/31/2022 4:15:00 PM 21.45 70.61 0.493 7.83 4.56 9.05
5/31/2022 4:30:00 PM 21.54 70.772 0.493 7.83 4.25 9.04
5/31/2022 4:45:00 PM 21.62 70.916 0.493 7.83 4.77 9.04
5/31/2022 5:00:00 PM 21.66 70.988 0.494 7.84 4.31 9.03
5/31/2022 5:15:00 PM 21.7 71.06 0.494 7.85 4.87 9.02
5/31/2022 5:30:00 PM 21.72 71.096 0.494 7.87 4.5 9.02
5/31/2022 5:45:00 PM 21.73 71.114 0.495 7.85 4.47 9.01
5/31/2022 6:00:00 PM 21.77 71.186 0.495 7.86 4.52 9
5/31/2022 6:15:00 PM 21.78 71.204 0.495 7.86 4.87 8.98
5/31/2022 6:30:00 PM 21.78 71.204 0.495 7.86 4.49 8.96
5/31/2022 6:45:00 PM 21.78 71.204 0.495 7.87 7.36 8.93
5/31/2022 7:00:00 PM 21.77 71.186 0.495 7.86 4.41 8.92
5/31/2022 7:15:00 PM 21.76 71.168 0.495 7.86 4.64 8.9
5/31/2022 7:30:00 PM 21.74 71.132 0.495 7.85 4.66 8.88
5/31/2022 7:45:00 PM 21.72 71.096 0.495 7.85 5.13 8.86
5/31/2022 8:00:00 PM 21.71 71.078 0.495 7.85 4.7 8.84
5/31/2022 8:15:00 PM 21.69 71.042 0.495 7.84 4.67 8.8
5/31/2022 8:30:00 PM 21.67 71.006 0.495 7.82 4.36 8.78
5/31/2022 8:45:00 PM 21.65 70.97 0.495 7.82 5.1 8.76
5/31/2022 9:00:00 PM 21.64 70.952 0.495 7.82 4.98 8.74
5/31/2022 9:15:00 PM 21.62 70.916 0.495 7.82 5.21 8.73
5/31/2022 9:30:00 PM 21.6 70.88 0.496 7.81 4.95 8.71
5/31/2022 9:45:00 PM 21.59 70.862 0.495 7.8 4.81 8.7
5/31/2022 10:00:00 PM 21.57 70.826 0.314 7.8 4.9 8.69
5/31/2022 10:15:00 PM 21.55 70.79 0.496 7.8 4.68 8.67
5/31/2022 10:30:00 PM 21.53 70.754 0.496 7.79 4.95 8.65
5/31/2022 10:45:00 PM 21.51 70.718 0.496 7.78 4.95 8.64
5/31/2022 11:00:00 PM 21.49 70.682 0.496 7.78 4.91 8.62
5/31/2022 11:15:00 PM 21.47 70.646 0.497 7.78 4.63 8.6
5/31/2022 11:30:00 PM 21.45 70.61 0.497 7.78 4.82 8.59
5/31/2022 11:45:00 PM 21.43 70.574 0.497 7.77 4.74 8.57
6/1/2022 12:00:00 AM 21.4 70.52 0.498 7.76 4.57 8.56
6/1/2022 12:15:00 AM 21.37 70.466 0.498 7.76 4.91 8.54
6/1/2022 12:30:00 AM 21.34 70.412 0.498 7.76 4.92 8.52
6/1/2022 12:45:00 AM 21.31 70.358 0.498 7.76 5.25 8.53
6/1/2022 1:00:00 AM 21.28 70.304 0.498 7.75 4.92 8.51
6/1/2022 1:15:00 AM 21.24 70.232 0.497 7.75 4.83 8.49
6/1/2022 1:30:00 AM 21.21 70.17799 0.497 7.73 5 8.48
6/1/2022 1:45:00 AM 21.16 70.088 0.369 7.73 4.87 8.48
6/1/2022 2:00:00 AM 21.12 70.016 0.497 7.73 4.94 8.46
6/1/2022 2:15:00 AM 21.08 69.944 0.496 7.72 5.34 8.45
6/1/2022 2:30:00 AM 21.03 69.854 0.497 7.71 5.44 8.44
6/1/2022 2:45:00 AM 20.97 69.746 0.496 7.71 5.26 8.44
6/1/2022 3:00:00 AM 20.92 69.656 0.496 7.71 5.2 8.44
6/1/2022 3:15:00 AM 20.86 69.548 0.495 7.7 5.12 8.43
6/1/2022 3:30:00 AM 20.81 69.458 0.494 7.7 5.51 8.42
6/1/2022 3:45:00 AM 20.75 69.35 0.494 7.7 5.67 8.42
6/1/2022 4:00:00 AM 20.69 69.242 0.493 7.69 5.49 8.42
6/1/2022 4:15:00 AM 20.64 69.152 0.493 7.69 5.78 8.41
6/1/2022 4:30:00 AM 20.58 69.044 0.493 7.68 7.45 8.41
6/1/2022 4:45:00 AM 20.53 68.954 0.492 7.67 5.88 8.42
6/1/2022 5:00:00 AM 20.47 68.846 0.491 7.68 5.84 8.42
6/1/2022 5:15:00 AM 20.41 68.738 0.491 7.67 5.86 8.42
6/1/2022 5:30:00 AM 20.36 68.648 0.491 7.67 5.34 8.42
6/1/2022 5:45:00 AM 20.31 68.558 0.49 7.67 5.38 8.43
6/1/2022 6:00:00 AM 20.26 68.468 0.491 7.67 5.85 8.44
6/1/2022 6:15:00 AM 20.21 68.378 0.49 7.66 5.79 8.44
6/1/2022 6:30:00 AM 20.17 68.306 0.49 7.66 5.93 8.45
6/1/2022 6:45:00 AM 20.13 68.234 0.49 7.66 5.86 8.46
6/1/2022 7:00:00 AM 20.1 68.18 0.49 7.65 5.89 8.47
6/1/2022 7:15:00 AM 20.06 68.108 0.489 7.66 6.3 8.48
6/1/2022 7:30:00 AM 20.04 68.07201 0.488 7.66 6.33 8.49
6/1/2022 7:45:00 AM 20.01 68.018 0.366 7.66 6.45 8.5
6/1/2022 8:00:00 AM 19.99 67.982 0.488 7.67 6.79 8.52
6/1/2022 8:15:00 AM 19.98 67.964 0.488 7.66 6.26 8.54
6/1/2022 8:30:00 AM 19.98 67.964 0.488 7.66 6.27 8.56
6/1/2022 8:45:00 AM 20 68 0.488 7.67 6.27 8.59
6/1/2022 9:00:00 AM 20.02 68.036 0.488 7.67 5.84 8.62
6/1/2022 9:15:00 AM 20.05 68.09 0.488 7.69 5.81 8.65
6/1/2022 9:30:00 AM 20.08 68.144 0.488 7.68 5.98 8.67
6/1/2022 9:45:00 AM 20.12 68.216 0.489 7.68 6.4 8.69
6/1/2022 10:00:00 AM 20.16 68.288 0.489 7.68 5.89 8.71
6/1/2022 10:15:00 AM 20.19 68.342 0.489 7.7 5.7 8.74
6/1/2022 10:30:00 AM 20.24 68.432 0.489 7.7 6.15 8.77
6/1/2022 10:45:00 AM 20.31 68.558 0.491 7.7 6.24 8.78
6/1/2022 11:00:00 AM 20.39 68.702 0.491 7.7 5.63 8.8
6/1/2022 11:15:00 AM 20.44 68.792 0.492 7.71 5.74 8.82
6/1/2022 11:30:00 AM 20.5 68.9 0.492 7.72 5.96 8.83
6/1/2022 11:45:00 AM 20.59 69.062 0.493 7.72 5.76 8.85
6/1/2022 12:00:00 PM 20.66 69.188 0.494 7.73 5.53 8.86
6/1/2022 12:15:00 PM 20.67 69.206 0.495 7.72 5.64 8.86
6/1/2022 12:30:00 PM 20.74 69.332 0.495 7.73 5.4 8.87
6/1/2022 12:45:00 PM 20.83 69.494 0.496 7.73 5.17 8.89
6/1/2022 1:00:00 PM 20.94 69.692 0.496 7.75 4.88 8.89
6/1/2022 1:15:00 PM 20.98 69.764 0.497 7.75 4.69 8.9
6/1/2022 1:30:00 PM 21.05 69.89 0.498 7.76 4.92 8.87
6/1/2022 1:45:00 PM 21.03 69.854 0.499 7.76 4.73 8.78
6/1/2022 2:00:00 PM 21.12 70.016 0.499 7.77 4.73 8.84
6/1/2022 2:15:00 PM 21.32 70.376 0.5 7.79 4.9 8.93
6/1/2022 2:30:00 PM 21.33 70.394 0.501 7.78 7.06 8.84
6/1/2022 2:45:00 PM 21.47 70.646 0.501 7.78 5.57 8.91
6/1/2022 3:00:00 PM 21.57 70.826 0.502 7.8 4.78 8.93
6/1/2022 3:15:00 PM 21.64 70.952 0.502 7.79 4.64 8.93
6/1/2022 3:30:00 PM 21.73 71.114 0.503 7.81 5.09 8.93
6/1/2022 3:45:00 PM 21.77 71.186 0.503 7.81 4.75 8.92
6/1/2022 4:00:00 PM 21.85 71.33 0.504 7.82 4.47 8.93
6/1/2022 4:15:00 PM 21.9 71.42 0.504 7.83 4.32 8.84
6/1/2022 4:30:00 PM 21.95 71.51 0.504 7.83 4.72 8.93
6/1/2022 4:45:00 PM 21.99 71.582 0.393 7.82 4.24 8.88
6/1/2022 5:00:00 PM 22.08 71.744 0.504 7.85 4.09 8.93
6/1/2022 5:15:00 PM 22.15 71.87 0.504 7.84 4.15 8.93
6/1/2022 5:30:00 PM 22.16 71.888 0.504 7.86 4.25 8.93
6/1/2022 5:45:00 PM 22.17 71.906 0.504 7.86 4.48 8.92
6/1/2022 6:00:00 PM 22.16 71.888 0.504 7.87 4.13 8.92
6/1/2022 6:15:00 PM 22.17 71.906 0.504 7.87 3.97 8.9
6/1/2022 6:30:00 PM 22.18 71.924 0.503 7.87 4.23 8.89
6/1/2022 6:45:00 PM 22.18 71.924 0.503 7.87 4.1 8.87
6/1/2022 7:00:00 PM 22.18 71.924 0.502 7.87 3.89 8.84
6/1/2022 7:15:00 PM 22.18 71.924 0.502 7.87 3.95 8.82
6/1/2022 7:30:00 PM 22.17 71.906 0.502 7.87 4.18 8.79
6/1/2022 7:45:00 PM 22.17 71.906 0.502 7.87 4.03 8.78
6/1/2022 8:00:00 PM 22.16 71.888 0.502 7.86 4.01 8.76
6/1/2022 8:15:00 PM 22.14 71.852 0.502 7.86 4.33 8.74
6/1/2022 8:30:00 PM 22.13 71.834 0.501 7.85 4.1 8.71
6/1/2022 8:45:00 PM 22.11 71.798 0.501 7.84 4.87 8.7
6/1/2022 9:00:00 PM 22.09 71.762 0.502 7.83 4.74 8.68
6/1/2022 9:15:00 PM 22.07 71.726 0.502 7.83 4.69 8.66
6/1/2022 9:30:00 PM 22.06 71.708 0.502 7.83 6.71 8.64
6/1/2022 9:45:00 PM 22.04 71.672 0.502 7.84 5.11 8.63
6/1/2022 10:00:00 PM 22.02 71.636 0.502 7.83 4.41 8.61
6/1/2022 10:15:00 PM 22.01 71.618 0.502 7.82 4.32 8.6
6/1/2022 10:30:00 PM 21.99 71.582 0.502 7.84 4.5 8.59
6/1/2022 10:45:00 PM 21.96 71.528 0.502 7.84 7.32 8.58
6/1/2022 11:00:00 PM 21.93 71.474 0.502 7.83 4.65 8.57
6/1/2022 11:15:00 PM 21.89 71.402 0.501 7.82 4.76 8.55
6/1/2022 11:30:00 PM 21.86 71.348 0.501 7.82 4.58 8.53
6/1/2022 11:45:00 PM 21.83 71.294 0.501 7.82 5.04 8.52
6/2/2022 12:00:00 AM 21.81 71.258 0.501 7.82 4.57 8.5
6/2/2022 12:15:00 AM 21.78 71.204 0.501 7.81 4.21 8.49
6/2/2022 12:30:00 AM 21.75 71.15 0.501 7.8 4.66 8.47
6/2/2022 12:45:00 AM 21.71 71.078 0.409 7.8 4.51 8.45
6/2/2022 1:00:00 AM 21.67 71.006 0.501 7.8 4.72 8.44
6/2/2022 1:15:00 AM 21.63 70.934 0.407 7.79 4.48 8.42
6/2/2022 1:30:00 AM 21.59 70.862 0.501 7.78 4 8.41
6/2/2022 1:45:00 AM 21.54 70.772 0.501 7.78 4.44 8.39
6/2/2022 2:00:00 AM 21.5 70.7 0.501 7.77 4.93 8.39
6/2/2022 2:15:00 AM 21.46 70.628 0.501 7.76 4.67 8.38
6/2/2022 2:30:00 AM 21.41 70.538 0.501 7.76 4.86 8.36
6/2/2022 2:45:00 AM 21.34 70.412 0.502 7.74 4.99 8.35
6/2/2022 3:00:00 AM 21.29 70.32201 0.501 7.75 5.27 8.33
6/2/2022 3:15:00 AM 21.24 70.232 0.502 7.73 5 8.33
6/2/2022 3:30:00 AM 21.2 70.16 0.415 7.74 5.56 8.32
6/2/2022 3:45:00 AM 21.15 70.07 0.501 7.73 5.31 8.31
6/2/2022 4:00:00 AM 21.09 69.962 0.501 7.73 5.64 8.3
6/2/2022 4:15:00 AM 21.04 69.872 0.5 7.73 5.42 8.3
6/2/2022 4:30:00 AM 20.98 69.764 0.5 7.73 12 8.29
6/2/2022 4:45:00 AM 20.93 69.674 0.5 7.71 5.8 8.29
6/2/2022 5:00:00 AM 20.86 69.548 0.499 7.72 5.46 8.29
6/2/2022 5:15:00 AM 20.8 69.44 0.499 7.71 5.66 8.29
6/2/2022 5:30:00 AM 20.75 69.35 0.353 7.71 6.32 8.29
6/2/2022 5:45:00 AM 20.68 69.224 0.499 7.71 6.25 8.29
6/2/2022 6:00:00 AM 20.62 69.116 0.497 7.71 6.17 8.3
6/2/2022 6:15:00 AM 20.56 69.008 0.497 7.71 6.4 8.3
6/2/2022 6:30:00 AM 20.5 68.9 0.497 7.7 6.49 8.33
6/2/2022 6:45:00 AM 20.45 68.81 0.496 7.72 7 8.35
6/2/2022 7:00:00 AM 20.4 68.72 0.496 7.71 7.52 8.37
6/2/2022 7:15:00 AM 20.36 68.648 0.496 7.71 8.63 8.39
6/2/2022 7:30:00 AM 20.31 68.558 0.495 7.69 9.34 8.36
6/2/2022 7:45:00 AM 20.27 68.486 0.495 7.7 8.34 8.37
6/2/2022 8:00:00 AM 20.24 68.432 0.495 7.71 6.52 8.4
6/2/2022 8:15:00 AM 20.23 68.414 0.495 7.71 6.6 8.47
6/2/2022 8:30:00 AM 20.22 68.396 0.494 7.71 6.64 8.51
6/2/2022 8:45:00 AM 20.21 68.378 0.494 7.72 6.04 8.51
6/2/2022 9:00:00 AM 20.2 68.36 0.494 7.71 6.57 8.52
6/2/2022 9:15:00 AM 20.22 68.396 0.494 7.7 6.14 8.56
6/2/2022 9:30:00 AM 20.25 68.45 0.399 7.73 6.2 8.6
6/2/2022 9:45:00 AM 20.28 68.504 0.396 7.72 6.07 8.62
6/2/2022 10:00:00 AM 20.28 68.504 0.495 7.73 6.49 8.64
6/2/2022 10:15:00 AM 20.29 68.522 0.494 7.73 6.18 8.64
6/2/2022 10:30:00 AM 20.37 68.666 0.494 7.73 6.64 8.69
6/2/2022 10:45:00 AM 20.41 68.738 0.494 7.74 5.8 8.7
6/2/2022 11:00:00 AM 20.48 68.864 0.413 7.75 6.42 8.74
6/2/2022 11:15:00 AM 20.5 68.9 0.494 7.76 6.48 8.73
6/2/2022 11:30:00 AM 20.57 69.026 0.495 7.76 6.45 8.78
6/2/2022 11:45:00 AM 20.54 68.972 0.495 7.75 6.51 8.69
6/2/2022 12:00:00 PM 20.63 69.134 0.496 7.76 5.65 8.8
6/2/2022 12:15:00 PM 20.67 69.206 0.496 7.76 5.73 8.77
6/2/2022 12:30:00 PM 20.67 69.206 0.497 7.76 6.42 8.73
6/2/2022 12:45:00 PM 20.71 69.278 0.498 7.77 6.39 8.77
6/2/2022 1:00:00 PM 20.66 69.188 0.499 7.76 6.26 8.7
6/2/2022 1:15:00 PM 20.69 69.242 0.5 7.77 7.22 8.75
6/2/2022 1:30:00 PM 20.73 69.314 0.501 7.77 7.06 8.69
6/2/2022 1:45:00 PM 20.73 69.314 0.376 7.77 7.53 8.69
6/2/2022 2:00:00 PM 20.74 69.332 0.503 7.77 6.13 8.69
6/2/2022 2:15:00 PM 20.76 69.368 0.504 7.78 6.34 8.78
6/2/2022 2:30:00 PM 20.78 69.404 0.505 7.79 6.23 8.8
6/2/2022 2:45:00 PM 20.88 69.584 0.505 7.8 5.89 8.9
6/2/2022 3:00:00 PM 20.88 69.584 0.506 7.8 5.16 8.81
6/2/2022 3:15:00 PM 20.9 69.62 0.294 7.8 5.28 8.84
6/2/2022 3:30:00 PM 20.92 69.656 0.507 7.81 6.1 8.86
6/2/2022 3:45:00 PM 20.94 69.692 0.507 7.82 5.15 8.84
6/2/2022 4:00:00 PM 21 69.8 0.507 7.82 4.9 8.85
6/2/2022 4:15:00 PM 21.03 69.854 0.507 7.83 6.73 8.89
6/2/2022 4:30:00 PM 21.04 69.872 0.508 7.84 7.68 8.79
6/2/2022 4:45:00 PM 21.05 69.89 0.507 7.83 7.61 8.86
6/2/2022 5:00:00 PM 21.07 69.926 0.507 7.85 4.98 8.84
6/2/2022 5:15:00 PM 21.08 69.944 0.504 7.86 7.12 8.85
6/2/2022 5:30:00 PM 21.1 69.98 0.506 7.85 5.59 8.87
6/2/2022 5:45:00 PM 21.11 69.998 0.507 7.84 5.87 8.88
6/2/2022 6:00:00 PM 21.1 69.98 0.507 7.86 5.27 8.85
6/2/2022 6:15:00 PM 21.09 69.962 0.506 7.86 5.03 8.85
6/2/2022 6:30:00 PM 21.09 69.962 0.506 7.86 4.84 8.86
6/2/2022 6:45:00 PM 21.08 69.944 0.507 7.86 5.04 8.86
6/2/2022 7:00:00 PM 21.09 69.962 0.35 7.87 4.81 8.87
6/2/2022 7:15:00 PM 21.09 69.962 0.317 7.87 4.55 8.87
6/2/2022 7:30:00 PM 21.09 69.962 0.394 7.87 4.71 8.86
6/2/2022 7:45:00 PM 21.06 69.908 0.395 7.87 5.25 8.82
6/2/2022 8:00:00 PM 21.05 69.89 0.408 7.86 5.2 8.79
6/2/2022 8:15:00 PM 21.03 69.854 0.505 7.85 5.01 8.78
6/2/2022 8:30:00 PM 21.01 69.818 0.504 7.86 12 8.78
6/2/2022 8:45:00 PM 20.99 69.782 0.402 7.85 4.33 8.77
6/2/2022 9:00:00 PM 20.98 69.764 0.504 7.86 4.67 8.75
6/2/2022 9:15:00 PM 20.96 69.728 0.504 7.85 5.34 8.74
6/2/2022 9:30:00 PM 20.94 69.692 0.503 7.85 5.35 8.74
6/2/2022 9:45:00 PM 20.93 69.674 0.503 7.85 5.6 8.73
6/2/2022 10:00:00 PM 20.91 69.638 0.502 7.84 5.7 8.72
6/2/2022 10:15:00 PM 20.9 69.62 0.502 7.84 5.47 8.7
6/2/2022 10:30:00 PM 20.88 69.584 0.377 7.83 5.7 8.68
6/2/2022 10:45:00 PM 20.86 69.548 0.37 7.83 5.77 8.67
6/2/2022 11:00:00 PM 20.84 69.512 0.501 7.82 6.01 8.65
6/2/2022 11:15:00 PM 20.82 69.476 0.501 7.82 6.22 8.64
6/2/2022 11:30:00 PM 20.79 69.422 0.501 7.8 6.12 8.63
6/2/2022 11:45:00 PM 20.75 69.35 0.502 7.81 6.11 8.61
6/3/2022 12:00:00 AM 20.71 69.278 0.501 7.81 6.02 8.6
6/3/2022 12:15:00 AM 20.66 69.188 0.501 7.81 6.03 8.59
6/3/2022 12:30:00 AM 20.62 69.116 0.502 7.8 6.29 8.57
6/3/2022 12:45:00 AM 20.57 69.026 0.502 7.79 5.88 8.57
6/3/2022 1:00:00 AM 20.52 68.936 0.502 7.77 5.76 8.56
6/3/2022 1:15:00 AM 20.48 68.864 0.417 7.78 5.47 8.55
6/3/2022 1:30:00 AM 20.42 68.756 0.502 7.77 5.37 8.54
6/3/2022 1:45:00 AM 20.38 68.684 0.396 7.75 5.77 8.53
6/3/2022 2:00:00 AM 20.33 68.594 0.501 7.76 5.71 8.53
6/3/2022 2:15:00 AM 20.28 68.504 0.501 7.75 5.33 8.52
6/3/2022 2:30:00 AM 20.23 68.414 0.5 7.75 6.06 8.51
6/3/2022 2:45:00 AM 20.18 68.324 0.5 7.74 5.38 8.51
6/3/2022 3:00:00 AM 20.14 68.252 0.5 7.75 5.99 8.5
6/3/2022 3:15:00 AM 20.1 68.18 0.499 7.72 5.63 8.5
6/3/2022 3:30:00 AM 20.05 68.09 0.499 7.73 5.71 8.49
6/3/2022 3:45:00 AM 20 68 0.499 7.72 6.83 8.49
6/3/2022 4:00:00 AM 19.96 67.92799 0.499 7.73 9.23 8.5
6/3/2022 4:15:00 AM 19.92 67.856 0.498 7.73 6.25 8.49
6/3/2022 4:30:00 AM 19.88 67.784 0.498 7.72 5.69 8.5
6/3/2022 4:45:00 AM 19.84 67.712 0.498 7.72 6.2 8.5
6/3/2022 5:00:00 AM 19.79 67.622 0.498 7.69 6.13 8.5
6/3/2022 5:15:00 AM 19.74 67.532 0.497 7.7 6.49 8.51
6/3/2022 5:30:00 AM 19.7 67.46 0.497 7.7 6.57 8.52
6/3/2022 5:45:00 AM 19.66 67.388 0.495 7.71 7.21 8.52
6/3/2022 6:00:00 AM 19.62 67.316 0.494 7.7 7.5 8.53
6/3/2022 6:15:00 AM 19.59 67.262 0.492 7.71 7.24 8.54
6/3/2022 6:30:00 AM 19.55 67.19 0.491 7.68 6.54 8.56
6/3/2022 6:45:00 AM 19.51 67.118 0.49 7.71 6.44 8.56
6/3/2022 7:00:00 AM 19.48 67.064 0.488 7.69 6.48 8.58
6/3/2022 7:15:00 AM 19.45 67.01 0.487 7.71 6.28 8.58
6/3/2022 7:30:00 AM 19.43 66.974 0.486 7.71 6.07 8.59
6/3/2022 7:45:00 AM 19.41 66.938 0.485 7.72 6.48 8.6
6/3/2022 8:00:00 AM 19.4 66.92 0.485 7.71 6.22 8.61
6/3/2022 8:15:00 AM 19.39 66.902 0.484 7.71 6.29 8.62
6/3/2022 8:30:00 AM 19.39 66.902 0.485 7.71 6.55 8.64
6/3/2022 8:45:00 AM 19.41 66.938 0.484 7.7 6.29 8.66
6/3/2022 9:00:00 AM 19.44 66.992 0.484 7.73 6.31 8.69
6/3/2022 9:15:00 AM 19.48 67.064 0.484 7.74 6.23 8.71
6/3/2022 9:30:00 AM 19.52 67.136 0.451 7.74 6.3 8.74
6/3/2022 9:45:00 AM 19.56 67.208 0.485 7.76 6.06 8.77
6/3/2022 10:00:00 AM 19.61 67.298 0.484 7.75 5.93 8.79
6/3/2022 10:15:00 AM 19.65 67.37 0.484 7.76 6 8.82
6/3/2022 10:30:00 AM 19.71 67.478 0.486 7.75 5.71 8.85
6/3/2022 10:45:00 AM 19.77 67.586 0.486 7.77 5.83 8.88
6/3/2022 11:00:00 AM 19.8 67.64 0.486 7.77 5.56 8.89
6/3/2022 11:15:00 AM 19.84 67.712 0.487 7.78 5.81 8.92
6/3/2022 11:30:00 AM 19.84 67.712 0.487 7.77 6.07 8.93
6/3/2022 11:45:00 AM 19.86 67.748 0.488 7.8 6.31 8.95
6/3/2022 12:00:00 PM 19.91 67.838 0.489 7.8 5.97 8.97
6/3/2022 12:15:00 PM 19.97 67.946 0.489 7.8 6 9
6/3/2022 12:30:00 PM 19.97 67.946 0.49 7.8 5.83 8.99
6/3/2022 12:45:00 PM 20.05 68.09 0.49 7.77 5.65 9.01
6/3/2022 1:00:00 PM 20.07 68.126 0.49 7.79 5.78 9.02
6/3/2022 1:15:00 PM 20.13 68.234 0.49 7.8 5.64 9.03
6/3/2022 1:30:00 PM 20.21 68.378 0.49 7.8 5.36 9.05
6/3/2022 1:45:00 PM 20.27 68.486 0.491 7.81 5.93 9.06
6/3/2022 2:00:00 PM 20.33 68.594 0.49 7.82 5.81 9.05
6/3/2022 2:15:00 PM 20.4 68.72 0.49 7.82 5.64 9.06
6/3/2022 2:30:00 PM 20.5 68.9 0.489 7.82 5.14 9.08
6/3/2022 2:45:00 PM 20.57 69.026 0.49 7.84 5.34 9.08
6/3/2022 3:00:00 PM 20.59 69.062 0.488 7.84 4.96 9.07
6/3/2022 3:15:00 PM 20.63 69.134 0.488 7.85 5.15 9.09
6/3/2022 3:30:00 PM 20.69 69.242 0.487 7.85 5.29 9.11
6/3/2022 3:45:00 PM 20.75 69.35 0.486 7.85 4.95 9.13
6/3/2022 4:00:00 PM 20.75 69.35 0.487 7.87 5.43 9.12
6/3/2022 4:15:00 PM 20.78 69.404 0.485 7.86 5.3 9.15
6/3/2022 4:30:00 PM 20.81 69.458 0.485 7.87 5.63 9.17
6/3/2022 4:45:00 PM 20.79 69.422 0.484 7.87 5.94 9.13
6/3/2022 5:00:00 PM 20.78 69.404 0.484 7.88 6.31 9.17
6/3/2022 5:15:00 PM 20.8 69.44 0.445 7.89 6.16 9.19
6/3/2022 5:30:00 PM 20.8 69.44 0.483 7.89 6.38 9.2
6/3/2022 5:45:00 PM 20.78 69.404 0.482 7.9 5.91 9.17
6/3/2022 6:00:00 PM 20.74 69.332 0.482 7.92 6.24 9.2
6/3/2022 6:15:00 PM 20.71 69.278 0.482 7.9 5.27 9.18
6/3/2022 6:30:00 PM 20.68 69.224 0.482 7.9 5.42 9.17
6/3/2022 6:45:00 PM 20.65 69.17 0.482 7.91 5.07 9.17
6/3/2022 7:00:00 PM 20.61 69.098 0.318 7.9 5.63 9.17
6/3/2022 7:15:00 PM 20.57 69.026 0.482 7.9 5.38 9.16
6/3/2022 7:30:00 PM 20.54 68.972 0.482 7.91 5.71 9.15
6/3/2022 7:45:00 PM 20.49 68.882 0.435 7.91 5.27 9.13
6/3/2022 8:00:00 PM 20.45 68.81 0.481 7.9 5.8 9.11
6/3/2022 8:15:00 PM 20.41 68.738 0.482 7.9 11.92 9.08
6/3/2022 8:30:00 PM 20.37 68.666 0.48 7.9 13.98 9.07
6/3/2022 8:45:00 PM 20.34 68.612 0.48 7.88 5.56 9.05
6/3/2022 9:00:00 PM 20.31 68.558 0.479 7.88 5.9 9.04
6/3/2022 9:15:00 PM 20.28 68.504 0.479 7.88 6.27 9.02
6/3/2022 9:30:00 PM 20.24 68.432 0.478 7.87 6.47 9.02
6/3/2022 9:45:00 PM 20.2 68.36 0.476 7.88 6.23 9.01
6/3/2022 10:00:00 PM 20.16 68.288 0.476 7.87 6.4 9
6/3/2022 10:15:00 PM 20.12 68.216 0.475 7.87 6.1 8.98
6/3/2022 10:30:00 PM 20.08 68.144 0.477 7.85 6.18 8.97
6/3/2022 10:45:00 PM 20.05 68.09 0.475 7.84 6.25 8.96
6/3/2022 11:00:00 PM 20 68 0.473 7.85 6.56 8.95
6/3/2022 11:15:00 PM 19.96 67.92799 0.401 7.85 6.77 8.94
6/3/2022 11:30:00 PM 19.92 67.856 0.473 7.84 6.45 8.93
6/3/2022 11:45:00 PM 19.88 67.784 0.473 7.83 6.07 8.92
6/4/2022 12:00:00 AM 19.84 67.712 0.474 7.83 6.2 8.9
6/4/2022 12:15:00 AM 19.8 67.64 0.473 7.82 5.9 8.88
6/4/2022 12:30:00 AM 19.76 67.568 0.474 7.8 6.26 8.87
6/4/2022 12:45:00 AM 19.72 67.496 0.473 7.81 6.23 8.86
6/4/2022 1:00:00 AM 19.68 67.424 0.473 7.81 5.78 8.85
6/4/2022 1:15:00 AM 19.64 67.352 0.473 7.79 17.77 8.83
6/4/2022 1:30:00 AM 19.61 67.298 0.472 7.79 5.83 8.81
6/4/2022 1:45:00 AM 19.57 67.226 0.473 7.79 5.39 8.8
6/4/2022 2:00:00 AM 19.52 67.136 0.473 7.8 5.66 8.8
6/4/2022 2:15:00 AM 19.48 67.064 0.428 7.78 5.52 8.78
6/4/2022 2:30:00 AM 19.43 66.974 0.473 7.78 5.62 8.77
6/4/2022 2:45:00 AM 19.39 66.902 0.474 7.77 5.7 8.76
6/4/2022 3:00:00 AM 19.34 66.812 0.476 7.77 5.93 8.74
6/4/2022 3:15:00 AM 19.29 66.722 0.474 7.75 6.11 8.74
6/4/2022 3:30:00 AM 19.23 66.614 0.474 7.76 6.08 8.72
6/4/2022 3:45:00 AM 19.18 66.524 0.475 7.74 6.25 8.72
6/4/2022 4:00:00 AM 19.13 66.434 0.475 7.74 6.28 8.71
6/4/2022 4:15:00 AM 19.07 66.326 0.475 7.72 6.15 8.7
6/4/2022 4:30:00 AM 19.01 66.218 0.477 7.72 6.1 8.7
6/4/2022 4:45:00 AM 18.94 66.092 0.475 7.73 6.3 8.7
6/4/2022 5:00:00 AM 18.88 65.984 0.476 7.72 6.04 8.7
6/4/2022 5:15:00 AM 18.81 65.858 0.477 7.71 6.4 8.7
6/4/2022 5:30:00 AM 18.75 65.75 0.477 7.72 14.38 8.7
6/4/2022 5:45:00 AM 18.68 65.624 0.479 7.71 6.32 8.7
6/4/2022 6:00:00 AM 18.61 65.498 0.478 7.72 6.11 8.72
6/4/2022 6:15:00 AM 18.55 65.39 0.48 7.69 6.25 8.73
6/4/2022 6:30:00 AM 18.49 65.282 0.48 7.72 6.33 8.74
6/4/2022 6:45:00 AM 18.43 65.174 0.481 7.7 6.52 8.74
6/4/2022 7:00:00 AM 18.38 65.084 0.481 7.71 6.57 8.76
6/4/2022 7:15:00 AM 18.34 65.012 0.482 7.7 6.45 8.76
6/4/2022 7:30:00 AM 18.29 64.922 0.482 7.71 6.72 8.76
6/4/2022 7:45:00 AM 18.25 64.85 0.483 7.68 7.05 8.77
6/4/2022 8:00:00 AM 18.22 64.796 0.483 7.72 6.51 8.79
6/4/2022 8:15:00 AM 18.19 64.742 0.484 7.71 6.17 8.81
6/4/2022 8:30:00 AM 18.17 64.706 0.483 7.72 6.11 8.83
6/4/2022 8:45:00 AM 18.17 64.706 0.485 7.72 5.75 8.87
6/4/2022 9:00:00 AM 18.18 64.724 0.416 7.73 5.48 8.91
6/4/2022 9:15:00 AM 18.2 64.76 0.484 7.73 5.49 8.94
6/4/2022 9:30:00 AM 18.21 64.778 0.484 7.72 5.65 8.97
6/4/2022 9:45:00 AM 18.24 64.832 0.419 7.73 5.65 9
6/4/2022 10:00:00 AM 18.25 64.85 0.485 7.75 5.35 9.03
6/4/2022 10:15:00 AM 18.29 64.922 0.419 7.74 5.49 9.05
6/4/2022 10:30:00 AM 18.31 64.958 0.485 7.74 5.84 9.08
6/4/2022 10:45:00 AM 18.36 65.048 0.485 7.75 5.47 9.12
6/4/2022 11:00:00 AM 18.39 65.102 0.486 7.75 5.28 9.15
6/4/2022 11:15:00 AM 18.42 65.156 0.486 7.76 5.63 9.16
6/4/2022 11:30:00 AM 18.49 65.282 0.487 7.75 5.16 9.2
6/4/2022 11:45:00 AM 18.54 65.372 0.487 7.77 4.81 9.21
6/4/2022 12:00:00 PM 18.62 65.516 0.422 7.78 4.68 9.23
6/4/2022 12:15:00 PM 18.67 65.606 0.489 7.77 4.82 9.24
6/4/2022 12:30:00 PM 18.7 65.66 0.489 7.78 5.19 9.24
6/4/2022 12:45:00 PM 18.77 65.786 0.429 7.8 5.12 9.26
6/4/2022 1:00:00 PM 18.8 65.84 0.491 7.78 4.91 9.28
6/4/2022 1:15:00 PM 18.86 65.948 0.492 7.78 5.15 9.29
6/4/2022 1:30:00 PM 18.95 66.11 0.493 7.8 4.65 9.3
6/4/2022 1:45:00 PM 19.04 66.272 0.495 7.81 4.44 9.3
6/4/2022 2:00:00 PM 19.15 66.47 0.495 7.81 4.85 9.29
6/4/2022 2:15:00 PM 19.26 66.668 0.496 7.82 4.65 9.3
6/4/2022 2:30:00 PM 19.36 66.848 0.497 7.82 4.56 9.3
6/4/2022 2:45:00 PM 19.5 67.1 0.498 7.82 4.05 9.3
6/4/2022 3:00:00 PM 19.61 67.298 0.499 7.82 4.42 9.3
6/4/2022 3:15:00 PM 19.68 67.424 0.5 7.85 3.78 9.3
6/4/2022 3:30:00 PM 19.76 67.568 0.501 7.85 4.22 9.3
6/4/2022 3:45:00 PM 19.89 67.802 0.502 7.85 7.01 9.31
6/4/2022 4:00:00 PM 19.89 67.802 0.395 7.86 10.81 9.32
6/4/2022 4:15:00 PM 19.99 67.982 0.504 7.86 6.24 9.32
6/4/2022 4:30:00 PM 20.08 68.144 0.505 7.85 4.76 9.33
6/4/2022 4:45:00 PM 20.15 68.27 0.506 7.87 4.14 9.33
6/4/2022 5:00:00 PM 20.15 68.27 0.507 7.88 3.78 9.33
6/4/2022 5:15:00 PM 20.16 68.288 0.507 7.87 3.98 9.32
6/4/2022 5:30:00 PM 20.19 68.342 0.508 7.89 4.4 9.33
6/4/2022 5:45:00 PM 20.25 68.45 0.508 7.9 3.92 9.32
6/4/2022 6:00:00 PM 20.26 68.468 0.394 7.89 4.18 9.31
6/4/2022 6:15:00 PM 20.26 68.468 0.509 7.9 4.39 9.3
6/4/2022 6:30:00 PM 20.25 68.45 0.51 7.91 4.18 9.29
6/4/2022 6:45:00 PM 20.22 68.396 0.51 7.92 4.51 9.27
6/4/2022 7:00:00 PM 20.21 68.378 0.51 7.91 4.55 9.25
6/4/2022 7:15:00 PM 20.19 68.342 0.511 7.92 4.31 9.24
6/4/2022 7:30:00 PM 20.16 68.288 0.51 7.91 4.89 9.23
6/4/2022 7:45:00 PM 20.13 68.234 0.51 7.91 4.88 9.22
6/4/2022 8:00:00 PM 20.11 68.198 0.51 7.91 4.88 9.2
6/4/2022 8:15:00 PM 20.08 68.144 0.51 7.9 5.31 9.19
6/4/2022 8:30:00 PM 20.05 68.09 0.51 7.9 5.21 9.17
6/4/2022 8:45:00 PM 20.02 68.036 0.51 7.9 5.34 9.15
6/4/2022 9:00:00 PM 19.99 67.982 0.417 7.9 6.09 9.13
6/4/2022 9:15:00 PM 19.97 67.946 0.51 7.9 5.81 9.12
6/4/2022 9:30:00 PM 19.95 67.91 0.51 7.89 5.86 9.1
6/4/2022 9:45:00 PM 19.92 67.856 0.51 7.9 5.63 9.08
6/4/2022 10:00:00 PM 19.89 67.802 0.51 7.89 5.6 9.07
6/4/2022 10:15:00 PM 19.86 67.748 0.51 7.88 5.75 9.05
6/4/2022 10:30:00 PM 19.83 67.694 0.51 7.88 5.8 9.04
6/4/2022 10:45:00 PM 19.8 67.64 0.408 7.85 5.79 9.02
6/4/2022 11:00:00 PM 19.76 67.568 0.51 7.86 6.11 9
6/4/2022 11:15:00 PM 19.72 67.496 0.51 7.84 5.71 8.99
6/4/2022 11:30:00 PM 19.68 67.424 0.51 7.86 5.69 8.97
6/4/2022 11:45:00 PM 19.64 67.352 0.51 7.85 5.33 8.96
6/5/2022 12:00:00 AM 19.61 67.298 0.51 7.81 5.58 8.95
6/5/2022 12:15:00 AM 19.56 67.208 0.51 7.84 6.15 8.92
6/5/2022 12:30:00 AM 19.53 67.154 0.51 7.82 5.19 8.92
6/5/2022 12:45:00 AM 19.48 67.064 0.51 7.82 5.38 8.89
6/5/2022 1:00:00 AM 19.44 66.992 0.511 7.82 5.84 8.89
6/5/2022 1:15:00 AM 19.39 66.902 0.511 7.82 5.65 8.87
6/5/2022 1:30:00 AM 19.34 66.812 0.511 7.81 5.24 8.86
6/5/2022 1:45:00 AM 19.29 66.722 0.511 7.81 6.45 8.85
6/5/2022 2:00:00 AM 19.24 66.632 0.511 7.8 5.36 8.84
6/5/2022 2:15:00 AM 19.19 66.542 0.511 7.8 5.23 8.83
6/5/2022 2:30:00 AM 19.14 66.452 0.436 7.8 5.06 8.82
6/5/2022 2:45:00 AM 19.08 66.344 0.511 7.79 4.93 8.82
6/5/2022 3:00:00 AM 19.03 66.254 0.442 7.8 5.44 8.82
6/5/2022 3:15:00 AM 18.97 66.146 0.511 7.79 4.84 8.8
6/5/2022 3:30:00 AM 18.92 66.056 0.512 7.78 5.39 8.8
6/5/2022 3:45:00 AM 18.86 65.948 0.512 7.78 5.16 8.78
6/5/2022 4:00:00 AM 18.8 65.84 0.432 7.77 5.24 8.79
6/5/2022 4:15:00 AM 18.74 65.732 0.512 7.76 5.22 8.77
6/5/2022 4:30:00 AM 18.68 65.624 0.433 7.76 4.68 8.77
6/5/2022 4:45:00 AM 18.62 65.516 0.513 7.77 5.09 8.77
6/5/2022 5:00:00 AM 18.55 65.39 0.513 7.75 5.18 8.77
6/5/2022 5:15:00 AM 18.48 65.264 0.513 7.75 4.83 8.78
6/5/2022 5:30:00 AM 18.41 65.138 0.514 7.76 4.78 8.77
6/5/2022 5:45:00 AM 18.34 65.012 0.514 7.75 5.5 8.78
6/5/2022 6:00:00 AM 18.27 64.886 0.515 7.73 5.52 8.79
6/5/2022 6:15:00 AM 18.21 64.778 0.514 7.73 5.38 8.8
6/5/2022 6:30:00 AM 18.14 64.652 0.517 7.73 5.39 8.81
6/5/2022 6:45:00 AM 18.08 64.544 0.515 7.73 5.96 8.82
6/5/2022 7:00:00 AM 18.01 64.418 0.516 7.72 5.54 8.83
6/5/2022 7:15:00 AM 17.95 64.31 0.501 7.73 5.86 8.84
6/5/2022 7:30:00 AM 17.89 64.202 0.517 7.75 5.33 8.85
6/5/2022 7:45:00 AM 17.84 64.112 0.516 7.75 5.95 8.87
6/5/2022 8:00:00 AM 17.78 64.004 0.517 7.76 5.46 8.88
6/5/2022 8:15:00 AM 17.73 63.914 0.516 7.73 5.32 8.91
6/5/2022 8:30:00 AM 17.69 63.842 0.517 7.73 5.22 8.94
6/5/2022 8:45:00 AM 17.66 63.788 0.516 7.74 5 8.99
6/5/2022 9:00:00 AM 17.67 63.806 0.395 7.75 5.19 9.03
6/5/2022 9:15:00 AM 17.67 63.806 0.515 7.76 5.55 9.08
6/5/2022 9:30:00 AM 17.68 63.824 0.515 7.77 5.11 9.11
6/5/2022 9:45:00 AM 17.68 63.824 0.515 7.78 4.71 9.15
6/5/2022 10:00:00 AM 17.7 63.86 0.514 7.76 4.73 9.18
6/5/2022 10:15:00 AM 17.71 63.878 0.513 7.75 4.54 9.22
6/5/2022 10:30:00 AM 17.73 63.914 0.513 7.74 4.52 9.26
6/5/2022 10:45:00 AM 17.75 63.95 0.512 7.78 4.68 9.3
6/5/2022 11:00:00 AM 17.8 64.04 0.511 7.8 4.29 9.33
6/5/2022 11:15:00 AM 17.85 64.13 0.51 7.78 4.43 9.36
6/5/2022 11:30:00 AM 17.86 64.148 0.511 7.78 4.4 9.39
6/5/2022 11:45:00 AM 17.91 64.238 0.509 7.8 4.14 9.42
6/5/2022 12:00:00 PM 17.95 64.31 0.509 7.79 4.18 9.44
6/5/2022 12:15:00 PM 17.94 64.292 0.509 7.8 4.56 9.45
6/5/2022 12:30:00 PM 17.96 64.328 0.507 7.8 4.22 9.48
6/5/2022 12:45:00 PM 18.03 64.454 0.507 7.8 3.98 9.49
6/5/2022 1:00:00 PM 18.15 64.67 0.506 7.81 4.04 9.51
6/5/2022 1:15:00 PM 18.13 64.634 0.506 7.81 3.8 9.51
6/5/2022 1:30:00 PM 18.13 64.634 0.506 7.82 3.7 9.53
6/5/2022 1:45:00 PM 18.25 64.85 0.505 7.84 3.7 9.54
6/5/2022 2:00:00 PM 18.29 64.922 0.451 7.84 3.68 9.54
6/5/2022 2:15:00 PM 18.34 65.012 0.506 7.83 4.11 9.54
6/5/2022 2:30:00 PM 18.39 65.102 0.508 7.84 3.76 9.55
6/5/2022 2:45:00 PM 18.47 65.246 0.505 7.85 3.33 9.56
6/5/2022 3:00:00 PM 18.62 65.516 0.506 7.85 3.3 9.56
6/5/2022 3:15:00 PM 18.64 65.552 0.506 7.86 3.39 9.57
6/5/2022 3:30:00 PM 18.72 65.696 0.506 7.87 3.17 9.57
6/5/2022 3:45:00 PM 18.82 65.876 0.507 7.87 3.02 9.57
6/5/2022 4:00:00 PM 18.87 65.966 0.507 7.87 2.99 9.58
6/5/2022 4:15:00 PM 18.92 66.056 0.507 7.88 3.35 9.59
6/5/2022 4:30:00 PM 19.01 66.218 0.508 7.89 3.04 9.6
6/5/2022 4:45:00 PM 19.1 66.38 0.508 7.9 3.07 9.59
6/5/2022 5:00:00 PM 19.11 66.398 0.509 7.9 3.29 9.6
6/5/2022 5:15:00 PM 19.14 66.452 0.51 7.9 2.95 9.6
6/5/2022 5:30:00 PM 19.17 66.506 0.51 7.9 2.93 9.6
6/5/2022 5:45:00 PM 19.21 66.578 0.51 7.91 2.89 9.6
6/5/2022 6:00:00 PM 19.24 66.632 0.512 7.92 2.96 9.6
6/5/2022 6:15:00 PM 19.23 66.614 0.512 7.93 3.78 9.6
6/5/2022 6:30:00 PM 19.23 66.614 0.514 7.94 3.02 9.59
6/5/2022 6:45:00 PM 19.22 66.596 0.515 7.93 3.06 9.56
6/5/2022 7:00:00 PM 19.19 66.542 0.516 7.94 2.89 9.56
6/5/2022 7:15:00 PM 19.17 66.506 0.516 7.94 3.14 9.54
6/5/2022 7:30:00 PM 19.14 66.452 0.518 7.94 3.25 9.54
6/5/2022 7:45:00 PM 19.11 66.398 0.518 7.93 3.32 9.51
6/5/2022 8:00:00 PM 19.08 66.344 0.519 7.94 3.85 9.51
6/5/2022 8:15:00 PM 19.05 66.29 0.52 7.93 3.82 9.49
6/5/2022 8:30:00 PM 19.02 66.236 0.52 7.92 4.07 9.47
6/5/2022 8:45:00 PM 19 66.2 0.521 7.93 3.98 9.45
6/5/2022 9:00:00 PM 18.98 66.164 0.522 7.92 4.31 9.43
6/5/2022 9:15:00 PM 18.98 66.164 0.523 7.93 4.63 9.42
6/5/2022 9:30:00 PM 18.97 66.146 0.522 7.92 4.37 9.41
6/5/2022 9:45:00 PM 18.96 66.128 0.522 7.92 5.77 9.39
6/5/2022 10:00:00 PM 18.94 66.092 0.522 7.92 4.95 9.38
6/5/2022 10:15:00 PM 18.92 66.056 0.522 7.91 5.37 9.36
6/5/2022 10:30:00 PM 18.9 66.02 0.522 7.91 4.42 9.34
6/5/2022 10:45:00 PM 18.89 66.002 0.522 7.9 4.71 9.31
6/5/2022 11:00:00 PM 18.86 65.948 0.522 7.89 4.28 9.3
6/5/2022 11:15:00 PM 18.84 65.912 0.522 7.89 4.74 9.28
6/5/2022 11:30:00 PM 18.82 65.876 0.522 7.89 4.69 9.26
6/5/2022 11:45:00 PM 18.8 65.84 0.523 7.88 4.48 9.23
6/6/2022 12:00:00 AM 18.78 65.804 0.522 7.89 4.39 9.21
6/6/2022 12:15:00 AM 18.75 65.75 0.522 7.87 4.41 9.19
6/6/2022 12:30:00 AM 18.73 65.714 0.522 7.86 4.52 9.18
6/6/2022 12:45:00 AM 18.69 65.642 0.522 7.86 4.73 9.15
6/6/2022 1:00:00 AM 18.67 65.606 0.405 7.86 4.6 9.13
6/6/2022 1:15:00 AM 18.63 65.534 0.522 7.85 4.87 9.11
6/6/2022 1:30:00 AM 18.6 65.48 0.522 7.85 5.31 9.1
6/6/2022 1:45:00 AM 18.57 65.426 0.462 7.85 4.82 9.09
6/6/2022 2:00:00 AM 18.53 65.354 0.522 7.83 4.79 9.07
6/6/2022 2:15:00 AM 18.49 65.282 0.522 7.83 4.67 9.05
6/6/2022 2:30:00 AM 18.45 65.21 0.521 7.82 4.54 9.05
6/6/2022 2:45:00 AM 18.41 65.138 0.521 7.82 4.68 9.03
6/6/2022 3:00:00 AM 18.36 65.048 0.402 7.81 4.88 9.02
6/6/2022 3:15:00 AM 18.32 64.976 0.52 7.81 4.93 9
6/6/2022 3:30:00 AM 18.27 64.886 0.52 7.81 4.63 8.99
6/6/2022 3:45:00 AM 18.22 64.796 0.519 7.79 4.76 8.98
6/6/2022 4:00:00 AM 18.17 64.706 0.518 7.79 4.8 8.97
6/6/2022 4:15:00 AM 18.13 64.634 0.519 7.79 4.71 8.97
6/6/2022 4:30:00 AM 18.07 64.526 0.518 7.79 4.6 8.96
6/6/2022 4:45:00 AM 18.02 64.436 0.518 7.78 4.42 8.94
6/6/2022 5:00:00 AM 17.97 64.346 0.519 7.78 4.72 8.94
6/6/2022 5:15:00 AM 17.91 64.238 0.519 7.77 5.03 8.94
6/6/2022 5:30:00 AM 17.85 64.13 0.518 7.76 4.57 8.93
6/6/2022 5:45:00 AM 17.79 64.022 0.518 7.74 4.52 8.93
6/6/2022 6:00:00 AM 17.73 63.914 0.519 7.76 4.73 8.94
6/6/2022 6:15:00 AM 17.68 63.824 0.519 7.75 4.93 8.95
6/6/2022 6:30:00 AM 17.62 63.716 0.518 7.75 4.91 8.96
6/6/2022 6:45:00 AM 17.57 63.626 0.519 7.74 5.17 8.97
6/6/2022 7:00:00 AM 17.52 63.536 0.522 7.75 5.25 8.97
6/6/2022 7:15:00 AM 17.47 63.446 0.519 7.75 5.14 8.98
6/6/2022 7:30:00 AM 17.43 63.374 0.521 7.74 5.02 8.99
6/6/2022 7:45:00 AM 17.38 63.284 0.52 7.74 5.25 9
6/6/2022 8:00:00 AM 17.34 63.212 0.521 7.74 4.97 9.01
6/6/2022 8:15:00 AM 17.31 63.158 0.521 7.75 5.02 9.05
6/6/2022 8:30:00 AM 17.29 63.122 0.521 7.73 4.68 9.07
6/6/2022 8:45:00 AM 17.28 63.104 0.521 7.75 4.56 9.11
6/6/2022 9:00:00 AM 17.29 63.122 0.521 7.76 4.47 9.15
6/6/2022 9:15:00 AM 17.31 63.158 0.52 7.77 4.78 9.19
6/6/2022 9:30:00 AM 17.33 63.194 0.52 7.77 4.71 9.23
6/6/2022 9:45:00 AM 17.35 63.23 0.52 7.78 4.8 9.28
6/6/2022 10:00:00 AM 17.37 63.266 0.519 7.78 4.26 9.31
6/6/2022 10:15:00 AM 17.41 63.338 0.519 7.78 4.14 9.34
6/6/2022 10:30:00 AM 17.46 63.428 0.417 7.78 4.05 9.39
6/6/2022 10:45:00 AM 17.48 63.464 0.519 7.79 4.32 9.41
6/6/2022 11:00:00 AM 17.55 63.59 0.519 7.8 3.77 9.45
6/6/2022 11:15:00 AM 17.63 63.734 0.519 7.8 3.88 9.48
6/6/2022 11:30:00 AM 17.64 63.752 0.518 7.81 3.97 9.51
6/6/2022 11:45:00 AM 17.67 63.806 0.518 7.81 3.77 9.55
6/6/2022 12:00:00 PM 17.73 63.914 0.518 7.82 3.72 9.59
6/6/2022 12:15:00 PM 17.76 63.968 0.518 7.82 3.73 9.57
6/6/2022 12:30:00 PM 17.79 64.022 0.517 7.84 3.72 9.62
6/6/2022 12:45:00 PM 17.87 64.166 0.517 7.85 3.57 9.63
6/6/2022 1:00:00 PM 17.85 64.13 0.516 7.82 3.43 9.61
6/6/2022 1:15:00 PM 17.92 64.256 0.516 7.84 3.59 9.65
6/6/2022 1:30:00 PM 18.03 64.454 0.515 7.85 3.71 9.67
6/6/2022 1:45:00 PM 18.09 64.562 0.515 7.84 3.82 9.67
6/6/2022 2:00:00 PM 18.12 64.616 0.514 7.85 3.3 9.68
6/6/2022 2:15:00 PM 18.19 64.742 0.513 7.86 3.26 9.68
6/6/2022 2:30:00 PM 18.25 64.85 0.513 7.85 3.43 9.68
6/6/2022 2:45:00 PM 18.36 65.048 0.513 7.87 3.65 9.68
6/6/2022 3:00:00 PM 18.45 65.21 0.512 7.88 3.29 9.68
6/6/2022 3:15:00 PM 18.57 65.426 0.512 7.87 3.02 9.67
6/6/2022 3:30:00 PM 18.67 65.606 0.512 7.89 2.63 9.67
6/6/2022 3:45:00 PM 18.78 65.804 0.512 7.9 2.93 9.68
6/6/2022 4:00:00 PM 18.89 66.002 0.511 7.91 2.76 9.68
6/6/2022 4:15:00 PM 19 66.2 0.511 7.91 2.99 9.69
6/6/2022 4:30:00 PM 19.03 66.254 0.511 7.91 2.74 9.69
6/6/2022 4:45:00 PM 19.09 66.362 0.511 7.92 2.68 9.69
6/6/2022 5:00:00 PM 19.17 66.506 0.511 7.93 2.7 9.7
6/6/2022 5:15:00 PM 19.17 66.506 0.512 7.93 2.8 9.71
6/6/2022 5:30:00 PM 19.2 66.56 0.512 7.92 2.98 9.7
6/6/2022 5:45:00 PM 19.21 66.578 0.512 7.94 3.01 9.71
6/6/2022 6:00:00 PM 19.2 66.56 0.512 7.94 2.65 9.7
6/6/2022 6:15:00 PM 19.18 66.524 0.513 7.94 2.86 9.69
6/6/2022 6:30:00 PM 19.17 66.506 0.513 7.94 3.11 9.7
6/6/2022 6:45:00 PM 19.17 66.506 0.513 7.96 3 9.69
6/6/2022 7:00:00 PM 19.15 66.47 0.514 7.95 3.66 9.65
6/6/2022 7:15:00 PM 19.14 66.452 0.514 7.96 3.61 9.66
6/6/2022 7:30:00 PM 19.13 66.434 0.427 7.96 3.17 9.63
6/6/2022 7:45:00 PM 19.11 66.398 0.517 7.96 3.6 9.62
6/6/2022 8:00:00 PM 19.1 66.38 0.517 7.95 4.21 9.59
6/6/2022 8:15:00 PM 19.09 66.362 0.409 7.97 5.2 9.57
6/6/2022 8:30:00 PM 19.09 66.362 0.519 7.96 5.13 9.54
6/6/2022 8:45:00 PM 19.09 66.362 0.414 7.96 4.56 9.53
6/6/2022 9:00:00 PM 19.09 66.362 0.521 7.95 5.56 9.5
6/6/2022 9:15:00 PM 19.1 66.38 0.522 7.94 4.88 9.48
6/6/2022 9:30:00 PM 19.11 66.398 0.523 7.95 4.6 9.46
6/6/2022 9:45:00 PM 19.12 66.416 0.524 7.94 4.22 9.45
6/6/2022 10:00:00 PM 19.12 66.416 0.526 7.94 4.92 9.43
6/6/2022 10:15:00 PM 19.12 66.416 0.527 7.94 4.25 9.4
6/6/2022 10:30:00 PM 19.11 66.398 0.527 7.95 4.58 9.37
6/6/2022 10:45:00 PM 19.11 66.398 0.529 7.93 4.95 9.34
6/6/2022 11:00:00 PM 19.1 66.38 0.529 7.93 4.37 9.33
6/6/2022 11:15:00 PM 19.09 66.362 0.531 7.92 4.5 9.29
6/6/2022 11:30:00 PM 19.08 66.344 0.531 7.92 4.88 9.28
6/6/2022 11:45:00 PM 19.07 66.326 0.532 7.92 4.64 9.25
6/7/2022 12:00:00 AM 19.06 66.308 0.532 7.92 4.64 9.23
6/7/2022 12:15:00 AM 19.04 66.272 0.415 7.91 4.4 9.2
6/7/2022 12:30:00 AM 19.02 66.236 0.533 7.91 4.71 9.18
6/7/2022 12:45:00 AM 19 66.2 0.533 7.9 4.41 9.16
6/7/2022 1:00:00 AM 18.98 66.164 0.532 7.89 4.55 9.14
6/7/2022 1:15:00 AM 18.95 66.11 0.463 7.89 4.81 9.12
6/7/2022 1:30:00 AM 18.92 66.056 0.485 7.89 4.43 9.09
6/7/2022 1:45:00 AM 18.89 66.002 0.532 7.87 4.39 9.08
6/7/2022 2:00:00 AM 18.86 65.948 0.532 7.87 4.31 9.05
6/7/2022 2:15:00 AM 18.82 65.876 0.531 7.86 4.75 9.04
6/7/2022 2:30:00 AM 18.79 65.82201 0.532 7.85 4.74 9.03
6/7/2022 2:45:00 AM 18.75 65.75 0.531 7.85 4.84 9.01
6/7/2022 3:00:00 AM 18.7 65.66 0.531 7.85 4.93 9
6/7/2022 3:15:00 AM 18.65 65.57 0.531 7.84 4.52 8.99
6/7/2022 3:30:00 AM 18.6 65.48 0.532 7.82 4.61 8.98
6/7/2022 3:45:00 AM 18.53 65.354 0.533 7.8 4.7 8.97
6/7/2022 4:00:00 AM 18.45 65.21 0.534 7.8 4.43 8.95
6/7/2022 4:15:00 AM 18.37 65.066 0.534 7.79 4.63 8.95
6/7/2022 4:30:00 AM 18.3 64.94 0.535 7.78 4.48 8.94
6/7/2022 4:45:00 AM 18.24 64.832 0.534 7.77 4.53 8.93
6/7/2022 5:00:00 AM 18.17 64.706 0.534 7.77 4.88 8.92
6/7/2022 5:15:00 AM 18.13 64.634 0.534 7.76 4.68 8.91
6/7/2022 5:30:00 AM 18.1 64.58 0.533 7.77 4.49 8.9
6/7/2022 5:45:00 AM 18.07 64.526 0.533 7.76 5.13 8.89
6/7/2022 6:00:00 AM 18.04 64.472 0.533 7.76 4.31 8.89
6/7/2022 6:15:00 AM 18.01 64.418 0.532 7.76 4.87 8.89
6/7/2022 6:30:00 AM 18 64.4 0.532 7.76 4.79 8.91
6/7/2022 6:45:00 AM 17.98 64.364 0.533 7.74 4.91 8.91
6/7/2022 7:00:00 AM 17.95 64.31 0.531 7.76 4.68 8.93
6/7/2022 7:15:00 AM 17.92 64.256 0.532 7.75 4.63 8.93
6/7/2022 7:30:00 AM 17.91 64.238 0.531 7.77 4.24 8.95
6/7/2022 7:45:00 AM 17.89 64.202 0.532 7.76 4.22 8.97
6/7/2022 8:00:00 AM 17.88 64.184 0.531 7.76 4.75 9
6/7/2022 8:15:00 AM 17.88 64.184 0.531 7.77 4.4 9.05
6/7/2022 8:30:00 AM 17.87 64.166 0.531 7.77 4.47 9.02
6/7/2022 8:45:00 AM 17.87 64.166 0.532 7.76 4.84 9.05
6/7/2022 9:00:00 AM 17.87 64.166 0.532 7.77 4.2 9.1
6/7/2022 9:15:00 AM 17.89 64.202 0.531 7.78 4.19 9.16
6/7/2022 9:30:00 AM 17.89 64.202 0.531 7.78 4.26 9.17
6/7/2022 9:45:00 AM 17.91 64.238 0.474 7.79 3.78 9.24
6/7/2022 10:00:00 AM 17.88 64.184 0.532 7.78 3.94 9.14
6/7/2022 10:15:00 AM 17.87 64.166 0.532 7.78 3.93 9.18
6/7/2022 10:30:00 AM 17.91 64.238 0.53 7.81 4 9.32
6/7/2022 10:45:00 AM 17.96 64.328 0.53 7.8 4.95 9.36
6/7/2022 11:00:00 AM 18.02 64.436 0.46 7.81 4.67 9.4
6/7/2022 11:15:00 AM 18.01 64.418 0.529 7.81 3.73 9.38
6/7/2022 11:30:00 AM 18.08 64.544 0.528 7.82 3.85 9.43
6/7/2022 11:45:00 AM 18 64.4 0.527 7.81 4.81 9.31
6/7/2022 12:00:00 PM 17.97 64.346 0.526 7.81 3.8 9.32
6/7/2022 12:15:00 PM 17.96 64.328 0.527 7.8 3.74 9.27
6/7/2022 12:30:00 PM 17.98 64.364 0.46 7.82 3.77 9.41
6/7/2022 12:45:00 PM 18.02 64.436 0.524 7.83 3.83 9.49
6/7/2022 1:00:00 PM 18.09 64.562 0.523 7.84 3.9 9.55
6/7/2022 1:15:00 PM 18.11 64.598 0.522 7.83 3.6 9.5
6/7/2022 1:30:00 PM 18.08 64.544 0.521 7.83 3.71 9.46
6/7/2022 1:45:00 PM 18.11 64.598 0.52 7.84 3.34 9.48
6/7/2022 2:00:00 PM 18.1 64.58 0.519 7.84 3.58 9.49
6/7/2022 2:15:00 PM 18.11 64.598 0.519 7.83 3.17 9.43
6/7/2022 2:30:00 PM 18.11 64.598 0.518 7.83 3.07 9.44
6/7/2022 2:45:00 PM 18.1 64.58 0.518 7.83 3.11 9.45
6/7/2022 3:00:00 PM 18.1 64.58 0.517 7.85 3.29 9.47
6/7/2022 3:15:00 PM 18.11 64.598 0.517 7.84 3.19 9.49
6/7/2022 3:30:00 PM 18.1 64.58 0.516 7.84 3.52 9.46
6/7/2022 3:45:00 PM 18.11 64.598 0.517 7.84 3.57 9.44
6/7/2022 4:00:00 PM 18.09 64.562 0.516 7.85 3.99 9.43
6/7/2022 4:15:00 PM 18.12 64.616 0.515 7.86 3.53 9.53
6/7/2022 4:30:00 PM 18.14 64.652 0.515 7.89 3.65 9.5
6/7/2022 4:45:00 PM 18.16 64.688 0.516 7.86 3.62 9.51
6/7/2022 5:00:00 PM 18.16 64.688 0.515 7.85 3.66 9.45
6/7/2022 5:15:00 PM 18.18 64.724 0.515 7.86 3.67 9.44
6/7/2022 5:30:00 PM 18.2 64.76 0.515 7.87 3.98 9.42
6/7/2022 5:45:00 PM 18.22 64.796 0.515 7.87 4 9.45
6/7/2022 6:00:00 PM 18.24 64.832 0.516 7.88 4.18 9.46
6/7/2022 6:15:00 PM 18.26 64.868 0.516 7.88 3.72 9.44
6/7/2022 6:30:00 PM 18.28 64.904 0.517 7.88 3.59 9.43
6/7/2022 6:45:00 PM 18.3 64.94 0.517 7.89 3.73 9.44
6/7/2022 7:00:00 PM 18.33 64.994 0.519 7.89 3.66 9.46
6/7/2022 7:15:00 PM 18.35 65.03 0.52 7.89 3.48 9.44
6/7/2022 7:30:00 PM 18.37 65.066 0.521 7.89 3.65 9.43
6/7/2022 7:45:00 PM 18.39 65.102 0.522 7.9 3.56 9.43
6/7/2022 8:00:00 PM 18.42 65.156 0.523 7.91 3.63 9.43
6/7/2022 8:15:00 PM 18.44 65.192 0.523 7.89 4.15 9.42
6/7/2022 8:30:00 PM 18.46 65.228 0.524 7.9 4.65 9.4
6/7/2022 8:45:00 PM 18.47 65.246 0.525 7.9 3.93 9.38
6/7/2022 9:00:00 PM 18.49 65.282 0.526 7.91 5.36 9.36
6/7/2022 9:15:00 PM 18.5 65.3 0.526 7.9 6.94 9.35
6/7/2022 9:30:00 PM 18.52 65.336 0.528 7.89 4.48 9.34
6/7/2022 9:45:00 PM 18.53 65.354 0.529 7.9 4.48 9.32
6/7/2022 10:00:00 PM 18.54 65.372 0.529 7.89 4.42 9.29
6/7/2022 10:15:00 PM 18.54 65.372 0.53 7.88 4.57 9.28
6/7/2022 10:30:00 PM 18.55 65.39 0.531 7.89 4.64 9.25
6/7/2022 10:45:00 PM 18.56 65.408 0.531 7.88 4.15 9.22
6/7/2022 11:00:00 PM 18.56 65.408 0.531 7.88 4.03 9.2
6/7/2022 11:15:00 PM 18.56 65.408 0.532 7.88 4.31 9.17
6/7/2022 11:30:00 PM 18.56 65.408 0.532 7.87 5.16 9.14
6/7/2022 11:45:00 PM 18.56 65.408 0.532 7.86 4.14 9.11
6/8/2022 12:00:00 AM 18.56 65.408 0.532 7.86 3.76 9.09
6/8/2022 12:15:00 AM 18.55 65.39 0.532 7.84 3.94 9.07
6/8/2022 12:30:00 AM 18.55 65.39 0.532 7.84 4.43 9.04
6/8/2022 12:45:00 AM 18.55 65.39 0.532 7.84 4.09 9.01
6/8/2022 1:00:00 AM 18.54 65.372 0.531 7.82 4.76 8.99
6/8/2022 1:15:00 AM 18.52 65.336 0.531 7.81 4.23 8.98
6/8/2022 1:30:00 AM 18.51 65.318 0.531 7.81 5.36 8.96
6/8/2022 1:45:00 AM 18.49 65.282 0.531 7.8 4.4 8.93
6/8/2022 2:00:00 AM 18.48 65.264 0.531 7.8 4.59 8.91
6/8/2022 2:15:00 AM 18.46 65.228 0.53 7.78 4.4 8.89
6/8/2022 2:30:00 AM 18.45 65.21 0.53 7.81 4.69 8.87
6/8/2022 2:45:00 AM 18.43 65.174 0.53 7.79 4.72 8.85
6/8/2022 3:00:00 AM 18.41 65.138 0.53 7.76 4.67 8.83
6/8/2022 3:15:00 AM 18.39 65.102 0.53 7.77 4.97 8.82
6/8/2022 3:30:00 AM 18.37 65.066 0.463 7.76 4.36 8.8
6/8/2022 3:45:00 AM 18.35 65.03 0.529 7.75 4.67 8.78
6/8/2022 4:00:00 AM 18.34 65.012 0.456 7.76 4.24 8.78
6/8/2022 4:15:00 AM 18.32 64.976 0.529 7.74 4.66 8.77
6/8/2022 4:30:00 AM 18.29 64.922 0.529 7.74 4.86 8.76
6/8/2022 4:45:00 AM 18.27 64.886 0.447 7.75 4.88 8.76
6/8/2022 5:00:00 AM 18.25 64.85 0.529 7.74 4.69 8.75
6/8/2022 5:15:00 AM 18.23 64.814 0.458 7.74 4.67 8.75
6/8/2022 5:30:00 AM 18.21 64.778 0.528 7.73 5.45 8.74
6/8/2022 5:45:00 AM 18.19 64.742 0.527 7.73 5.02 8.74
6/8/2022 6:00:00 AM 18.17 64.706 0.527 7.74 5.39 8.75
6/8/2022 6:15:00 AM 18.14 64.652 0.527 7.73 4.96 8.76
6/8/2022 6:30:00 AM 18.12 64.616 0.526 7.74 4.85 8.77
6/8/2022 6:45:00 AM 18.1 64.58 0.526 7.73 4.72 8.79
6/8/2022 7:00:00 AM 18.09 64.562 0.525 7.73 4.46 8.81
6/8/2022 7:15:00 AM 18.07 64.526 0.525 7.74 4.61 8.81
6/8/2022 7:30:00 AM 18.05 64.49 0.524 7.72 4.53 8.82
6/8/2022 7:45:00 AM 18.04 64.472 0.524 7.73 4.67 8.83
6/8/2022 8:00:00 AM 18.03 64.454 0.524 7.72 4.87 8.87
6/8/2022 8:15:00 AM 18.03 64.454 0.523 7.72 4.71 8.88
6/8/2022 8:30:00 AM 18.01 64.418 0.523 7.73 4.5 8.87
6/8/2022 8:45:00 AM 18.03 64.454 0.522 7.74 4.86 8.94
6/8/2022 9:00:00 AM 18.04 64.472 0.522 7.73 4.82 8.99
6/8/2022 9:15:00 AM 18.04 64.472 0.521 7.75 4.8 8.98
6/8/2022 9:30:00 AM 18.06 64.508 0.52 7.75 5 9.04
6/8/2022 9:45:00 AM 18.08 64.544 0.519 7.75 4.55 9.09
6/8/2022 10:00:00 AM 18.13 64.634 0.518 7.75 4.78 9.15
6/8/2022 10:15:00 AM 18.18 64.724 0.517 7.77 4.46 9.19
6/8/2022 10:30:00 AM 18.2 64.76 0.516 7.76 4.3 9.22
6/8/2022 10:45:00 AM 18.21 64.778 0.515 7.76 4.36 9.25
6/8/2022 11:00:00 AM 18.26 64.868 0.513 7.77 4.1 9.29
6/8/2022 11:15:00 AM 18.33 64.994 0.512 7.79 3.95 9.33
6/8/2022 11:30:00 AM 18.39 65.102 0.511 7.79 4.4 9.35
6/8/2022 11:45:00 AM 18.45 65.21 0.51 7.79 3.92 9.38
6/8/2022 12:00:00 PM 18.54 65.372 0.508 7.8 4.15 9.4
6/8/2022 12:15:00 PM 18.63 65.534 0.507 7.82 4.12 9.42
6/8/2022 12:30:00 PM 18.72 65.696 0.507 7.81 3.88 9.43
6/8/2022 12:45:00 PM 18.77 65.786 0.505 7.82 4.04 9.45
6/8/2022 1:00:00 PM 18.86 65.948 0.505 7.82 3.76 9.46
6/8/2022 1:15:00 PM 18.93 66.074 0.504 7.83 4.11 9.48
6/8/2022 1:30:00 PM 19.05 66.29 0.505 7.84 3.57 9.5
6/8/2022 1:45:00 PM 19.13 66.434 0.503 7.85 3.68 9.51
6/8/2022 2:00:00 PM 19.23 66.614 0.503 7.85 3.79 9.51
6/8/2022 2:15:00 PM 19.29 66.722 0.503 7.87 3.56 9.52
6/8/2022 2:30:00 PM 19.44 66.992 0.503 7.88 3.89 9.54
6/8/2022 2:45:00 PM 19.58 67.244 0.504 7.88 3.32 9.55
6/8/2022 3:00:00 PM 19.68 67.424 0.505 7.9 3.13 9.55
6/8/2022 3:15:00 PM 19.77 67.586 0.506 7.91 3.79 9.55
6/8/2022 3:30:00 PM 19.87 67.766 0.508 7.93 3.79 9.55
6/8/2022 3:45:00 PM 20.01 68.018 0.509 7.93 3.97 9.56
6/8/2022 4:00:00 PM 20.12 68.216 0.51 7.95 4.53 9.58
6/8/2022 4:15:00 PM 20.18 68.324 0.512 7.96 4.15 9.58
6/8/2022 4:30:00 PM 20.28 68.504 0.514 7.97 3.43 9.59
6/8/2022 4:45:00 PM 20.4 68.72 0.515 7.98 3.41 9.59
6/8/2022 5:00:00 PM 20.4 68.72 0.401 7.98 3.46 9.57
6/8/2022 5:15:00 PM 20.44 68.792 0.518 7.99 3.24 9.57
6/8/2022 5:30:00 PM 20.47 68.846 0.408 8 3.43 9.57
6/8/2022 5:45:00 PM 20.5 68.9 0.52 8 3.31 9.58
6/8/2022 6:00:00 PM 20.52 68.936 0.521 8 3.04 9.56
6/8/2022 6:15:00 PM 20.52 68.936 0.522 8 3 9.54
6/8/2022 6:30:00 PM 20.51 68.918 0.523 8 3.09 9.52
6/8/2022 6:45:00 PM 20.49 68.882 0.523 7.99 3.83 9.47
6/8/2022 7:00:00 PM 20.47 68.846 0.522 7.99 3.49 9.46
6/8/2022 7:15:00 PM 20.44 68.792 0.523 7.99 3.09 9.41
6/8/2022 7:30:00 PM 20.41 68.738 0.379 7.97 3.26 9.39
6/8/2022 7:45:00 PM 20.38 68.684 0.522 7.96 3.3 9.34
6/8/2022 8:00:00 PM 20.36 68.648 0.448 7.96 3.2 9.3
6/8/2022 8:15:00 PM 20.35 68.63 0.52 7.95 3.17 9.27
6/8/2022 8:30:00 PM 20.34 68.612 0.519 7.94 4.08 9.22
6/8/2022 8:45:00 PM 20.33 68.594 0.519 7.93 4.17 9.2
6/8/2022 9:00:00 PM 20.32 68.576 0.517 7.93 4.24 9.17
6/8/2022 9:15:00 PM 20.32 68.576 0.442 7.93 4.02 9.14
6/8/2022 9:30:00 PM 20.32 68.576 0.514 7.91 3.75 9.11
6/8/2022 9:45:00 PM 20.31 68.558 0.513 7.92 3.63 9.08
6/8/2022 10:00:00 PM 20.31 68.558 0.512 7.91 3.71 9.06
6/8/2022 10:15:00 PM 20.3 68.54 0.509 7.89 3.55 9.02
6/8/2022 10:30:00 PM 20.3 68.54 0.508 7.89 5.3 9
6/8/2022 10:45:00 PM 20.29 68.522 0.507 7.89 4.63 8.97
6/8/2022 11:00:00 PM 20.29 68.522 0.505 7.89 4.6 8.94
6/8/2022 11:15:00 PM 20.28 68.504 0.504 7.88 3.84 8.91
6/8/2022 11:30:00 PM 20.27 68.486 0.504 7.86 4.16 8.89
6/8/2022 11:45:00 PM 20.26 68.468 0.414 7.88 4.35 8.86
6/9/2022 12:00:00 AM 20.25 68.45 0.502 7.86 5.16 8.83
6/9/2022 12:15:00 AM 20.24 68.432 0.5 7.83 5.69 8.81
6/9/2022 12:30:00 AM 20.23 68.414 0.498 7.85 5.08 8.78
6/9/2022 12:45:00 AM 20.21 68.378 0.499 7.84 4.14 8.76
6/9/2022 1:00:00 AM 20.19 68.342 0.499 7.83 4.76 8.73
6/9/2022 1:15:00 AM 20.17 68.306 0.499 7.83 3.77 8.71
6/9/2022 1:30:00 AM 20.14 68.252 0.498 7.81 4.55 8.7
6/9/2022 1:45:00 AM 20.12 68.216 0.498 7.81 3.81 8.67
6/9/2022 2:00:00 AM 20.1 68.18 0.497 7.81 3.74 8.65
6/9/2022 2:15:00 AM 20.09 68.162 0.496 7.81 4.09 8.61
6/9/2022 2:30:00 AM 20.07 68.126 0.496 7.8 4.43 8.6
6/9/2022 2:45:00 AM 20.05 68.09 0.495 7.81 4.28 8.58
6/9/2022 3:00:00 AM 20.03 68.054 0.495 7.79 3.94 8.56
6/9/2022 3:15:00 AM 20.01 68.018 0.494 7.78 4.09 8.54
6/9/2022 3:30:00 AM 19.98 67.964 0.493 7.79 4.02 8.53
6/9/2022 3:45:00 AM 19.96 67.92799 0.493 7.77 4.23 8.52
6/9/2022 4:00:00 AM 19.93 67.874 0.492 7.77 4.02 8.5
6/9/2022 4:15:00 AM 19.89 67.802 0.492 7.76 4.03 8.48
6/9/2022 4:30:00 AM 19.86 67.748 0.491 7.76 4.43 8.46
6/9/2022 4:45:00 AM 19.83 67.694 0.49 7.74 4.94 8.46
6/9/2022 5:00:00 AM 19.8 67.64 0.489 7.75 4.41 8.44
6/9/2022 5:15:00 AM 19.77 67.586 0.488 7.74 4.93 8.43
6/9/2022 5:30:00 AM 19.74 67.532 0.488 7.73 3.74 8.42
6/9/2022 5:45:00 AM 19.7 67.46 0.402 7.73 4.39 8.42
6/9/2022 6:00:00 AM 19.67 67.406 0.485 7.73 4.41 8.42
6/9/2022 6:15:00 AM 19.64 67.352 0.484 7.72 4.99 8.43
6/9/2022 6:30:00 AM 19.61 67.298 0.484 7.72 4.55 8.42
6/9/2022 6:45:00 AM 19.58 67.244 0.482 7.71 5.17 8.42
6/9/2022 7:00:00 AM 19.54 67.172 0.481 7.7 8.07 8.42
6/9/2022 7:15:00 AM 19.51 67.118 0.369 7.7 5.33 8.42
6/9/2022 7:30:00 AM 19.48 67.064 0.479 7.69 5.14 8.42
6/9/2022 7:45:00 AM 19.45 67.01 0.478 7.7 4.81 8.42
6/9/2022 8:00:00 AM 19.42 66.956 0.476 7.68 5.17 8.43
6/9/2022 8:15:00 AM 19.4 66.92 0.475 7.69 7.58 8.45
6/9/2022 8:30:00 AM 19.39 66.902 0.475 7.69 4.63 8.47
6/9/2022 8:45:00 AM 19.4 66.92 0.475 7.71 4.68 8.51
6/9/2022 9:00:00 AM 19.42 66.956 0.473 7.7 4.17 8.56
6/9/2022 9:15:00 AM 19.42 66.956 0.391 7.71 3.92 8.58
6/9/2022 9:30:00 AM 19.43 66.974 0.473 7.69 3.83 8.62
6/9/2022 9:45:00 AM 19.47 67.046 0.473 7.7 5 8.68
6/9/2022 10:00:00 AM 19.45 67.01 0.471 7.71 4.29 8.66
6/9/2022 10:15:00 AM 19.51 67.118 0.471 7.72 3.97 8.71
6/9/2022 10:30:00 AM 19.53 67.154 0.47 7.73 3.99 8.77
6/9/2022 10:45:00 AM 19.6 67.28 0.471 7.74 3.89 8.86
6/9/2022 11:00:00 AM 19.66 67.388 0.47 7.75 3.75 8.9
6/9/2022 11:15:00 AM 19.72 67.496 0.47 7.76 3.67 8.93
6/9/2022 11:30:00 AM 19.78 67.604 0.47 7.76 3.91 8.97
6/9/2022 11:45:00 AM 19.83 67.694 0.47 7.77 3.63 8.98
6/9/2022 12:00:00 PM 19.89 67.802 0.405 7.79 3.62 9.02
6/9/2022 12:15:00 PM 19.99 67.982 0.47 7.79 3.5 9.06
6/9/2022 12:30:00 PM 20.05 68.09 0.471 7.8 3.36 9.08
6/9/2022 12:45:00 PM 20.13 68.234 0.471 7.81 3.91 9.1
6/9/2022 1:00:00 PM 20.23 68.414 0.472 7.81 3.55 9.12
6/9/2022 1:15:00 PM 20.27 68.486 0.473 7.83 3.47 9.11
6/9/2022 1:30:00 PM 20.19 68.342 0.42 7.82 3.75 8.98
6/9/2022 1:45:00 PM 20.31 68.558 0.475 7.81 4.49 9.13
6/9/2022 2:00:00 PM 20.46 68.828 0.476 7.85 5.82 9.19
6/9/2022 2:15:00 PM 20.45 68.81 0.476 7.85 3.19 9.1
6/9/2022 2:30:00 PM 20.59 69.062 0.477 7.86 3.21 9.2
6/9/2022 2:45:00 PM 20.6 69.08 0.478 7.86 3.29 9.17
6/9/2022 3:00:00 PM 20.69 69.242 0.479 7.88 2.92 9.2
6/9/2022 3:15:00 PM 20.77 69.386 0.351 7.89 2.93 9.25
6/9/2022 3:30:00 PM 20.79 69.422 0.481 7.89 3.32 9.19
6/9/2022 3:45:00 PM 20.91 69.638 0.483 7.91 3.02 9.22
6/9/2022 4:00:00 PM 20.91 69.638 0.483 7.91 3.2 9.19
6/9/2022 4:15:00 PM 20.94 69.692 0.484 7.92 3.16 9.2
6/9/2022 4:30:00 PM 21.01 69.818 0.485 7.93 2.72 9.24
6/9/2022 4:45:00 PM 21.04 69.872 0.486 7.93 2.81 9.21
6/9/2022 5:00:00 PM 21.07 69.926 0.487 7.94 2.91 9.23
6/9/2022 5:15:00 PM 21.09 69.962 0.488 7.95 2.84 9.24
6/9/2022 5:30:00 PM 21.13 70.034 0.488 7.97 2.97 9.28
6/9/2022 5:45:00 PM 21.14 70.052 0.489 7.96 3.14 9.26
6/9/2022 6:00:00 PM 21.12 70.016 0.49 7.96 3.57 9.18
6/9/2022 6:15:00 PM 21.12 70.016 0.49 7.97 3.31 9.18
6/9/2022 6:30:00 PM 21.1 69.98 0.383 7.97 3.27 9.16
6/9/2022 6:45:00 PM 21.09 69.962 0.491 7.97 3.09 9.16
6/9/2022 7:00:00 PM 21.08 69.944 0.492 7.97 3.47 9.13
6/9/2022 7:15:00 PM 21.03 69.854 0.492 7.97 3.26 9.12
6/9/2022 7:30:00 PM 21 69.8 0.492 7.96 3.4 9.1
6/9/2022 7:45:00 PM 20.95 69.71 0.492 7.97 3.68 9.07
6/9/2022 8:00:00 PM 20.9 69.62 0.388 7.96 3.65 9.06
6/9/2022 8:15:00 PM 20.84 69.512 0.381 7.95 3.76 9.03
6/9/2022 8:30:00 PM 20.77 69.386 0.391 7.95 3.97 9.02
6/9/2022 8:45:00 PM 20.7 69.26 0.398 7.94 4.24 8.99
6/9/2022 9:00:00 PM 20.64 69.152 0.494 7.93 5.02 8.96
6/9/2022 9:15:00 PM 20.59 69.062 0.494 7.93 5.24 8.93
6/9/2022 9:30:00 PM 20.53 68.954 0.494 7.91 5.21 8.91
6/9/2022 9:45:00 PM 20.47 68.846 0.494 7.9 5.37 8.9
6/9/2022 10:00:00 PM 20.41 68.738 0.494 7.9 5.28 8.88
6/9/2022 10:15:00 PM 20.35 68.63 0.494 7.89 5.42 8.87
6/9/2022 10:30:00 PM 20.29 68.522 0.494 7.89 4.72 8.85
6/9/2022 10:45:00 PM 20.24 68.432 0.493 7.88 5.33 8.84
6/9/2022 11:00:00 PM 20.19 68.342 0.493 7.86 4.82 8.82
6/9/2022 11:15:00 PM 20.14 68.252 0.492 7.87 4.7 8.81
6/9/2022 11:30:00 PM 20.09 68.162 0.491 7.86 5.47 8.79
6/9/2022 11:45:00 PM 20.04 68.07201 0.49 7.85 4.71 8.78
6/10/2022 12:00:00 AM 19.99 67.982 0.49 7.84 4.4 8.78
6/10/2022 12:15:00 AM 19.94 67.892 0.489 7.83 4.49 8.76
6/10/2022 12:30:00 AM 19.89 67.802 0.487 7.83 4.27 8.75
6/10/2022 12:45:00 AM 19.84 67.712 0.487 7.81 4.14 8.73
6/10/2022 1:00:00 AM 19.78 67.604 0.421 7.81 4.33 8.72
6/10/2022 1:15:00 AM 19.73 67.514 0.486 7.8 4.3 8.71
6/10/2022 1:30:00 AM 19.67 67.406 0.485 7.8 4.28 8.69
6/10/2022 1:45:00 AM 19.61 67.298 0.484 7.79 4.26 8.68
6/10/2022 2:00:00 AM 19.55 67.19 0.483 7.78 4.71 8.67
6/10/2022 2:15:00 AM 19.49 67.082 0.482 7.77 4.38 8.66
6/10/2022 2:30:00 AM 19.42 66.956 0.386 7.76 4.52 8.65
6/10/2022 2:45:00 AM 19.36 66.848 0.481 7.76 4.34 8.63
6/10/2022 3:00:00 AM 19.3 66.74 0.48 7.75 4.36 8.63
6/10/2022 3:15:00 AM 19.23 66.614 0.48 7.74 3.93 8.62
6/10/2022 3:30:00 AM 19.17 66.506 0.48 7.74 4.34 8.6
6/10/2022 3:45:00 AM 19.1 66.38 0.479 7.73 4.48 8.6
6/10/2022 4:00:00 AM 19.04 66.272 0.405 7.73 4.2 8.6
6/10/2022 4:15:00 AM 18.98 66.164 0.477 7.72 4.39 8.59
6/10/2022 4:30:00 AM 18.92 66.056 0.477 7.73 4.4 8.58
6/10/2022 4:45:00 AM 18.86 65.948 0.477 7.7 4.42 8.58
6/10/2022 5:00:00 AM 18.79 65.82201 0.476 7.71 4.36 8.58
6/10/2022 5:15:00 AM 18.73 65.714 0.476 7.7 4.2 8.57
6/10/2022 5:30:00 AM 18.67 65.606 0.475 7.71 4.56 8.58
6/10/2022 5:45:00 AM 18.61 65.498 0.475 7.71 4.23 8.57
6/10/2022 6:00:00 AM 18.56 65.408 0.475 7.71 4.44 8.59
6/10/2022 6:15:00 AM 18.51 65.318 0.474 7.7 4.29 8.6
6/10/2022 6:30:00 AM 18.46 65.228 0.473 7.7 4.16 8.62
6/10/2022 6:45:00 AM 18.41 65.138 0.474 7.7 4.13 8.62
6/10/2022 7:00:00 AM 18.37 65.066 0.473 7.69 4.14 8.63
6/10/2022 7:15:00 AM 18.32 64.976 0.473 7.72 4.32 8.64
6/10/2022 7:30:00 AM 18.28 64.904 0.473 7.7 4.31 8.64
6/10/2022 7:45:00 AM 18.24 64.832 0.472 7.71 4.51 8.66
6/10/2022 8:00:00 AM 18.21 64.778 0.472 7.7 4.48 8.67
6/10/2022 8:15:00 AM 18.18 64.724 0.472 7.7 4.32 8.71
6/10/2022 8:30:00 AM 18.16 64.688 0.471 7.73 4.2 8.74
6/10/2022 8:45:00 AM 18.16 64.688 0.471 7.71 4.46 8.79
6/10/2022 9:00:00 AM 18.18 64.724 0.47 7.72 4.29 8.84
6/10/2022 9:15:00 AM 18.19 64.742 0.47 7.71 4.21 8.89
6/10/2022 9:30:00 AM 18.23 64.814 0.47 7.73 4.84 8.95
6/10/2022 9:45:00 AM 18.25 64.85 0.468 7.74 4.08 9
6/10/2022 10:00:00 AM 18.27 64.886 0.467 7.75 3.87 9.05
6/10/2022 10:15:00 AM 18.32 64.976 0.377 7.75 3.79 9.13
6/10/2022 10:30:00 AM 18.3 64.94 0.466 7.76 3.97 9.15